<?xml version="1.0" encoding="UTF-8" standalone="no" ?>
<gpx xmlns="http://www.topografix.com/GPX/1/1" xmlns:xsi="http://www.w3.org/2001/XMLSchema-instance" xsi:schemaLocation="http://www.topografix.com/GPX/1/1 http://www.topografix.com/GPX/1/1/gpx.xsd" version="1.1" creator="VisuGPX - https://www.visugpx.com">
  <metadata>
    <name>RANDO AUTOUR du viaduc MILLAU Ste MARTHE CADENEDE P1  SOULOBRES</name>
    <desc><![CDATA[  Sortie ALPINA club millavois    
                                                                                     Départ stand de tir  ravin de Ste marthe montée à la cadenede AR chapelle  St pierre de brocuejouls passage a P1 du viaduc ravin des caselles soulobres   ]]></desc>
  </metadata>
  <wpt lat="25.0618" lon="121.6403">
    <name><![CDATA[Garmin_Asia]]></name>
    <link href="C:/Users/jef/AppData/Roaming/Garmin/BaseCamp/GeotaggedPhotos/Garmin_Asia.jpg"></link>
    <type><![CDATA[photo]]></type>
  </wpt>
  <wpt lat="50.9017" lon="-1.4894">
    <name><![CDATA[Garmin_Europe]]></name>
    <link href="C:/Users/jef/AppData/Roaming/Garmin/BaseCamp/GeotaggedPhotos/Garmin_Europe.jpg"></link>
    <type><![CDATA[photo]]></type>
  </wpt>
  <wpt lat="38.8556" lon="-94.799">
    <name><![CDATA[Garmin_USA]]></name>
    <link href="C:/Users/jef/AppData/Roaming/Garmin/BaseCamp/GeotaggedPhotos/Garmin_USA.jpg"></link>
    <type><![CDATA[photo]]></type>
  </wpt>
  <trk>
    <name><![CDATA[A0-NOV-16 16:20:49]]></name>
    <trkseg>
      <trkpt lat="44.10322" lon="3.04556">
        <ele>518.77</ele>
        <time>2016-11-20T10:08:58Z</time>
      </trkpt>
      <trkpt lat="44.10318" lon="3.04555">
        <ele>518.29</ele>
        <time>2016-11-20T10:09:13Z</time>
      </trkpt>
      <trkpt lat="44.10319" lon="3.04556">
        <ele>518.29</ele>
        <time>2016-11-20T10:09:31Z</time>
      </trkpt>
      <trkpt lat="44.1032" lon="3.04556">
        <ele>518.29</ele>
        <time>2016-11-20T10:09:32Z</time>
      </trkpt>
      <trkpt lat="44.10321" lon="3.04553">
        <ele>519.73</ele>
        <time>2016-11-20T10:09:44Z</time>
      </trkpt>
      <trkpt lat="44.10316" lon="3.04552">
        <ele>519.25</ele>
        <time>2016-11-20T10:09:48Z</time>
      </trkpt>
      <trkpt lat="44.10305" lon="3.04548">
        <ele>519.73</ele>
        <time>2016-11-20T10:09:57Z</time>
      </trkpt>
      <trkpt lat="44.10291" lon="3.04538">
        <ele>519.25</ele>
        <time>2016-11-20T10:10:12Z</time>
      </trkpt>
      <trkpt lat="44.10285" lon="3.04532">
        <ele>519.73</ele>
        <time>2016-11-20T10:10:20Z</time>
      </trkpt>
      <trkpt lat="44.10271" lon="3.04523">
        <ele>520.21</ele>
        <time>2016-11-20T10:10:33Z</time>
      </trkpt>
      <trkpt lat="44.10258" lon="3.04517">
        <ele>521.17</ele>
        <time>2016-11-20T10:10:46Z</time>
      </trkpt>
      <trkpt lat="44.10243" lon="3.0451">
        <ele>521.65</ele>
        <time>2016-11-20T10:10:59Z</time>
      </trkpt>
      <trkpt lat="44.10243" lon="3.04508">
        <ele>522.13</ele>
        <time>2016-11-20T10:11:01Z</time>
      </trkpt>
      <trkpt lat="44.10247" lon="3.04504">
        <ele>523.58</ele>
        <time>2016-11-20T10:11:06Z</time>
      </trkpt>
      <trkpt lat="44.10248" lon="3.04503">
        <ele>522.61</ele>
        <time>2016-11-20T10:11:07Z</time>
      </trkpt>
      <trkpt lat="44.10251" lon="3.04497">
        <ele>522.13</ele>
        <time>2016-11-20T10:11:14Z</time>
      </trkpt>
      <trkpt lat="44.10251" lon="3.04492">
        <ele>522.13</ele>
        <time>2016-11-20T10:11:17Z</time>
      </trkpt>
      <trkpt lat="44.10252" lon="3.04481">
        <ele>522.61</ele>
        <time>2016-11-20T10:11:25Z</time>
      </trkpt>
      <trkpt lat="44.10253" lon="3.04474">
        <ele>522.61</ele>
        <time>2016-11-20T10:11:29Z</time>
      </trkpt>
      <trkpt lat="44.10253" lon="3.04466">
        <ele>523.09</ele>
        <time>2016-11-20T10:11:35Z</time>
      </trkpt>
      <trkpt lat="44.10254" lon="3.04449">
        <ele>523.58</ele>
        <time>2016-11-20T10:11:50Z</time>
      </trkpt>
      <trkpt lat="44.1026" lon="3.04431">
        <ele>523.58</ele>
        <time>2016-11-20T10:12:05Z</time>
      </trkpt>
      <trkpt lat="44.10265" lon="3.04419">
        <ele>523.09</ele>
        <time>2016-11-20T10:12:15Z</time>
      </trkpt>
      <trkpt lat="44.1027" lon="3.04414">
        <ele>522.61</ele>
        <time>2016-11-20T10:12:23Z</time>
      </trkpt>
      <trkpt lat="44.10266" lon="3.04403">
        <ele>518.77</ele>
        <time>2016-11-20T10:12:32Z</time>
      </trkpt>
      <trkpt lat="44.10273" lon="3.04397">
        <ele>516.85</ele>
        <time>2016-11-20T10:12:42Z</time>
      </trkpt>
      <trkpt lat="44.10283" lon="3.0439">
        <ele>514.92</ele>
        <time>2016-11-20T10:12:55Z</time>
      </trkpt>
      <trkpt lat="44.10289" lon="3.04388">
        <ele>515.4</ele>
        <time>2016-11-20T10:13:05Z</time>
      </trkpt>
      <trkpt lat="44.10291" lon="3.04388">
        <ele>514.44</ele>
        <time>2016-11-20T10:13:07Z</time>
      </trkpt>
      <trkpt lat="44.10307" lon="3.04379">
        <ele>513</ele>
        <time>2016-11-20T10:13:24Z</time>
      </trkpt>
      <trkpt lat="44.10317" lon="3.04371">
        <ele>511.56</ele>
        <time>2016-11-20T10:13:37Z</time>
      </trkpt>
      <trkpt lat="44.10323" lon="3.04368">
        <ele>511.08</ele>
        <time>2016-11-20T10:13:44Z</time>
      </trkpt>
      <trkpt lat="44.10332" lon="3.04363">
        <ele>510.6</ele>
        <time>2016-11-20T10:13:54Z</time>
      </trkpt>
      <trkpt lat="44.10342" lon="3.04358">
        <ele>510.12</ele>
        <time>2016-11-20T10:14:04Z</time>
      </trkpt>
      <trkpt lat="44.10355" lon="3.04355">
        <ele>509.16</ele>
        <time>2016-11-20T10:14:17Z</time>
      </trkpt>
      <trkpt lat="44.1037" lon="3.04358">
        <ele>508.19</ele>
        <time>2016-11-20T10:14:29Z</time>
      </trkpt>
      <trkpt lat="44.10386" lon="3.0436">
        <ele>507.23</ele>
        <time>2016-11-20T10:14:44Z</time>
      </trkpt>
      <trkpt lat="44.10399" lon="3.04361">
        <ele>505.31</ele>
        <time>2016-11-20T10:14:56Z</time>
      </trkpt>
      <trkpt lat="44.10402" lon="3.04357">
        <ele>504.35</ele>
        <time>2016-11-20T10:14:59Z</time>
      </trkpt>
      <trkpt lat="44.10401" lon="3.04342">
        <ele>503.39</ele>
        <time>2016-11-20T10:15:13Z</time>
      </trkpt>
      <trkpt lat="44.104" lon="3.04341">
        <ele>503.39</ele>
        <time>2016-11-20T10:15:14Z</time>
      </trkpt>
      <trkpt lat="44.10386" lon="3.04321">
        <ele>503.87</ele>
        <time>2016-11-20T10:15:30Z</time>
      </trkpt>
      <trkpt lat="44.10383" lon="3.04314">
        <ele>503.87</ele>
        <time>2016-11-20T10:15:35Z</time>
      </trkpt>
      <trkpt lat="44.10378" lon="3.04307">
        <ele>503.87</ele>
        <time>2016-11-20T10:15:40Z</time>
      </trkpt>
      <trkpt lat="44.10373" lon="3.04301">
        <ele>504.35</ele>
        <time>2016-11-20T10:15:46Z</time>
      </trkpt>
      <trkpt lat="44.10367" lon="3.04293">
        <ele>504.35</ele>
        <time>2016-11-20T10:15:54Z</time>
      </trkpt>
      <trkpt lat="44.10356" lon="3.04281">
        <ele>505.31</ele>
        <time>2016-11-20T10:16:10Z</time>
      </trkpt>
      <trkpt lat="44.10352" lon="3.04278">
        <ele>505.31</ele>
        <time>2016-11-20T10:16:17Z</time>
      </trkpt>
      <trkpt lat="44.10336" lon="3.0428">
        <ele>505.79</ele>
        <time>2016-11-20T10:16:30Z</time>
      </trkpt>
      <trkpt lat="44.10332" lon="3.04278">
        <ele>505.79</ele>
        <time>2016-11-20T10:16:34Z</time>
      </trkpt>
      <trkpt lat="44.1032" lon="3.04271">
        <ele>507.23</ele>
        <time>2016-11-20T10:16:48Z</time>
      </trkpt>
      <trkpt lat="44.10309" lon="3.0426">
        <ele>508.19</ele>
        <time>2016-11-20T10:17:00Z</time>
      </trkpt>
      <trkpt lat="44.10296" lon="3.04243">
        <ele>509.16</ele>
        <time>2016-11-20T10:17:16Z</time>
      </trkpt>
      <trkpt lat="44.10291" lon="3.04239">
        <ele>509.64</ele>
        <time>2016-11-20T10:17:23Z</time>
      </trkpt>
      <trkpt lat="44.10284" lon="3.04235">
        <ele>510.12</ele>
        <time>2016-11-20T10:17:30Z</time>
      </trkpt>
      <trkpt lat="44.10273" lon="3.04224">
        <ele>511.08</ele>
        <time>2016-11-20T10:17:42Z</time>
      </trkpt>
      <trkpt lat="44.10261" lon="3.04216">
        <ele>513</ele>
        <time>2016-11-20T10:17:55Z</time>
      </trkpt>
      <trkpt lat="44.10258" lon="3.04207">
        <ele>513.48</ele>
        <time>2016-11-20T10:18:09Z</time>
      </trkpt>
      <trkpt lat="44.10248" lon="3.04202">
        <ele>513.48</ele>
        <time>2016-11-20T10:18:24Z</time>
      </trkpt>
      <trkpt lat="44.10238" lon="3.04189">
        <ele>513.96</ele>
        <time>2016-11-20T10:18:38Z</time>
      </trkpt>
      <trkpt lat="44.10228" lon="3.04172">
        <ele>513.48</ele>
        <time>2016-11-20T10:18:53Z</time>
      </trkpt>
      <trkpt lat="44.10215" lon="3.04151">
        <ele>513.96</ele>
        <time>2016-11-20T10:19:09Z</time>
      </trkpt>
      <trkpt lat="44.10205" lon="3.04136">
        <ele>514.44</ele>
        <time>2016-11-20T10:19:23Z</time>
      </trkpt>
      <trkpt lat="44.10194" lon="3.04127">
        <ele>515.88</ele>
        <time>2016-11-20T10:19:36Z</time>
      </trkpt>
      <trkpt lat="44.10188" lon="3.0412">
        <ele>517.81</ele>
        <time>2016-11-20T10:19:44Z</time>
      </trkpt>
      <trkpt lat="44.10179" lon="3.04108">
        <ele>520.69</ele>
        <time>2016-11-20T10:19:56Z</time>
      </trkpt>
      <trkpt lat="44.1017" lon="3.04101">
        <ele>523.09</ele>
        <time>2016-11-20T10:20:06Z</time>
      </trkpt>
      <trkpt lat="44.10159" lon="3.04092">
        <ele>524.06</ele>
        <time>2016-11-20T10:20:18Z</time>
      </trkpt>
      <trkpt lat="44.1015" lon="3.04085">
        <ele>525.02</ele>
        <time>2016-11-20T10:20:28Z</time>
      </trkpt>
      <trkpt lat="44.1014" lon="3.04076">
        <ele>526.94</ele>
        <time>2016-11-20T10:20:40Z</time>
      </trkpt>
      <trkpt lat="44.10132" lon="3.04068">
        <ele>527.9</ele>
        <time>2016-11-20T10:20:50Z</time>
      </trkpt>
      <trkpt lat="44.10129" lon="3.04067">
        <ele>528.38</ele>
        <time>2016-11-20T10:20:52Z</time>
      </trkpt>
      <trkpt lat="44.10117" lon="3.04055">
        <ele>529.34</ele>
        <time>2016-11-20T10:21:06Z</time>
      </trkpt>
      <trkpt lat="44.10107" lon="3.04049">
        <ele>531.27</ele>
        <time>2016-11-20T10:21:19Z</time>
      </trkpt>
      <trkpt lat="44.10099" lon="3.04039">
        <ele>531.75</ele>
        <time>2016-11-20T10:21:30Z</time>
      </trkpt>
      <trkpt lat="44.10094" lon="3.04035">
        <ele>532.23</ele>
        <time>2016-11-20T10:21:35Z</time>
      </trkpt>
      <trkpt lat="44.10086" lon="3.04027">
        <ele>534.15</ele>
        <time>2016-11-20T10:21:44Z</time>
      </trkpt>
      <trkpt lat="44.1008" lon="3.04015">
        <ele>535.59</ele>
        <time>2016-11-20T10:21:55Z</time>
      </trkpt>
      <trkpt lat="44.10076" lon="3.04004">
        <ele>538.96</ele>
        <time>2016-11-20T10:22:06Z</time>
      </trkpt>
      <trkpt lat="44.1007" lon="3.03991">
        <ele>540.88</ele>
        <time>2016-11-20T10:22:20Z</time>
      </trkpt>
      <trkpt lat="44.10059" lon="3.03981">
        <ele>542.8</ele>
        <time>2016-11-20T10:22:34Z</time>
      </trkpt>
      <trkpt lat="44.10051" lon="3.03974">
        <ele>546.17</ele>
        <time>2016-11-20T10:22:45Z</time>
      </trkpt>
      <trkpt lat="44.10038" lon="3.03964">
        <ele>548.57</ele>
        <time>2016-11-20T10:23:00Z</time>
      </trkpt>
      <trkpt lat="44.10026" lon="3.03955">
        <ele>548.09</ele>
        <time>2016-11-20T10:23:12Z</time>
      </trkpt>
      <trkpt lat="44.10015" lon="3.03944">
        <ele>549.05</ele>
        <time>2016-11-20T10:23:24Z</time>
      </trkpt>
      <trkpt lat="44.10006" lon="3.03929">
        <ele>551.45</ele>
        <time>2016-11-20T10:23:37Z</time>
      </trkpt>
      <trkpt lat="44.09996" lon="3.0391">
        <ele>553.38</ele>
        <time>2016-11-20T10:23:52Z</time>
      </trkpt>
      <trkpt lat="44.09992" lon="3.03899">
        <ele>554.34</ele>
        <time>2016-11-20T10:24:00Z</time>
      </trkpt>
      <trkpt lat="44.09985" lon="3.03879">
        <ele>556.26</ele>
        <time>2016-11-20T10:24:14Z</time>
      </trkpt>
      <trkpt lat="44.09985" lon="3.03878">
        <ele>556.26</ele>
        <time>2016-11-20T10:24:15Z</time>
      </trkpt>
      <trkpt lat="44.09983" lon="3.03856">
        <ele>557.22</ele>
        <time>2016-11-20T10:24:30Z</time>
      </trkpt>
      <trkpt lat="44.09982" lon="3.03842">
        <ele>557.7</ele>
        <time>2016-11-20T10:24:43Z</time>
      </trkpt>
      <trkpt lat="44.09985" lon="3.03839">
        <ele>557.7</ele>
        <time>2016-11-20T10:25:03Z</time>
      </trkpt>
      <trkpt lat="44.09985" lon="3.03837">
        <ele>557.7</ele>
        <time>2016-11-20T10:25:34Z</time>
      </trkpt>
      <trkpt lat="44.09985" lon="3.03837">
        <ele>557.22</ele>
        <time>2016-11-20T10:25:56Z</time>
      </trkpt>
      <trkpt lat="44.09982" lon="3.03838">
        <ele>557.7</ele>
        <time>2016-11-20T10:26:13Z</time>
      </trkpt>
      <trkpt lat="44.09982" lon="3.03837">
        <ele>557.7</ele>
        <time>2016-11-20T10:26:36Z</time>
      </trkpt>
      <trkpt lat="44.09981" lon="3.03837">
        <ele>557.22</ele>
        <time>2016-11-20T10:26:42Z</time>
      </trkpt>
      <trkpt lat="44.09983" lon="3.03838">
        <ele>557.7</ele>
        <time>2016-11-20T10:27:08Z</time>
      </trkpt>
      <trkpt lat="44.09984" lon="3.03838">
        <ele>558.66</ele>
        <time>2016-11-20T10:27:29Z</time>
      </trkpt>
      <trkpt lat="44.0998" lon="3.03841">
        <ele>558.18</ele>
        <time>2016-11-20T10:27:48Z</time>
      </trkpt>
      <trkpt lat="44.09978" lon="3.03842">
        <ele>557.22</ele>
        <time>2016-11-20T10:27:50Z</time>
      </trkpt>
      <trkpt lat="44.09968" lon="3.03851">
        <ele>556.26</ele>
        <time>2016-11-20T10:28:04Z</time>
      </trkpt>
      <trkpt lat="44.0996" lon="3.03859">
        <ele>556.26</ele>
        <time>2016-11-20T10:28:14Z</time>
      </trkpt>
      <trkpt lat="44.09956" lon="3.03863">
        <ele>553.86</ele>
        <time>2016-11-20T10:28:21Z</time>
      </trkpt>
      <trkpt lat="44.09958" lon="3.03859">
        <ele>554.82</ele>
        <time>2016-11-20T10:28:24Z</time>
      </trkpt>
      <trkpt lat="44.09958" lon="3.03862">
        <ele>554.34</ele>
        <time>2016-11-20T10:28:27Z</time>
      </trkpt>
      <trkpt lat="44.09956" lon="3.03863">
        <ele>553.86</ele>
        <time>2016-11-20T10:28:29Z</time>
      </trkpt>
      <trkpt lat="44.09951" lon="3.03869">
        <ele>550.49</ele>
        <time>2016-11-20T10:28:36Z</time>
      </trkpt>
      <trkpt lat="44.0995" lon="3.03869">
        <ele>550.49</ele>
        <time>2016-11-20T10:28:37Z</time>
      </trkpt>
      <trkpt lat="44.09933" lon="3.03877">
        <ele>547.61</ele>
        <time>2016-11-20T10:28:52Z</time>
      </trkpt>
      <trkpt lat="44.09931" lon="3.03878">
        <ele>547.61</ele>
        <time>2016-11-20T10:28:53Z</time>
      </trkpt>
      <trkpt lat="44.0993" lon="3.03878">
        <ele>546.17</ele>
        <time>2016-11-20T10:28:54Z</time>
      </trkpt>
      <trkpt lat="44.09922" lon="3.03882">
        <ele>546.65</ele>
        <time>2016-11-20T10:29:01Z</time>
      </trkpt>
      <trkpt lat="44.09911" lon="3.03881">
        <ele>543.28</ele>
        <time>2016-11-20T10:29:11Z</time>
      </trkpt>
      <trkpt lat="44.09907" lon="3.03873">
        <ele>542.32</ele>
        <time>2016-11-20T10:29:19Z</time>
      </trkpt>
      <trkpt lat="44.09907" lon="3.03866">
        <ele>543.28</ele>
        <time>2016-11-20T10:29:25Z</time>
      </trkpt>
      <trkpt lat="44.09892" lon="3.03846">
        <ele>543.76</ele>
        <time>2016-11-20T10:29:42Z</time>
      </trkpt>
      <trkpt lat="44.09871" lon="3.03833">
        <ele>541.84</ele>
        <time>2016-11-20T10:30:00Z</time>
      </trkpt>
      <trkpt lat="44.09855" lon="3.03834">
        <ele>542.32</ele>
        <time>2016-11-20T10:30:14Z</time>
      </trkpt>
      <trkpt lat="44.09845" lon="3.03837">
        <ele>541.84</ele>
        <time>2016-11-20T10:30:23Z</time>
      </trkpt>
      <trkpt lat="44.09825" lon="3.03848">
        <ele>538.96</ele>
        <time>2016-11-20T10:30:40Z</time>
      </trkpt>
      <trkpt lat="44.0982" lon="3.03851">
        <ele>538.48</ele>
        <time>2016-11-20T10:30:44Z</time>
      </trkpt>
      <trkpt lat="44.09817" lon="3.03856">
        <ele>538.48</ele>
        <time>2016-11-20T10:30:48Z</time>
      </trkpt>
      <trkpt lat="44.09809" lon="3.0386">
        <ele>536.07</ele>
        <time>2016-11-20T10:30:55Z</time>
      </trkpt>
      <trkpt lat="44.09801" lon="3.03861">
        <ele>535.59</ele>
        <time>2016-11-20T10:31:02Z</time>
      </trkpt>
      <trkpt lat="44.09783" lon="3.03873">
        <ele>532.23</ele>
        <time>2016-11-20T10:31:17Z</time>
      </trkpt>
      <trkpt lat="44.09774" lon="3.03881">
        <ele>532.23</ele>
        <time>2016-11-20T10:31:25Z</time>
      </trkpt>
      <trkpt lat="44.09755" lon="3.03893">
        <ele>529.34</ele>
        <time>2016-11-20T10:31:40Z</time>
      </trkpt>
      <trkpt lat="44.09746" lon="3.03897">
        <ele>526.46</ele>
        <time>2016-11-20T10:31:47Z</time>
      </trkpt>
      <trkpt lat="44.09732" lon="3.03904">
        <ele>527.42</ele>
        <time>2016-11-20T10:31:59Z</time>
      </trkpt>
      <trkpt lat="44.09715" lon="3.03911">
        <ele>525.98</ele>
        <time>2016-11-20T10:32:13Z</time>
      </trkpt>
      <trkpt lat="44.09704" lon="3.03916">
        <ele>525.5</ele>
        <time>2016-11-20T10:32:22Z</time>
      </trkpt>
      <trkpt lat="44.09697" lon="3.03919">
        <ele>525.02</ele>
        <time>2016-11-20T10:32:28Z</time>
      </trkpt>
      <trkpt lat="44.0968" lon="3.03924">
        <ele>525.5</ele>
        <time>2016-11-20T10:32:41Z</time>
      </trkpt>
      <trkpt lat="44.09664" lon="3.03914">
        <ele>525.5</ele>
        <time>2016-11-20T10:32:54Z</time>
      </trkpt>
      <trkpt lat="44.09663" lon="3.03911">
        <ele>525.98</ele>
        <time>2016-11-20T10:32:56Z</time>
      </trkpt>
      <trkpt lat="44.09649" lon="3.03916">
        <ele>524.06</ele>
        <time>2016-11-20T10:33:11Z</time>
      </trkpt>
      <trkpt lat="44.09642" lon="3.03917">
        <ele>523.09</ele>
        <time>2016-11-20T10:33:18Z</time>
      </trkpt>
      <trkpt lat="44.0964" lon="3.03915">
        <ele>523.58</ele>
        <time>2016-11-20T10:33:20Z</time>
      </trkpt>
      <trkpt lat="44.09636" lon="3.03914">
        <ele>522.13</ele>
        <time>2016-11-20T10:33:27Z</time>
      </trkpt>
      <trkpt lat="44.09636" lon="3.03914">
        <ele>525.5</ele>
        <time>2016-11-20T10:33:29Z</time>
      </trkpt>
      <trkpt lat="44.09636" lon="3.03914">
        <ele>525.5</ele>
        <time>2016-11-20T10:33:30Z</time>
      </trkpt>
      <trkpt lat="44.09636" lon="3.03915">
        <ele>522.13</ele>
        <time>2016-11-20T10:33:34Z</time>
      </trkpt>
      <trkpt lat="44.09637" lon="3.03915">
        <ele>522.13</ele>
        <time>2016-11-20T10:33:35Z</time>
      </trkpt>
      <trkpt lat="44.09637" lon="3.03915">
        <ele>525.5</ele>
        <time>2016-11-20T10:33:39Z</time>
      </trkpt>
      <trkpt lat="44.09638" lon="3.03914">
        <ele>523.58</ele>
        <time>2016-11-20T10:34:03Z</time>
      </trkpt>
      <trkpt lat="44.09639" lon="3.03913">
        <ele>524.06</ele>
        <time>2016-11-20T10:34:28Z</time>
      </trkpt>
      <trkpt lat="44.09637" lon="3.03913">
        <ele>523.09</ele>
        <time>2016-11-20T10:34:50Z</time>
      </trkpt>
      <trkpt lat="44.09637" lon="3.03914">
        <ele>526.94</ele>
        <time>2016-11-20T10:34:59Z</time>
      </trkpt>
      <trkpt lat="44.09637" lon="3.03915">
        <ele>523.58</ele>
        <time>2016-11-20T10:35:01Z</time>
      </trkpt>
      <trkpt lat="44.09636" lon="3.03916">
        <ele>521.65</ele>
        <time>2016-11-20T10:35:09Z</time>
      </trkpt>
      <trkpt lat="44.09635" lon="3.03917">
        <ele>522.13</ele>
        <time>2016-11-20T10:35:14Z</time>
      </trkpt>
      <trkpt lat="44.09635" lon="3.03918">
        <ele>523.09</ele>
        <time>2016-11-20T10:35:27Z</time>
      </trkpt>
      <trkpt lat="44.09637" lon="3.03922">
        <ele>523.58</ele>
        <time>2016-11-20T10:35:50Z</time>
      </trkpt>
      <trkpt lat="44.09638" lon="3.0392">
        <ele>524.54</ele>
        <time>2016-11-20T10:36:04Z</time>
      </trkpt>
      <trkpt lat="44.09636" lon="3.03916">
        <ele>524.54</ele>
        <time>2016-11-20T10:36:19Z</time>
      </trkpt>
      <trkpt lat="44.09635" lon="3.03916">
        <ele>525.02</ele>
        <time>2016-11-20T10:36:31Z</time>
      </trkpt>
      <trkpt lat="44.09633" lon="3.03912">
        <ele>525.02</ele>
        <time>2016-11-20T10:36:40Z</time>
      </trkpt>
      <trkpt lat="44.0963" lon="3.03914">
        <ele>525.02</ele>
        <time>2016-11-20T10:36:48Z</time>
      </trkpt>
      <trkpt lat="44.09622" lon="3.03913">
        <ele>525.02</ele>
        <time>2016-11-20T10:37:01Z</time>
      </trkpt>
      <trkpt lat="44.09621" lon="3.03915">
        <ele>524.06</ele>
        <time>2016-11-20T10:37:20Z</time>
      </trkpt>
      <trkpt lat="44.09624" lon="3.03914">
        <ele>523.09</ele>
        <time>2016-11-20T10:37:38Z</time>
      </trkpt>
      <trkpt lat="44.09624" lon="3.03915">
        <ele>525.02</ele>
        <time>2016-11-20T10:37:40Z</time>
      </trkpt>
      <trkpt lat="44.09625" lon="3.03916">
        <ele>525.5</ele>
        <time>2016-11-20T10:37:53Z</time>
      </trkpt>
      <trkpt lat="44.09625" lon="3.03915">
        <ele>523.58</ele>
        <time>2016-11-20T10:37:56Z</time>
      </trkpt>
      <trkpt lat="44.09624" lon="3.03914">
        <ele>522.13</ele>
        <time>2016-11-20T10:38:18Z</time>
      </trkpt>
      <trkpt lat="44.09623" lon="3.03914">
        <ele>526.46</ele>
        <time>2016-11-20T10:38:35Z</time>
      </trkpt>
      <trkpt lat="44.09622" lon="3.03913">
        <ele>527.42</ele>
        <time>2016-11-20T10:38:37Z</time>
      </trkpt>
      <trkpt lat="44.0962" lon="3.03912">
        <ele>525.5</ele>
        <time>2016-11-20T10:38:38Z</time>
      </trkpt>
      <trkpt lat="44.09618" lon="3.03907">
        <ele>530.79</ele>
        <time>2016-11-20T10:38:41Z</time>
      </trkpt>
      <trkpt lat="44.09617" lon="3.03906">
        <ele>526.94</ele>
        <time>2016-11-20T10:38:42Z</time>
      </trkpt>
      <trkpt lat="44.09616" lon="3.03905">
        <ele>524.06</ele>
        <time>2016-11-20T10:38:43Z</time>
      </trkpt>
      <trkpt lat="44.09614" lon="3.03901">
        <ele>518.77</ele>
        <time>2016-11-20T10:38:46Z</time>
      </trkpt>
      <trkpt lat="44.09614" lon="3.039">
        <ele>519.25</ele>
        <time>2016-11-20T10:38:47Z</time>
      </trkpt>
      <trkpt lat="44.09612" lon="3.03894">
        <ele>520.69</ele>
        <time>2016-11-20T10:38:50Z</time>
      </trkpt>
      <trkpt lat="44.09611" lon="3.0389">
        <ele>519.73</ele>
        <time>2016-11-20T10:38:52Z</time>
      </trkpt>
      <trkpt lat="44.09611" lon="3.03886">
        <ele>521.17</ele>
        <time>2016-11-20T10:38:55Z</time>
      </trkpt>
      <trkpt lat="44.0961" lon="3.03858">
        <ele>522.61</ele>
        <time>2016-11-20T10:39:11Z</time>
      </trkpt>
      <trkpt lat="44.09612" lon="3.03828">
        <ele>522.61</ele>
        <time>2016-11-20T10:39:26Z</time>
      </trkpt>
      <trkpt lat="44.09612" lon="3.03802">
        <ele>521.17</ele>
        <time>2016-11-20T10:39:42Z</time>
      </trkpt>
      <trkpt lat="44.09614" lon="3.03795">
        <ele>522.61</ele>
        <time>2016-11-20T10:39:49Z</time>
      </trkpt>
      <trkpt lat="44.09616" lon="3.03792">
        <ele>523.58</ele>
        <time>2016-11-20T10:39:51Z</time>
      </trkpt>
      <trkpt lat="44.09619" lon="3.03787">
        <ele>524.06</ele>
        <time>2016-11-20T10:39:54Z</time>
      </trkpt>
      <trkpt lat="44.09627" lon="3.03764">
        <ele>523.09</ele>
        <time>2016-11-20T10:40:09Z</time>
      </trkpt>
      <trkpt lat="44.0963" lon="3.03728">
        <ele>522.61</ele>
        <time>2016-11-20T10:40:27Z</time>
      </trkpt>
      <trkpt lat="44.09631" lon="3.0372">
        <ele>522.13</ele>
        <time>2016-11-20T10:40:31Z</time>
      </trkpt>
      <trkpt lat="44.09635" lon="3.03687">
        <ele>523.09</ele>
        <time>2016-11-20T10:40:49Z</time>
      </trkpt>
      <trkpt lat="44.09633" lon="3.03666">
        <ele>522.13</ele>
        <time>2016-11-20T10:41:00Z</time>
      </trkpt>
      <trkpt lat="44.09632" lon="3.03636">
        <ele>522.13</ele>
        <time>2016-11-20T10:41:16Z</time>
      </trkpt>
      <trkpt lat="44.09635" lon="3.03623">
        <ele>522.13</ele>
        <time>2016-11-20T10:41:28Z</time>
      </trkpt>
      <trkpt lat="44.0964" lon="3.03602">
        <ele>523.09</ele>
        <time>2016-11-20T10:41:41Z</time>
      </trkpt>
      <trkpt lat="44.09641" lon="3.03587">
        <ele>524.06</ele>
        <time>2016-11-20T10:41:50Z</time>
      </trkpt>
      <trkpt lat="44.09643" lon="3.03553">
        <ele>525.5</ele>
        <time>2016-11-20T10:42:08Z</time>
      </trkpt>
      <trkpt lat="44.09644" lon="3.03549">
        <ele>525.5</ele>
        <time>2016-11-20T10:42:11Z</time>
      </trkpt>
      <trkpt lat="44.09646" lon="3.0354">
        <ele>525.98</ele>
        <time>2016-11-20T10:42:16Z</time>
      </trkpt>
      <trkpt lat="44.0966" lon="3.03514">
        <ele>526.46</ele>
        <time>2016-11-20T10:42:34Z</time>
      </trkpt>
      <trkpt lat="44.09661" lon="3.03513">
        <ele>526.46</ele>
        <time>2016-11-20T10:42:35Z</time>
      </trkpt>
      <trkpt lat="44.09682" lon="3.03506">
        <ele>527.9</ele>
        <time>2016-11-20T10:42:51Z</time>
      </trkpt>
      <trkpt lat="44.09697" lon="3.03506">
        <ele>528.86</ele>
        <time>2016-11-20T10:43:03Z</time>
      </trkpt>
      <trkpt lat="44.09702" lon="3.03508">
        <ele>529.34</ele>
        <time>2016-11-20T10:43:07Z</time>
      </trkpt>
      <trkpt lat="44.09709" lon="3.03508">
        <ele>530.3</ele>
        <time>2016-11-20T10:43:13Z</time>
      </trkpt>
      <trkpt lat="44.09731" lon="3.03512">
        <ele>533.67</ele>
        <time>2016-11-20T10:43:31Z</time>
      </trkpt>
      <trkpt lat="44.09741" lon="3.03513">
        <ele>536.07</ele>
        <time>2016-11-20T10:43:40Z</time>
      </trkpt>
      <trkpt lat="44.09761" lon="3.03511">
        <ele>536.07</ele>
        <time>2016-11-20T10:43:55Z</time>
      </trkpt>
      <trkpt lat="44.09783" lon="3.03496">
        <ele>533.67</ele>
        <time>2016-11-20T10:44:13Z</time>
      </trkpt>
      <trkpt lat="44.098" lon="3.03483">
        <ele>533.19</ele>
        <time>2016-11-20T10:44:28Z</time>
      </trkpt>
      <trkpt lat="44.09819" lon="3.03478">
        <ele>533.19</ele>
        <time>2016-11-20T10:44:42Z</time>
      </trkpt>
      <trkpt lat="44.09843" lon="3.0347">
        <ele>534.15</ele>
        <time>2016-11-20T10:45:01Z</time>
      </trkpt>
      <trkpt lat="44.09863" lon="3.03464">
        <ele>534.63</ele>
        <time>2016-11-20T10:45:16Z</time>
      </trkpt>
      <trkpt lat="44.09882" lon="3.03455">
        <ele>534.15</ele>
        <time>2016-11-20T10:45:31Z</time>
      </trkpt>
      <trkpt lat="44.09897" lon="3.03443">
        <ele>532.71</ele>
        <time>2016-11-20T10:45:44Z</time>
      </trkpt>
      <trkpt lat="44.09912" lon="3.0343">
        <ele>530.79</ele>
        <time>2016-11-20T10:45:59Z</time>
      </trkpt>
      <trkpt lat="44.09928" lon="3.03412">
        <ele>528.38</ele>
        <time>2016-11-20T10:46:15Z</time>
      </trkpt>
      <trkpt lat="44.09938" lon="3.03397">
        <ele>525.5</ele>
        <time>2016-11-20T10:46:28Z</time>
      </trkpt>
      <trkpt lat="44.09944" lon="3.0338">
        <ele>524.06</ele>
        <time>2016-11-20T10:46:44Z</time>
      </trkpt>
      <trkpt lat="44.09938" lon="3.03374">
        <ele>524.54</ele>
        <time>2016-11-20T10:46:51Z</time>
      </trkpt>
      <trkpt lat="44.09926" lon="3.0336">
        <ele>525.98</ele>
        <time>2016-11-20T10:47:03Z</time>
      </trkpt>
      <trkpt lat="44.09917" lon="3.03352">
        <ele>527.9</ele>
        <time>2016-11-20T10:47:15Z</time>
      </trkpt>
      <trkpt lat="44.09907" lon="3.0334">
        <ele>529.82</ele>
        <time>2016-11-20T10:47:28Z</time>
      </trkpt>
      <trkpt lat="44.09898" lon="3.03323">
        <ele>532.23</ele>
        <time>2016-11-20T10:47:41Z</time>
      </trkpt>
      <trkpt lat="44.09898" lon="3.03318">
        <ele>532.71</ele>
        <time>2016-11-20T10:47:44Z</time>
      </trkpt>
      <trkpt lat="44.0989" lon="3.03306">
        <ele>535.11</ele>
        <time>2016-11-20T10:47:57Z</time>
      </trkpt>
      <trkpt lat="44.09885" lon="3.03294">
        <ele>537.03</ele>
        <time>2016-11-20T10:48:09Z</time>
      </trkpt>
      <trkpt lat="44.0988" lon="3.03284">
        <ele>539.44</ele>
        <time>2016-11-20T10:48:19Z</time>
      </trkpt>
      <trkpt lat="44.09875" lon="3.03274">
        <ele>539.92</ele>
        <time>2016-11-20T10:48:27Z</time>
      </trkpt>
      <trkpt lat="44.09869" lon="3.03271">
        <ele>541.84</ele>
        <time>2016-11-20T10:48:33Z</time>
      </trkpt>
      <trkpt lat="44.09859" lon="3.03257">
        <ele>544.72</ele>
        <time>2016-11-20T10:48:46Z</time>
      </trkpt>
      <trkpt lat="44.09856" lon="3.0325">
        <ele>545.2</ele>
        <time>2016-11-20T10:48:51Z</time>
      </trkpt>
      <trkpt lat="44.09848" lon="3.03228">
        <ele>548.09</ele>
        <time>2016-11-20T10:49:06Z</time>
      </trkpt>
      <trkpt lat="44.09847" lon="3.03204">
        <ele>550.01</ele>
        <time>2016-11-20T10:49:21Z</time>
      </trkpt>
      <trkpt lat="44.09846" lon="3.03181">
        <ele>551.45</ele>
        <time>2016-11-20T10:49:35Z</time>
      </trkpt>
      <trkpt lat="44.09847" lon="3.0318">
        <ele>550.97</ele>
        <time>2016-11-20T10:49:48Z</time>
      </trkpt>
      <trkpt lat="44.09847" lon="3.03178">
        <ele>550.49</ele>
        <time>2016-11-20T10:50:08Z</time>
      </trkpt>
      <trkpt lat="44.09846" lon="3.03179">
        <ele>550.97</ele>
        <time>2016-11-20T10:50:34Z</time>
      </trkpt>
      <trkpt lat="44.09846" lon="3.03181">
        <ele>550.97</ele>
        <time>2016-11-20T10:50:54Z</time>
      </trkpt>
      <trkpt lat="44.09847" lon="3.03181">
        <ele>551.45</ele>
        <time>2016-11-20T10:51:17Z</time>
      </trkpt>
      <trkpt lat="44.09849" lon="3.03183">
        <ele>550.97</ele>
        <time>2016-11-20T10:51:44Z</time>
      </trkpt>
      <trkpt lat="44.09849" lon="3.03182">
        <ele>551.45</ele>
        <time>2016-11-20T10:52:04Z</time>
      </trkpt>
      <trkpt lat="44.0985" lon="3.03181">
        <ele>551.45</ele>
        <time>2016-11-20T10:52:21Z</time>
      </trkpt>
      <trkpt lat="44.09849" lon="3.03182">
        <ele>550.97</ele>
        <time>2016-11-20T10:52:40Z</time>
      </trkpt>
      <trkpt lat="44.0985" lon="3.0318">
        <ele>550.97</ele>
        <time>2016-11-20T10:53:07Z</time>
      </trkpt>
      <trkpt lat="44.09847" lon="3.03177">
        <ele>550.97</ele>
        <time>2016-11-20T10:53:34Z</time>
      </trkpt>
      <trkpt lat="44.09846" lon="3.03174">
        <ele>551.45</ele>
        <time>2016-11-20T10:53:51Z</time>
      </trkpt>
      <trkpt lat="44.09844" lon="3.0316">
        <ele>551.45</ele>
        <time>2016-11-20T10:54:09Z</time>
      </trkpt>
      <trkpt lat="44.09842" lon="3.03139">
        <ele>551.45</ele>
        <time>2016-11-20T10:54:23Z</time>
      </trkpt>
      <trkpt lat="44.09843" lon="3.03115">
        <ele>550.49</ele>
        <time>2016-11-20T10:54:39Z</time>
      </trkpt>
      <trkpt lat="44.09843" lon="3.03114">
        <ele>550.49</ele>
        <time>2016-11-20T10:54:40Z</time>
      </trkpt>
      <trkpt lat="44.09857" lon="3.03113">
        <ele>552.9</ele>
        <time>2016-11-20T10:54:51Z</time>
      </trkpt>
      <trkpt lat="44.09868" lon="3.03113">
        <ele>554.82</ele>
        <time>2016-11-20T10:55:01Z</time>
      </trkpt>
      <trkpt lat="44.09887" lon="3.03106">
        <ele>557.22</ele>
        <time>2016-11-20T10:55:16Z</time>
      </trkpt>
      <trkpt lat="44.09901" lon="3.031">
        <ele>559.62</ele>
        <time>2016-11-20T10:55:29Z</time>
      </trkpt>
      <trkpt lat="44.09907" lon="3.03094">
        <ele>560.11</ele>
        <time>2016-11-20T10:55:35Z</time>
      </trkpt>
      <trkpt lat="44.09924" lon="3.03084">
        <ele>561.07</ele>
        <time>2016-11-20T10:55:49Z</time>
      </trkpt>
      <trkpt lat="44.0993" lon="3.03068">
        <ele>559.14</ele>
        <time>2016-11-20T10:56:02Z</time>
      </trkpt>
      <trkpt lat="44.09931" lon="3.03067">
        <ele>559.14</ele>
        <time>2016-11-20T10:56:03Z</time>
      </trkpt>
      <trkpt lat="44.09938" lon="3.03047">
        <ele>558.18</ele>
        <time>2016-11-20T10:56:18Z</time>
      </trkpt>
      <trkpt lat="44.0994" lon="3.03044">
        <ele>558.66</ele>
        <time>2016-11-20T10:56:20Z</time>
      </trkpt>
      <trkpt lat="44.09943" lon="3.03034">
        <ele>557.7</ele>
        <time>2016-11-20T10:56:25Z</time>
      </trkpt>
      <trkpt lat="44.09959" lon="3.03022">
        <ele>558.66</ele>
        <time>2016-11-20T10:56:41Z</time>
      </trkpt>
      <trkpt lat="44.09963" lon="3.03017">
        <ele>558.18</ele>
        <time>2016-11-20T10:56:45Z</time>
      </trkpt>
      <trkpt lat="44.09969" lon="3.03007">
        <ele>557.22</ele>
        <time>2016-11-20T10:56:51Z</time>
      </trkpt>
      <trkpt lat="44.09986" lon="3.02989">
        <ele>555.3</ele>
        <time>2016-11-20T10:57:09Z</time>
      </trkpt>
      <trkpt lat="44.09999" lon="3.02975">
        <ele>553.86</ele>
        <time>2016-11-20T10:57:24Z</time>
      </trkpt>
      <trkpt lat="44.10011" lon="3.02954">
        <ele>552.41</ele>
        <time>2016-11-20T10:57:39Z</time>
      </trkpt>
      <trkpt lat="44.10025" lon="3.02932">
        <ele>549.53</ele>
        <time>2016-11-20T10:57:57Z</time>
      </trkpt>
      <trkpt lat="44.10032" lon="3.02916">
        <ele>546.17</ele>
        <time>2016-11-20T10:58:09Z</time>
      </trkpt>
      <trkpt lat="44.10036" lon="3.029">
        <ele>545.2</ele>
        <time>2016-11-20T10:58:23Z</time>
      </trkpt>
      <trkpt lat="44.10035" lon="3.02898">
        <ele>546.65</ele>
        <time>2016-11-20T10:58:27Z</time>
      </trkpt>
      <trkpt lat="44.10027" lon="3.02887">
        <ele>547.61</ele>
        <time>2016-11-20T10:58:44Z</time>
      </trkpt>
      <trkpt lat="44.10019" lon="3.02875">
        <ele>550.01</ele>
        <time>2016-11-20T10:58:58Z</time>
      </trkpt>
      <trkpt lat="44.10013" lon="3.0286">
        <ele>552.9</ele>
        <time>2016-11-20T10:59:12Z</time>
      </trkpt>
      <trkpt lat="44.10007" lon="3.02852">
        <ele>555.3</ele>
        <time>2016-11-20T10:59:24Z</time>
      </trkpt>
      <trkpt lat="44.10008" lon="3.02851">
        <ele>555.78</ele>
        <time>2016-11-20T10:59:45Z</time>
      </trkpt>
      <trkpt lat="44.10007" lon="3.02851">
        <ele>554.82</ele>
        <time>2016-11-20T11:00:13Z</time>
      </trkpt>
      <trkpt lat="44.10006" lon="3.0285">
        <ele>554.82</ele>
        <time>2016-11-20T11:00:42Z</time>
      </trkpt>
      <trkpt lat="44.10006" lon="3.02856">
        <ele>555.78</ele>
        <time>2016-11-20T11:01:16Z</time>
      </trkpt>
      <trkpt lat="44.10006" lon="3.0286">
        <ele>556.74</ele>
        <time>2016-11-20T11:01:56Z</time>
      </trkpt>
      <trkpt lat="44.10003" lon="3.02858">
        <ele>556.26</ele>
        <time>2016-11-20T11:02:28Z</time>
      </trkpt>
      <trkpt lat="44.10005" lon="3.02856">
        <ele>556.74</ele>
        <time>2016-11-20T11:02:49Z</time>
      </trkpt>
      <trkpt lat="44.10006" lon="3.02857">
        <ele>556.74</ele>
        <time>2016-11-20T11:02:54Z</time>
      </trkpt>
      <trkpt lat="44.10005" lon="3.02845">
        <ele>556.74</ele>
        <time>2016-11-20T11:03:16Z</time>
      </trkpt>
      <trkpt lat="44.09994" lon="3.02834">
        <ele>559.62</ele>
        <time>2016-11-20T11:03:30Z</time>
      </trkpt>
      <trkpt lat="44.09985" lon="3.02832">
        <ele>562.51</ele>
        <time>2016-11-20T11:03:42Z</time>
      </trkpt>
      <trkpt lat="44.09982" lon="3.02832">
        <ele>563.95</ele>
        <time>2016-11-20T11:03:46Z</time>
      </trkpt>
      <trkpt lat="44.09973" lon="3.02819">
        <ele>567.32</ele>
        <time>2016-11-20T11:03:57Z</time>
      </trkpt>
      <trkpt lat="44.09964" lon="3.0281">
        <ele>568.76</ele>
        <time>2016-11-20T11:04:07Z</time>
      </trkpt>
      <trkpt lat="44.09961" lon="3.02796">
        <ele>571.16</ele>
        <time>2016-11-20T11:04:21Z</time>
      </trkpt>
      <trkpt lat="44.09956" lon="3.02787">
        <ele>574.04</ele>
        <time>2016-11-20T11:04:31Z</time>
      </trkpt>
      <trkpt lat="44.0994" lon="3.02782">
        <ele>575.97</ele>
        <time>2016-11-20T11:04:49Z</time>
      </trkpt>
      <trkpt lat="44.09933" lon="3.02776">
        <ele>575.01</ele>
        <time>2016-11-20T11:05:04Z</time>
      </trkpt>
      <trkpt lat="44.0993" lon="3.02775">
        <ele>575.01</ele>
        <time>2016-11-20T11:05:24Z</time>
      </trkpt>
      <trkpt lat="44.09933" lon="3.02776">
        <ele>575.01</ele>
        <time>2016-11-20T11:05:50Z</time>
      </trkpt>
      <trkpt lat="44.09931" lon="3.02776">
        <ele>574.53</ele>
        <time>2016-11-20T11:06:17Z</time>
      </trkpt>
      <trkpt lat="44.09925" lon="3.02762">
        <ele>575.49</ele>
        <time>2016-11-20T11:06:33Z</time>
      </trkpt>
      <trkpt lat="44.09914" lon="3.02745">
        <ele>574.04</ele>
        <time>2016-11-20T11:06:52Z</time>
      </trkpt>
      <trkpt lat="44.09905" lon="3.02722">
        <ele>573.56</ele>
        <time>2016-11-20T11:07:09Z</time>
      </trkpt>
      <trkpt lat="44.09901" lon="3.02702">
        <ele>571.16</ele>
        <time>2016-11-20T11:07:24Z</time>
      </trkpt>
      <trkpt lat="44.09899" lon="3.02679">
        <ele>572.12</ele>
        <time>2016-11-20T11:07:39Z</time>
      </trkpt>
      <trkpt lat="44.09897" lon="3.02655">
        <ele>572.12</ele>
        <time>2016-11-20T11:07:55Z</time>
      </trkpt>
      <trkpt lat="44.09891" lon="3.02637">
        <ele>572.12</ele>
        <time>2016-11-20T11:08:09Z</time>
      </trkpt>
      <trkpt lat="44.09879" lon="3.02609">
        <ele>572.12</ele>
        <time>2016-11-20T11:08:28Z</time>
      </trkpt>
      <trkpt lat="44.09871" lon="3.0259">
        <ele>572.12</ele>
        <time>2016-11-20T11:08:42Z</time>
      </trkpt>
      <trkpt lat="44.09863" lon="3.02567">
        <ele>571.64</ele>
        <time>2016-11-20T11:08:59Z</time>
      </trkpt>
      <trkpt lat="44.09854" lon="3.02546">
        <ele>570.68</ele>
        <time>2016-11-20T11:09:13Z</time>
      </trkpt>
      <trkpt lat="44.09848" lon="3.02527">
        <ele>570.2</ele>
        <time>2016-11-20T11:09:25Z</time>
      </trkpt>
      <trkpt lat="44.09845" lon="3.02498">
        <ele>569.24</ele>
        <time>2016-11-20T11:09:43Z</time>
      </trkpt>
      <trkpt lat="44.09839" lon="3.02468">
        <ele>571.16</ele>
        <time>2016-11-20T11:09:57Z</time>
      </trkpt>
      <trkpt lat="44.09827" lon="3.02439">
        <ele>571.16</ele>
        <time>2016-11-20T11:10:16Z</time>
      </trkpt>
      <trkpt lat="44.09816" lon="3.02417">
        <ele>571.16</ele>
        <time>2016-11-20T11:10:31Z</time>
      </trkpt>
      <trkpt lat="44.09809" lon="3.02404">
        <ele>571.16</ele>
        <time>2016-11-20T11:10:40Z</time>
      </trkpt>
      <trkpt lat="44.09811" lon="3.02393">
        <ele>572.12</ele>
        <time>2016-11-20T11:10:48Z</time>
      </trkpt>
      <trkpt lat="44.09821" lon="3.02382">
        <ele>574.04</ele>
        <time>2016-11-20T11:11:01Z</time>
      </trkpt>
      <trkpt lat="44.09822" lon="3.02354">
        <ele>575.49</ele>
        <time>2016-11-20T11:11:17Z</time>
      </trkpt>
      <trkpt lat="44.09821" lon="3.02341">
        <ele>575.97</ele>
        <time>2016-11-20T11:11:30Z</time>
      </trkpt>
      <trkpt lat="44.09817" lon="3.0232">
        <ele>577.89</ele>
        <time>2016-11-20T11:11:44Z</time>
      </trkpt>
      <trkpt lat="44.09811" lon="3.02304">
        <ele>576.45</ele>
        <time>2016-11-20T11:11:56Z</time>
      </trkpt>
      <trkpt lat="44.09811" lon="3.02301">
        <ele>578.37</ele>
        <time>2016-11-20T11:12:10Z</time>
      </trkpt>
      <trkpt lat="44.09809" lon="3.02305">
        <ele>577.89</ele>
        <time>2016-11-20T11:12:27Z</time>
      </trkpt>
      <trkpt lat="44.09808" lon="3.02312">
        <ele>577.41</ele>
        <time>2016-11-20T11:12:46Z</time>
      </trkpt>
      <trkpt lat="44.09807" lon="3.02314">
        <ele>578.37</ele>
        <time>2016-11-20T11:13:04Z</time>
      </trkpt>
      <trkpt lat="44.0981" lon="3.02321">
        <ele>577.41</ele>
        <time>2016-11-20T11:13:18Z</time>
      </trkpt>
      <trkpt lat="44.09814" lon="3.02322">
        <ele>578.85</ele>
        <time>2016-11-20T11:13:26Z</time>
      </trkpt>
      <trkpt lat="44.09811" lon="3.02319">
        <ele>577.89</ele>
        <time>2016-11-20T11:13:47Z</time>
      </trkpt>
      <trkpt lat="44.09809" lon="3.02309">
        <ele>577.41</ele>
        <time>2016-11-20T11:14:04Z</time>
      </trkpt>
      <trkpt lat="44.09808" lon="3.02297">
        <ele>577.89</ele>
        <time>2016-11-20T11:14:18Z</time>
      </trkpt>
      <trkpt lat="44.09805" lon="3.02299">
        <ele>577.41</ele>
        <time>2016-11-20T11:14:34Z</time>
      </trkpt>
      <trkpt lat="44.09808" lon="3.02302">
        <ele>577.89</ele>
        <time>2016-11-20T11:14:52Z</time>
      </trkpt>
      <trkpt lat="44.0981" lon="3.02306">
        <ele>578.37</ele>
        <time>2016-11-20T11:15:04Z</time>
      </trkpt>
      <trkpt lat="44.09807" lon="3.02318">
        <ele>577.41</ele>
        <time>2016-11-20T11:15:23Z</time>
      </trkpt>
      <trkpt lat="44.09807" lon="3.02316">
        <ele>577.41</ele>
        <time>2016-11-20T11:15:38Z</time>
      </trkpt>
      <trkpt lat="44.09811" lon="3.02313">
        <ele>578.37</ele>
        <time>2016-11-20T11:15:56Z</time>
      </trkpt>
      <trkpt lat="44.09813" lon="3.02315">
        <ele>578.85</ele>
        <time>2016-11-20T11:16:11Z</time>
      </trkpt>
      <trkpt lat="44.09808" lon="3.02314">
        <ele>578.37</ele>
        <time>2016-11-20T11:16:26Z</time>
      </trkpt>
      <trkpt lat="44.0981" lon="3.02315">
        <ele>577.89</ele>
        <time>2016-11-20T11:16:41Z</time>
      </trkpt>
      <trkpt lat="44.0981" lon="3.02318">
        <ele>578.37</ele>
        <time>2016-11-20T11:16:56Z</time>
      </trkpt>
      <trkpt lat="44.0981" lon="3.02314">
        <ele>578.37</ele>
        <time>2016-11-20T11:17:19Z</time>
      </trkpt>
      <trkpt lat="44.09807" lon="3.02321">
        <ele>577.41</ele>
        <time>2016-11-20T11:17:37Z</time>
      </trkpt>
      <trkpt lat="44.09793" lon="3.0233">
        <ele>574.53</ele>
        <time>2016-11-20T11:17:52Z</time>
      </trkpt>
      <trkpt lat="44.09786" lon="3.02341">
        <ele>573.56</ele>
        <time>2016-11-20T11:18:01Z</time>
      </trkpt>
      <trkpt lat="44.09782" lon="3.02345">
        <ele>572.12</ele>
        <time>2016-11-20T11:18:05Z</time>
      </trkpt>
      <trkpt lat="44.09781" lon="3.02352">
        <ele>571.64</ele>
        <time>2016-11-20T11:18:10Z</time>
      </trkpt>
      <trkpt lat="44.09784" lon="3.02359">
        <ele>571.64</ele>
        <time>2016-11-20T11:18:14Z</time>
      </trkpt>
      <trkpt lat="44.09798" lon="3.02382">
        <ele>572.12</ele>
        <time>2016-11-20T11:18:31Z</time>
      </trkpt>
      <trkpt lat="44.09806" lon="3.02396">
        <ele>572.12</ele>
        <time>2016-11-20T11:18:41Z</time>
      </trkpt>
      <trkpt lat="44.0981" lon="3.02409">
        <ele>571.16</ele>
        <time>2016-11-20T11:18:51Z</time>
      </trkpt>
      <trkpt lat="44.09819" lon="3.02428">
        <ele>571.64</ele>
        <time>2016-11-20T11:19:05Z</time>
      </trkpt>
      <trkpt lat="44.09837" lon="3.02456">
        <ele>571.16</ele>
        <time>2016-11-20T11:19:26Z</time>
      </trkpt>
      <trkpt lat="44.09843" lon="3.02476">
        <ele>570.2</ele>
        <time>2016-11-20T11:19:39Z</time>
      </trkpt>
      <trkpt lat="44.09844" lon="3.02499">
        <ele>570.2</ele>
        <time>2016-11-20T11:19:54Z</time>
      </trkpt>
      <trkpt lat="44.09848" lon="3.0253">
        <ele>571.16</ele>
        <time>2016-11-20T11:20:13Z</time>
      </trkpt>
      <trkpt lat="44.09851" lon="3.0254">
        <ele>571.64</ele>
        <time>2016-11-20T11:20:20Z</time>
      </trkpt>
      <trkpt lat="44.09863" lon="3.02564">
        <ele>572.12</ele>
        <time>2016-11-20T11:20:37Z</time>
      </trkpt>
      <trkpt lat="44.09864" lon="3.02565">
        <ele>571.64</ele>
        <time>2016-11-20T11:20:38Z</time>
      </trkpt>
      <trkpt lat="44.09873" lon="3.02593">
        <ele>571.64</ele>
        <time>2016-11-20T11:20:56Z</time>
      </trkpt>
      <trkpt lat="44.09879" lon="3.02611">
        <ele>571.64</ele>
        <time>2016-11-20T11:21:06Z</time>
      </trkpt>
      <trkpt lat="44.09887" lon="3.0263">
        <ele>572.12</ele>
        <time>2016-11-20T11:21:19Z</time>
      </trkpt>
      <trkpt lat="44.09893" lon="3.0264">
        <ele>572.6</ele>
        <time>2016-11-20T11:21:26Z</time>
      </trkpt>
      <trkpt lat="44.09897" lon="3.02651">
        <ele>572.6</ele>
        <time>2016-11-20T11:21:33Z</time>
      </trkpt>
      <trkpt lat="44.09901" lon="3.0268">
        <ele>572.6</ele>
        <time>2016-11-20T11:21:49Z</time>
      </trkpt>
      <trkpt lat="44.09904" lon="3.02703">
        <ele>572.6</ele>
        <time>2016-11-20T11:22:02Z</time>
      </trkpt>
      <trkpt lat="44.09908" lon="3.02721">
        <ele>574.04</ele>
        <time>2016-11-20T11:22:11Z</time>
      </trkpt>
      <trkpt lat="44.09915" lon="3.0274">
        <ele>575.01</ele>
        <time>2016-11-20T11:22:23Z</time>
      </trkpt>
      <trkpt lat="44.09922" lon="3.02758">
        <ele>575.01</ele>
        <time>2016-11-20T11:22:36Z</time>
      </trkpt>
      <trkpt lat="44.09927" lon="3.0277">
        <ele>574.04</ele>
        <time>2016-11-20T11:22:49Z</time>
      </trkpt>
      <trkpt lat="44.09923" lon="3.0277">
        <ele>573.56</ele>
        <time>2016-11-20T11:23:04Z</time>
      </trkpt>
      <trkpt lat="44.0992" lon="3.02771">
        <ele>573.56</ele>
        <time>2016-11-20T11:23:24Z</time>
      </trkpt>
      <trkpt lat="44.09919" lon="3.02776">
        <ele>574.04</ele>
        <time>2016-11-20T11:23:47Z</time>
      </trkpt>
      <trkpt lat="44.09915" lon="3.02772">
        <ele>573.08</ele>
        <time>2016-11-20T11:24:06Z</time>
      </trkpt>
      <trkpt lat="44.099" lon="3.02757">
        <ele>571.16</ele>
        <time>2016-11-20T11:24:23Z</time>
      </trkpt>
      <trkpt lat="44.09884" lon="3.02752">
        <ele>570.2</ele>
        <time>2016-11-20T11:24:37Z</time>
      </trkpt>
      <trkpt lat="44.09864" lon="3.02744">
        <ele>567.8</ele>
        <time>2016-11-20T11:24:54Z</time>
      </trkpt>
      <trkpt lat="44.09844" lon="3.02746">
        <ele>565.87</ele>
        <time>2016-11-20T11:25:12Z</time>
      </trkpt>
      <trkpt lat="44.09837" lon="3.02749">
        <ele>564.91</ele>
        <time>2016-11-20T11:25:17Z</time>
      </trkpt>
      <trkpt lat="44.09819" lon="3.02755">
        <ele>561.07</ele>
        <time>2016-11-20T11:25:33Z</time>
      </trkpt>
      <trkpt lat="44.09798" lon="3.02756">
        <ele>559.14</ele>
        <time>2016-11-20T11:25:49Z</time>
      </trkpt>
      <trkpt lat="44.09796" lon="3.02756">
        <ele>558.18</ele>
        <time>2016-11-20T11:25:51Z</time>
      </trkpt>
      <trkpt lat="44.09779" lon="3.02755">
        <ele>556.26</ele>
        <time>2016-11-20T11:26:08Z</time>
      </trkpt>
      <trkpt lat="44.09765" lon="3.02751">
        <ele>554.82</ele>
        <time>2016-11-20T11:26:20Z</time>
      </trkpt>
      <trkpt lat="44.09757" lon="3.02753">
        <ele>552.41</ele>
        <time>2016-11-20T11:26:27Z</time>
      </trkpt>
      <trkpt lat="44.09753" lon="3.02754">
        <ele>551.93</ele>
        <time>2016-11-20T11:26:30Z</time>
      </trkpt>
      <trkpt lat="44.09735" lon="3.02759">
        <ele>549.53</ele>
        <time>2016-11-20T11:26:45Z</time>
      </trkpt>
      <trkpt lat="44.0972" lon="3.02753">
        <ele>547.13</ele>
        <time>2016-11-20T11:27:00Z</time>
      </trkpt>
      <trkpt lat="44.09704" lon="3.02757">
        <ele>543.76</ele>
        <time>2016-11-20T11:27:13Z</time>
      </trkpt>
      <trkpt lat="44.09697" lon="3.02758">
        <ele>541.84</ele>
        <time>2016-11-20T11:27:20Z</time>
      </trkpt>
      <trkpt lat="44.09682" lon="3.02761">
        <ele>539.44</ele>
        <time>2016-11-20T11:27:31Z</time>
      </trkpt>
      <trkpt lat="44.09664" lon="3.02762">
        <ele>536.07</ele>
        <time>2016-11-20T11:27:47Z</time>
      </trkpt>
      <trkpt lat="44.09659" lon="3.02758">
        <ele>534.63</ele>
        <time>2016-11-20T11:27:53Z</time>
      </trkpt>
      <trkpt lat="44.09651" lon="3.0276">
        <ele>532.71</ele>
        <time>2016-11-20T11:27:59Z</time>
      </trkpt>
      <trkpt lat="44.09637" lon="3.02775">
        <ele>530.79</ele>
        <time>2016-11-20T11:28:13Z</time>
      </trkpt>
      <trkpt lat="44.09635" lon="3.02778">
        <ele>530.3</ele>
        <time>2016-11-20T11:28:15Z</time>
      </trkpt>
      <trkpt lat="44.09633" lon="3.02783">
        <ele>528.86</ele>
        <time>2016-11-20T11:28:18Z</time>
      </trkpt>
      <trkpt lat="44.09621" lon="3.028">
        <ele>525.5</ele>
        <time>2016-11-20T11:28:30Z</time>
      </trkpt>
      <trkpt lat="44.09619" lon="3.02807">
        <ele>525.02</ele>
        <time>2016-11-20T11:28:34Z</time>
      </trkpt>
      <trkpt lat="44.09606" lon="3.02838">
        <ele>523.58</ele>
        <time>2016-11-20T11:28:53Z</time>
      </trkpt>
      <trkpt lat="44.09594" lon="3.02862">
        <ele>520.69</ele>
        <time>2016-11-20T11:29:10Z</time>
      </trkpt>
      <trkpt lat="44.09593" lon="3.02861">
        <ele>519.73</ele>
        <time>2016-11-20T11:29:19Z</time>
      </trkpt>
      <trkpt lat="44.09593" lon="3.0286">
        <ele>520.69</ele>
        <time>2016-11-20T11:29:34Z</time>
      </trkpt>
      <trkpt lat="44.09593" lon="3.02857">
        <ele>520.21</ele>
        <time>2016-11-20T11:29:57Z</time>
      </trkpt>
      <trkpt lat="44.09594" lon="3.02854">
        <ele>520.21</ele>
        <time>2016-11-20T11:30:21Z</time>
      </trkpt>
      <trkpt lat="44.09594" lon="3.02854">
        <ele>523.09</ele>
        <time>2016-11-20T11:30:35Z</time>
      </trkpt>
      <trkpt lat="44.0959" lon="3.02858">
        <ele>521.17</ele>
        <time>2016-11-20T11:30:46Z</time>
      </trkpt>
      <trkpt lat="44.09573" lon="3.02873">
        <ele>521.17</ele>
        <time>2016-11-20T11:31:02Z</time>
      </trkpt>
      <trkpt lat="44.0956" lon="3.02889">
        <ele>521.65</ele>
        <time>2016-11-20T11:31:16Z</time>
      </trkpt>
      <trkpt lat="44.09545" lon="3.02908">
        <ele>523.09</ele>
        <time>2016-11-20T11:31:31Z</time>
      </trkpt>
      <trkpt lat="44.09533" lon="3.02918">
        <ele>525.5</ele>
        <time>2016-11-20T11:31:44Z</time>
      </trkpt>
      <trkpt lat="44.09521" lon="3.02927">
        <ele>527.9</ele>
        <time>2016-11-20T11:31:56Z</time>
      </trkpt>
      <trkpt lat="44.09505" lon="3.02925">
        <ele>528.86</ele>
        <time>2016-11-20T11:32:09Z</time>
      </trkpt>
      <trkpt lat="44.09491" lon="3.02908">
        <ele>529.34</ele>
        <time>2016-11-20T11:32:23Z</time>
      </trkpt>
      <trkpt lat="44.09471" lon="3.02884">
        <ele>527.9</ele>
        <time>2016-11-20T11:32:42Z</time>
      </trkpt>
      <trkpt lat="44.0947" lon="3.02883">
        <ele>527.42</ele>
        <time>2016-11-20T11:32:43Z</time>
      </trkpt>
      <trkpt lat="44.09458" lon="3.02859">
        <ele>526.46</ele>
        <time>2016-11-20T11:32:58Z</time>
      </trkpt>
      <trkpt lat="44.09447" lon="3.02841">
        <ele>525.5</ele>
        <time>2016-11-20T11:33:12Z</time>
      </trkpt>
      <trkpt lat="44.09434" lon="3.0282">
        <ele>525.02</ele>
        <time>2016-11-20T11:33:27Z</time>
      </trkpt>
      <trkpt lat="44.09419" lon="3.02808">
        <ele>525.02</ele>
        <time>2016-11-20T11:33:41Z</time>
      </trkpt>
      <trkpt lat="44.09398" lon="3.02796">
        <ele>526.46</ele>
        <time>2016-11-20T11:33:58Z</time>
      </trkpt>
      <trkpt lat="44.09381" lon="3.02784">
        <ele>524.06</ele>
        <time>2016-11-20T11:34:15Z</time>
      </trkpt>
      <trkpt lat="44.09363" lon="3.0278">
        <ele>521.17</ele>
        <time>2016-11-20T11:34:29Z</time>
      </trkpt>
      <trkpt lat="44.0936" lon="3.02777">
        <ele>520.69</ele>
        <time>2016-11-20T11:34:32Z</time>
      </trkpt>
      <trkpt lat="44.09355" lon="3.02755">
        <ele>520.69</ele>
        <time>2016-11-20T11:34:44Z</time>
      </trkpt>
      <trkpt lat="44.0935" lon="3.02731">
        <ele>519.73</ele>
        <time>2016-11-20T11:34:56Z</time>
      </trkpt>
      <trkpt lat="44.09345" lon="3.02709">
        <ele>517.33</ele>
        <time>2016-11-20T11:35:08Z</time>
      </trkpt>
      <trkpt lat="44.09341" lon="3.02687">
        <ele>516.37</ele>
        <time>2016-11-20T11:35:20Z</time>
      </trkpt>
      <trkpt lat="44.09343" lon="3.02657">
        <ele>517.81</ele>
        <time>2016-11-20T11:35:37Z</time>
      </trkpt>
      <trkpt lat="44.09343" lon="3.02652">
        <ele>518.29</ele>
        <time>2016-11-20T11:35:40Z</time>
      </trkpt>
      <trkpt lat="44.09346" lon="3.02645">
        <ele>519.25</ele>
        <time>2016-11-20T11:35:46Z</time>
      </trkpt>
      <trkpt lat="44.09356" lon="3.02622">
        <ele>520.21</ele>
        <time>2016-11-20T11:36:02Z</time>
      </trkpt>
      <trkpt lat="44.0936" lon="3.02616">
        <ele>520.69</ele>
        <time>2016-11-20T11:36:07Z</time>
      </trkpt>
      <trkpt lat="44.09364" lon="3.02598">
        <ele>522.13</ele>
        <time>2016-11-20T11:36:19Z</time>
      </trkpt>
      <trkpt lat="44.09364" lon="3.02594">
        <ele>522.13</ele>
        <time>2016-11-20T11:36:25Z</time>
      </trkpt>
      <trkpt lat="44.0936" lon="3.02592">
        <ele>522.13</ele>
        <time>2016-11-20T11:36:32Z</time>
      </trkpt>
      <trkpt lat="44.09354" lon="3.02591">
        <ele>522.13</ele>
        <time>2016-11-20T11:36:38Z</time>
      </trkpt>
      <trkpt lat="44.09343" lon="3.02589">
        <ele>523.58</ele>
        <time>2016-11-20T11:36:47Z</time>
      </trkpt>
      <trkpt lat="44.09332" lon="3.02584">
        <ele>525.98</ele>
        <time>2016-11-20T11:37:00Z</time>
      </trkpt>
      <trkpt lat="44.09318" lon="3.02582">
        <ele>528.38</ele>
        <time>2016-11-20T11:37:12Z</time>
      </trkpt>
      <trkpt lat="44.09304" lon="3.02579">
        <ele>528.38</ele>
        <time>2016-11-20T11:37:24Z</time>
      </trkpt>
      <trkpt lat="44.09301" lon="3.02572">
        <ele>531.75</ele>
        <time>2016-11-20T11:37:33Z</time>
      </trkpt>
      <trkpt lat="44.09299" lon="3.02565">
        <ele>531.27</ele>
        <time>2016-11-20T11:37:37Z</time>
      </trkpt>
      <trkpt lat="44.09296" lon="3.02542">
        <ele>533.19</ele>
        <time>2016-11-20T11:37:50Z</time>
      </trkpt>
      <trkpt lat="44.09292" lon="3.02531">
        <ele>534.15</ele>
        <time>2016-11-20T11:37:56Z</time>
      </trkpt>
      <trkpt lat="44.09288" lon="3.02522">
        <ele>533.67</ele>
        <time>2016-11-20T11:38:01Z</time>
      </trkpt>
      <trkpt lat="44.09279" lon="3.02514">
        <ele>530.3</ele>
        <time>2016-11-20T11:38:12Z</time>
      </trkpt>
      <trkpt lat="44.09269" lon="3.0251">
        <ele>526.94</ele>
        <time>2016-11-20T11:38:22Z</time>
      </trkpt>
      <trkpt lat="44.09249" lon="3.02507">
        <ele>524.54</ele>
        <time>2016-11-20T11:38:37Z</time>
      </trkpt>
      <trkpt lat="44.09239" lon="3.02507">
        <ele>522.13</ele>
        <time>2016-11-20T11:38:46Z</time>
      </trkpt>
      <trkpt lat="44.0923" lon="3.02506">
        <ele>518.77</ele>
        <time>2016-11-20T11:38:56Z</time>
      </trkpt>
      <trkpt lat="44.09217" lon="3.02503">
        <ele>515.88</ele>
        <time>2016-11-20T11:39:08Z</time>
      </trkpt>
      <trkpt lat="44.09214" lon="3.02505">
        <ele>514.44</ele>
        <time>2016-11-20T11:39:20Z</time>
      </trkpt>
      <trkpt lat="44.09211" lon="3.02499">
        <ele>515.4</ele>
        <time>2016-11-20T11:39:48Z</time>
      </trkpt>
      <trkpt lat="44.09212" lon="3.02499">
        <ele>515.88</ele>
        <time>2016-11-20T11:40:09Z</time>
      </trkpt>
      <trkpt lat="44.09213" lon="3.02494">
        <ele>516.85</ele>
        <time>2016-11-20T11:40:27Z</time>
      </trkpt>
      <trkpt lat="44.09212" lon="3.02488">
        <ele>517.81</ele>
        <time>2016-11-20T11:40:39Z</time>
      </trkpt>
      <trkpt lat="44.09216" lon="3.02487">
        <ele>519.73</ele>
        <time>2016-11-20T11:40:45Z</time>
      </trkpt>
      <trkpt lat="44.09217" lon="3.02487">
        <ele>520.21</ele>
        <time>2016-11-20T11:40:56Z</time>
      </trkpt>
      <trkpt lat="44.09218" lon="3.02487">
        <ele>519.25</ele>
        <time>2016-11-20T11:41:05Z</time>
      </trkpt>
      <trkpt lat="44.09218" lon="3.02489">
        <ele>519.73</ele>
        <time>2016-11-20T11:41:31Z</time>
      </trkpt>
      <trkpt lat="44.09218" lon="3.02489">
        <ele>520.69</ele>
        <time>2016-11-20T11:41:41Z</time>
      </trkpt>
      <trkpt lat="44.09218" lon="3.02488">
        <ele>517.33</ele>
        <time>2016-11-20T11:42:00Z</time>
      </trkpt>
      <trkpt lat="44.09218" lon="3.02489">
        <ele>519.25</ele>
        <time>2016-11-20T11:42:04Z</time>
      </trkpt>
      <trkpt lat="44.09218" lon="3.02489">
        <ele>519.25</ele>
        <time>2016-11-20T11:42:09Z</time>
      </trkpt>
      <trkpt lat="44.09218" lon="3.02489">
        <ele>517.33</ele>
        <time>2016-11-20T11:42:16Z</time>
      </trkpt>
      <trkpt lat="44.09218" lon="3.0249">
        <ele>519.73</ele>
        <time>2016-11-20T11:42:42Z</time>
      </trkpt>
      <trkpt lat="44.09218" lon="3.02491">
        <ele>520.21</ele>
        <time>2016-11-20T11:43:12Z</time>
      </trkpt>
      <trkpt lat="44.09218" lon="3.0249">
        <ele>516.85</ele>
        <time>2016-11-20T11:43:24Z</time>
      </trkpt>
      <trkpt lat="44.09218" lon="3.0249">
        <ele>519.25</ele>
        <time>2016-11-20T11:43:48Z</time>
      </trkpt>
      <trkpt lat="44.09218" lon="3.02489">
        <ele>518.29</ele>
        <time>2016-11-20T11:43:54Z</time>
      </trkpt>
      <trkpt lat="44.09217" lon="3.02489">
        <ele>521.17</ele>
        <time>2016-11-20T11:44:23Z</time>
      </trkpt>
      <trkpt lat="44.09217" lon="3.0249">
        <ele>519.73</ele>
        <time>2016-11-20T11:44:48Z</time>
      </trkpt>
      <trkpt lat="44.09217" lon="3.02491">
        <ele>521.17</ele>
        <time>2016-11-20T11:45:11Z</time>
      </trkpt>
      <trkpt lat="44.09217" lon="3.0249">
        <ele>521.65</ele>
        <time>2016-11-20T11:45:40Z</time>
      </trkpt>
      <trkpt lat="44.09217" lon="3.0249">
        <ele>523.09</ele>
        <time>2016-11-20T11:46:09Z</time>
      </trkpt>
      <trkpt lat="44.09218" lon="3.02491">
        <ele>520.69</ele>
        <time>2016-11-20T11:46:33Z</time>
      </trkpt>
      <trkpt lat="44.09217" lon="3.02491">
        <ele>519.25</ele>
        <time>2016-11-20T11:47:10Z</time>
      </trkpt>
      <trkpt lat="44.09217" lon="3.0249">
        <ele>521.65</ele>
        <time>2016-11-20T11:47:41Z</time>
      </trkpt>
      <trkpt lat="44.09217" lon="3.0249">
        <ele>518.29</ele>
        <time>2016-11-20T11:47:50Z</time>
      </trkpt>
      <trkpt lat="44.09218" lon="3.02491">
        <ele>516.37</ele>
        <time>2016-11-20T11:47:59Z</time>
      </trkpt>
      <trkpt lat="44.09218" lon="3.02491">
        <ele>519.73</ele>
        <time>2016-11-20T11:48:03Z</time>
      </trkpt>
      <trkpt lat="44.09218" lon="3.02491">
        <ele>520.21</ele>
        <time>2016-11-20T11:48:04Z</time>
      </trkpt>
      <trkpt lat="44.09218" lon="3.02489">
        <ele>518.29</ele>
        <time>2016-11-20T11:48:39Z</time>
      </trkpt>
      <trkpt lat="44.09218" lon="3.0249">
        <ele>521.17</ele>
        <time>2016-11-20T11:48:50Z</time>
      </trkpt>
      <trkpt lat="44.09217" lon="3.0249">
        <ele>521.65</ele>
        <time>2016-11-20T11:49:17Z</time>
      </trkpt>
      <trkpt lat="44.09218" lon="3.0249">
        <ele>521.17</ele>
        <time>2016-11-20T11:49:41Z</time>
      </trkpt>
      <trkpt lat="44.09217" lon="3.02491">
        <ele>518.77</ele>
        <time>2016-11-20T11:50:13Z</time>
      </trkpt>
      <trkpt lat="44.09217" lon="3.02491">
        <ele>520.69</ele>
        <time>2016-11-20T11:50:20Z</time>
      </trkpt>
      <trkpt lat="44.09217" lon="3.0249">
        <ele>520.69</ele>
        <time>2016-11-20T11:50:46Z</time>
      </trkpt>
      <trkpt lat="44.09218" lon="3.0249">
        <ele>522.61</ele>
        <time>2016-11-20T11:51:16Z</time>
      </trkpt>
      <trkpt lat="44.09217" lon="3.0249">
        <ele>522.13</ele>
        <time>2016-11-20T11:51:50Z</time>
      </trkpt>
      <trkpt lat="44.09218" lon="3.02492">
        <ele>523.58</ele>
        <time>2016-11-20T11:52:18Z</time>
      </trkpt>
      <trkpt lat="44.09218" lon="3.02493">
        <ele>524.06</ele>
        <time>2016-11-20T11:52:43Z</time>
      </trkpt>
      <trkpt lat="44.09218" lon="3.02492">
        <ele>523.58</ele>
        <time>2016-11-20T11:53:07Z</time>
      </trkpt>
      <trkpt lat="44.09219" lon="3.02491">
        <ele>521.65</ele>
        <time>2016-11-20T11:53:26Z</time>
      </trkpt>
      <trkpt lat="44.09219" lon="3.02489">
        <ele>523.09</ele>
        <time>2016-11-20T11:53:53Z</time>
      </trkpt>
      <trkpt lat="44.09219" lon="3.0249">
        <ele>523.58</ele>
        <time>2016-11-20T11:54:18Z</time>
      </trkpt>
      <trkpt lat="44.09218" lon="3.0249">
        <ele>524.54</ele>
        <time>2016-11-20T11:54:48Z</time>
      </trkpt>
      <trkpt lat="44.09219" lon="3.02491">
        <ele>523.58</ele>
        <time>2016-11-20T11:55:12Z</time>
      </trkpt>
      <trkpt lat="44.09218" lon="3.0249">
        <ele>524.06</ele>
        <time>2016-11-20T11:55:35Z</time>
      </trkpt>
      <trkpt lat="44.09219" lon="3.02488">
        <ele>523.09</ele>
        <time>2016-11-20T11:56:00Z</time>
      </trkpt>
      <trkpt lat="44.09218" lon="3.02488">
        <ele>519.73</ele>
        <time>2016-11-20T11:56:16Z</time>
      </trkpt>
      <trkpt lat="44.09218" lon="3.02488">
        <ele>523.58</ele>
        <time>2016-11-20T11:56:18Z</time>
      </trkpt>
      <trkpt lat="44.09218" lon="3.02488">
        <ele>523.09</ele>
        <time>2016-11-20T11:56:19Z</time>
      </trkpt>
      <trkpt lat="44.09217" lon="3.02489">
        <ele>522.61</ele>
        <time>2016-11-20T11:56:51Z</time>
      </trkpt>
      <trkpt lat="44.09217" lon="3.02489">
        <ele>522.61</ele>
        <time>2016-11-20T11:57:14Z</time>
      </trkpt>
      <trkpt lat="44.09217" lon="3.0249">
        <ele>522.61</ele>
        <time>2016-11-20T11:57:45Z</time>
      </trkpt>
      <trkpt lat="44.09217" lon="3.0249">
        <ele>522.13</ele>
        <time>2016-11-20T11:57:55Z</time>
      </trkpt>
      <trkpt lat="44.09217" lon="3.02491">
        <ele>520.69</ele>
        <time>2016-11-20T11:58:23Z</time>
      </trkpt>
      <trkpt lat="44.09217" lon="3.0249">
        <ele>522.61</ele>
        <time>2016-11-20T11:58:28Z</time>
      </trkpt>
      <trkpt lat="44.09217" lon="3.0249">
        <ele>523.09</ele>
        <time>2016-11-20T11:58:36Z</time>
      </trkpt>
      <trkpt lat="44.09217" lon="3.02489">
        <ele>524.54</ele>
        <time>2016-11-20T11:58:44Z</time>
      </trkpt>
      <trkpt lat="44.09217" lon="3.0249">
        <ele>521.65</ele>
        <time>2016-11-20T11:58:47Z</time>
      </trkpt>
      <trkpt lat="44.09217" lon="3.0249">
        <ele>521.17</ele>
        <time>2016-11-20T11:59:16Z</time>
      </trkpt>
      <trkpt lat="44.09218" lon="3.02489">
        <ele>521.17</ele>
        <time>2016-11-20T11:59:37Z</time>
      </trkpt>
      <trkpt lat="44.09217" lon="3.02488">
        <ele>523.09</ele>
        <time>2016-11-20T12:00:11Z</time>
      </trkpt>
      <trkpt lat="44.09217" lon="3.02487">
        <ele>521.65</ele>
        <time>2016-11-20T12:00:20Z</time>
      </trkpt>
      <trkpt lat="44.09218" lon="3.02488">
        <ele>523.58</ele>
        <time>2016-11-20T12:00:34Z</time>
      </trkpt>
      <trkpt lat="44.09217" lon="3.02488">
        <ele>524.06</ele>
        <time>2016-11-20T12:01:00Z</time>
      </trkpt>
      <trkpt lat="44.09217" lon="3.02488">
        <ele>521.65</ele>
        <time>2016-11-20T12:01:35Z</time>
      </trkpt>
      <trkpt lat="44.09217" lon="3.02488">
        <ele>518.77</ele>
        <time>2016-11-20T12:01:41Z</time>
      </trkpt>
      <trkpt lat="44.09217" lon="3.02489">
        <ele>519.25</ele>
        <time>2016-11-20T12:01:42Z</time>
      </trkpt>
      <trkpt lat="44.09217" lon="3.02489">
        <ele>522.13</ele>
        <time>2016-11-20T12:01:49Z</time>
      </trkpt>
      <trkpt lat="44.09217" lon="3.0249">
        <ele>523.58</ele>
        <time>2016-11-20T12:01:52Z</time>
      </trkpt>
      <trkpt lat="44.09217" lon="3.0249">
        <ele>519.25</ele>
        <time>2016-11-20T12:01:55Z</time>
      </trkpt>
      <trkpt lat="44.09217" lon="3.0249">
        <ele>522.61</ele>
        <time>2016-11-20T12:01:59Z</time>
      </trkpt>
      <trkpt lat="44.09217" lon="3.02489">
        <ele>523.09</ele>
        <time>2016-11-20T12:02:14Z</time>
      </trkpt>
      <trkpt lat="44.09216" lon="3.0249">
        <ele>524.06</ele>
        <time>2016-11-20T12:02:25Z</time>
      </trkpt>
      <trkpt lat="44.09216" lon="3.0249">
        <ele>522.61</ele>
        <time>2016-11-20T12:02:30Z</time>
      </trkpt>
      <trkpt lat="44.09218" lon="3.02489">
        <ele>524.54</ele>
        <time>2016-11-20T12:02:58Z</time>
      </trkpt>
      <trkpt lat="44.09217" lon="3.02488">
        <ele>525.02</ele>
        <time>2016-11-20T12:03:22Z</time>
      </trkpt>
      <trkpt lat="44.09218" lon="3.02489">
        <ele>524.54</ele>
        <time>2016-11-20T12:03:47Z</time>
      </trkpt>
      <trkpt lat="44.09218" lon="3.02491">
        <ele>524.06</ele>
        <time>2016-11-20T12:04:16Z</time>
      </trkpt>
      <trkpt lat="44.09218" lon="3.02489">
        <ele>525.98</ele>
        <time>2016-11-20T12:04:53Z</time>
      </trkpt>
      <trkpt lat="44.09218" lon="3.0249">
        <ele>525.02</ele>
        <time>2016-11-20T12:05:21Z</time>
      </trkpt>
      <trkpt lat="44.09218" lon="3.02491">
        <ele>525.98</ele>
        <time>2016-11-20T12:05:45Z</time>
      </trkpt>
      <trkpt lat="44.09217" lon="3.02491">
        <ele>525.5</ele>
        <time>2016-11-20T12:06:02Z</time>
      </trkpt>
      <trkpt lat="44.09217" lon="3.02491">
        <ele>522.61</ele>
        <time>2016-11-20T12:06:09Z</time>
      </trkpt>
      <trkpt lat="44.09217" lon="3.02491">
        <ele>521.17</ele>
        <time>2016-11-20T12:06:11Z</time>
      </trkpt>
      <trkpt lat="44.09217" lon="3.02492">
        <ele>524.06</ele>
        <time>2016-11-20T12:06:17Z</time>
      </trkpt>
      <trkpt lat="44.09216" lon="3.02491">
        <ele>522.13</ele>
        <time>2016-11-20T12:06:36Z</time>
      </trkpt>
      <trkpt lat="44.09216" lon="3.0249">
        <ele>525.02</ele>
        <time>2016-11-20T12:06:51Z</time>
      </trkpt>
      <trkpt lat="44.09217" lon="3.0249">
        <ele>524.54</ele>
        <time>2016-11-20T12:07:17Z</time>
      </trkpt>
      <trkpt lat="44.09217" lon="3.02489">
        <ele>525.5</ele>
        <time>2016-11-20T12:07:42Z</time>
      </trkpt>
      <trkpt lat="44.09217" lon="3.02489">
        <ele>525.5</ele>
        <time>2016-11-20T12:08:19Z</time>
      </trkpt>
      <trkpt lat="44.09217" lon="3.02487">
        <ele>525.5</ele>
        <time>2016-11-20T12:08:49Z</time>
      </trkpt>
      <trkpt lat="44.09216" lon="3.02491">
        <ele>525.98</ele>
        <time>2016-11-20T12:09:21Z</time>
      </trkpt>
      <trkpt lat="44.09217" lon="3.02489">
        <ele>525.98</ele>
        <time>2016-11-20T12:09:55Z</time>
      </trkpt>
      <trkpt lat="44.09215" lon="3.02488">
        <ele>525.02</ele>
        <time>2016-11-20T12:10:26Z</time>
      </trkpt>
      <trkpt lat="44.09216" lon="3.02487">
        <ele>525.98</ele>
        <time>2016-11-20T12:10:56Z</time>
      </trkpt>
      <trkpt lat="44.09218" lon="3.02489">
        <ele>525.02</ele>
        <time>2016-11-20T12:11:21Z</time>
      </trkpt>
      <trkpt lat="44.09218" lon="3.0249">
        <ele>525.5</ele>
        <time>2016-11-20T12:11:50Z</time>
      </trkpt>
      <trkpt lat="44.09219" lon="3.02488">
        <ele>524.06</ele>
        <time>2016-11-20T12:12:20Z</time>
      </trkpt>
      <trkpt lat="44.09218" lon="3.02488">
        <ele>525.98</ele>
        <time>2016-11-20T12:12:47Z</time>
      </trkpt>
      <trkpt lat="44.09217" lon="3.02489">
        <ele>525.98</ele>
        <time>2016-11-20T12:13:10Z</time>
      </trkpt>
      <trkpt lat="44.09218" lon="3.02489">
        <ele>525.02</ele>
        <time>2016-11-20T12:13:21Z</time>
      </trkpt>
      <trkpt lat="44.09218" lon="3.02489">
        <ele>525.5</ele>
        <time>2016-11-20T12:13:48Z</time>
      </trkpt>
      <trkpt lat="44.09218" lon="3.0249">
        <ele>524.54</ele>
        <time>2016-11-20T12:14:16Z</time>
      </trkpt>
      <trkpt lat="44.09219" lon="3.02489">
        <ele>525.5</ele>
        <time>2016-11-20T12:14:29Z</time>
      </trkpt>
      <trkpt lat="44.09219" lon="3.02488">
        <ele>524.06</ele>
        <time>2016-11-20T12:14:31Z</time>
      </trkpt>
      <trkpt lat="44.09218" lon="3.02489">
        <ele>524.06</ele>
        <time>2016-11-20T12:15:11Z</time>
      </trkpt>
      <trkpt lat="44.09218" lon="3.0249">
        <ele>527.42</ele>
        <time>2016-11-20T12:15:29Z</time>
      </trkpt>
      <trkpt lat="44.09217" lon="3.02489">
        <ele>523.09</ele>
        <time>2016-11-20T12:15:58Z</time>
      </trkpt>
      <trkpt lat="44.09217" lon="3.02489">
        <ele>522.13</ele>
        <time>2016-11-20T12:16:00Z</time>
      </trkpt>
      <trkpt lat="44.09218" lon="3.02488">
        <ele>524.06</ele>
        <time>2016-11-20T12:16:03Z</time>
      </trkpt>
      <trkpt lat="44.09218" lon="3.02488">
        <ele>526.94</ele>
        <time>2016-11-20T12:16:09Z</time>
      </trkpt>
      <trkpt lat="44.09217" lon="3.02489">
        <ele>523.58</ele>
        <time>2016-11-20T12:16:27Z</time>
      </trkpt>
      <trkpt lat="44.09217" lon="3.02489">
        <ele>522.61</ele>
        <time>2016-11-20T12:16:29Z</time>
      </trkpt>
      <trkpt lat="44.09217" lon="3.02489">
        <ele>524.06</ele>
        <time>2016-11-20T12:16:38Z</time>
      </trkpt>
      <trkpt lat="44.09217" lon="3.02489">
        <ele>525.02</ele>
        <time>2016-11-20T12:16:46Z</time>
      </trkpt>
      <trkpt lat="44.09217" lon="3.02489">
        <ele>523.58</ele>
        <time>2016-11-20T12:16:50Z</time>
      </trkpt>
      <trkpt lat="44.09218" lon="3.02489">
        <ele>522.61</ele>
        <time>2016-11-20T12:17:23Z</time>
      </trkpt>
      <trkpt lat="44.09218" lon="3.02489">
        <ele>524.54</ele>
        <time>2016-11-20T12:17:30Z</time>
      </trkpt>
      <trkpt lat="44.09219" lon="3.02488">
        <ele>524.54</ele>
        <time>2016-11-20T12:18:02Z</time>
      </trkpt>
      <trkpt lat="44.09218" lon="3.02489">
        <ele>523.58</ele>
        <time>2016-11-20T12:18:21Z</time>
      </trkpt>
      <trkpt lat="44.09219" lon="3.02488">
        <ele>520.21</ele>
        <time>2016-11-20T12:18:48Z</time>
      </trkpt>
      <trkpt lat="44.09219" lon="3.02489">
        <ele>523.09</ele>
        <time>2016-11-20T12:18:51Z</time>
      </trkpt>
      <trkpt lat="44.09219" lon="3.02489">
        <ele>522.61</ele>
        <time>2016-11-20T12:18:56Z</time>
      </trkpt>
      <trkpt lat="44.09218" lon="3.02489">
        <ele>526.94</ele>
        <time>2016-11-20T12:18:59Z</time>
      </trkpt>
      <trkpt lat="44.09218" lon="3.02489">
        <ele>524.06</ele>
        <time>2016-11-20T12:19:06Z</time>
      </trkpt>
      <trkpt lat="44.09218" lon="3.02489">
        <ele>525.98</ele>
        <time>2016-11-20T12:19:10Z</time>
      </trkpt>
      <trkpt lat="44.09218" lon="3.02489">
        <ele>523.09</ele>
        <time>2016-11-20T12:19:41Z</time>
      </trkpt>
      <trkpt lat="44.09218" lon="3.0249">
        <ele>524.06</ele>
        <time>2016-11-20T12:19:55Z</time>
      </trkpt>
      <trkpt lat="44.09218" lon="3.02489">
        <ele>523.09</ele>
        <time>2016-11-20T12:20:10Z</time>
      </trkpt>
      <trkpt lat="44.09218" lon="3.02489">
        <ele>524.06</ele>
        <time>2016-11-20T12:20:24Z</time>
      </trkpt>
      <trkpt lat="44.09217" lon="3.02488">
        <ele>521.17</ele>
        <time>2016-11-20T12:20:32Z</time>
      </trkpt>
      <trkpt lat="44.09217" lon="3.02487">
        <ele>524.54</ele>
        <time>2016-11-20T12:20:48Z</time>
      </trkpt>
      <trkpt lat="44.09217" lon="3.02489">
        <ele>522.61</ele>
        <time>2016-11-20T12:21:02Z</time>
      </trkpt>
      <trkpt lat="44.09217" lon="3.02488">
        <ele>524.06</ele>
        <time>2016-11-20T12:21:21Z</time>
      </trkpt>
      <trkpt lat="44.09217" lon="3.02488">
        <ele>524.06</ele>
        <time>2016-11-20T12:21:22Z</time>
      </trkpt>
      <trkpt lat="44.09217" lon="3.02488">
        <ele>526.46</ele>
        <time>2016-11-20T12:21:44Z</time>
      </trkpt>
      <trkpt lat="44.09216" lon="3.0249">
        <ele>524.54</ele>
        <time>2016-11-20T12:21:58Z</time>
      </trkpt>
      <trkpt lat="44.09215" lon="3.02491">
        <ele>524.06</ele>
        <time>2016-11-20T12:22:12Z</time>
      </trkpt>
      <trkpt lat="44.09216" lon="3.02492">
        <ele>524.54</ele>
        <time>2016-11-20T12:22:30Z</time>
      </trkpt>
      <trkpt lat="44.09217" lon="3.02488">
        <ele>525.02</ele>
        <time>2016-11-20T12:22:57Z</time>
      </trkpt>
      <trkpt lat="44.09218" lon="3.02488">
        <ele>525.5</ele>
        <time>2016-11-20T12:23:20Z</time>
      </trkpt>
      <trkpt lat="44.09217" lon="3.02483">
        <ele>524.54</ele>
        <time>2016-11-20T12:23:37Z</time>
      </trkpt>
      <trkpt lat="44.09216" lon="3.02487">
        <ele>524.06</ele>
        <time>2016-11-20T12:24:00Z</time>
      </trkpt>
      <trkpt lat="44.09218" lon="3.02485">
        <ele>525.02</ele>
        <time>2016-11-20T12:24:13Z</time>
      </trkpt>
      <trkpt lat="44.09217" lon="3.02489">
        <ele>524.54</ele>
        <time>2016-11-20T12:24:35Z</time>
      </trkpt>
      <trkpt lat="44.09215" lon="3.02489">
        <ele>523.58</ele>
        <time>2016-11-20T12:24:54Z</time>
      </trkpt>
      <trkpt lat="44.09215" lon="3.02486">
        <ele>523.09</ele>
        <time>2016-11-20T12:25:09Z</time>
      </trkpt>
      <trkpt lat="44.09215" lon="3.02484">
        <ele>524.06</ele>
        <time>2016-11-20T12:25:27Z</time>
      </trkpt>
      <trkpt lat="44.09212" lon="3.02484">
        <ele>523.09</ele>
        <time>2016-11-20T12:25:45Z</time>
      </trkpt>
      <trkpt lat="44.09212" lon="3.02486">
        <ele>523.09</ele>
        <time>2016-11-20T12:26:01Z</time>
      </trkpt>
      <trkpt lat="44.09212" lon="3.02491">
        <ele>522.13</ele>
        <time>2016-11-20T12:26:20Z</time>
      </trkpt>
      <trkpt lat="44.09209" lon="3.02494">
        <ele>519.73</ele>
        <time>2016-11-20T12:26:41Z</time>
      </trkpt>
      <trkpt lat="44.09208" lon="3.02497">
        <ele>516.37</ele>
        <time>2016-11-20T12:27:00Z</time>
      </trkpt>
      <trkpt lat="44.09202" lon="3.02489">
        <ele>514.44</ele>
        <time>2016-11-20T12:27:12Z</time>
      </trkpt>
      <trkpt lat="44.09197" lon="3.0248">
        <ele>512.04</ele>
        <time>2016-11-20T12:27:24Z</time>
      </trkpt>
      <trkpt lat="44.09195" lon="3.0247">
        <ele>513</ele>
        <time>2016-11-20T12:27:41Z</time>
      </trkpt>
      <trkpt lat="44.09194" lon="3.02465">
        <ele>514.92</ele>
        <time>2016-11-20T12:27:52Z</time>
      </trkpt>
      <trkpt lat="44.0919" lon="3.02465">
        <ele>515.88</ele>
        <time>2016-11-20T12:28:12Z</time>
      </trkpt>
      <trkpt lat="44.09174" lon="3.02452">
        <ele>513</ele>
        <time>2016-11-20T12:28:31Z</time>
      </trkpt>
      <trkpt lat="44.09164" lon="3.0245">
        <ele>509.64</ele>
        <time>2016-11-20T12:28:39Z</time>
      </trkpt>
      <trkpt lat="44.09152" lon="3.0245">
        <ele>509.16</ele>
        <time>2016-11-20T12:28:56Z</time>
      </trkpt>
      <trkpt lat="44.09147" lon="3.02445">
        <ele>511.56</ele>
        <time>2016-11-20T12:29:03Z</time>
      </trkpt>
      <trkpt lat="44.0914" lon="3.02439">
        <ele>511.56</ele>
        <time>2016-11-20T12:29:10Z</time>
      </trkpt>
      <trkpt lat="44.09126" lon="3.02428">
        <ele>508.19</ele>
        <time>2016-11-20T12:29:23Z</time>
      </trkpt>
      <trkpt lat="44.09123" lon="3.02425">
        <ele>503.87</ele>
        <time>2016-11-20T12:29:26Z</time>
      </trkpt>
      <trkpt lat="44.09121" lon="3.02424">
        <ele>505.79</ele>
        <time>2016-11-20T12:29:30Z</time>
      </trkpt>
      <trkpt lat="44.0912" lon="3.02424">
        <ele>508.67</ele>
        <time>2016-11-20T12:29:40Z</time>
      </trkpt>
      <trkpt lat="44.09119" lon="3.02424">
        <ele>507.23</ele>
        <time>2016-11-20T12:29:43Z</time>
      </trkpt>
      <trkpt lat="44.09112" lon="3.02422">
        <ele>506.75</ele>
        <time>2016-11-20T12:29:57Z</time>
      </trkpt>
      <trkpt lat="44.09098" lon="3.02413">
        <ele>510.12</ele>
        <time>2016-11-20T12:30:10Z</time>
      </trkpt>
      <trkpt lat="44.09089" lon="3.02411">
        <ele>508.67</ele>
        <time>2016-11-20T12:30:22Z</time>
      </trkpt>
      <trkpt lat="44.09075" lon="3.02407">
        <ele>506.27</ele>
        <time>2016-11-20T12:30:37Z</time>
      </trkpt>
      <trkpt lat="44.09067" lon="3.02401">
        <ele>506.27</ele>
        <time>2016-11-20T12:30:49Z</time>
      </trkpt>
      <trkpt lat="44.09049" lon="3.02397">
        <ele>503.39</ele>
        <time>2016-11-20T12:31:03Z</time>
      </trkpt>
      <trkpt lat="44.09048" lon="3.02397">
        <ele>504.35</ele>
        <time>2016-11-20T12:31:04Z</time>
      </trkpt>
      <trkpt lat="44.0904" lon="3.02392">
        <ele>502.43</ele>
        <time>2016-11-20T12:31:12Z</time>
      </trkpt>
      <trkpt lat="44.09034" lon="3.02392">
        <ele>501.95</ele>
        <time>2016-11-20T12:31:17Z</time>
      </trkpt>
      <trkpt lat="44.09027" lon="3.02386">
        <ele>499.06</ele>
        <time>2016-11-20T12:31:23Z</time>
      </trkpt>
      <trkpt lat="44.09017" lon="3.02371">
        <ele>497.62</ele>
        <time>2016-11-20T12:31:35Z</time>
      </trkpt>
      <trkpt lat="44.09004" lon="3.02351">
        <ele>499.54</ele>
        <time>2016-11-20T12:31:52Z</time>
      </trkpt>
      <trkpt lat="44.09002" lon="3.02348">
        <ele>500.02</ele>
        <time>2016-11-20T12:31:54Z</time>
      </trkpt>
      <trkpt lat="44.08996" lon="3.02332">
        <ele>503.39</ele>
        <time>2016-11-20T12:32:07Z</time>
      </trkpt>
      <trkpt lat="44.08993" lon="3.02315">
        <ele>504.83</ele>
        <time>2016-11-20T12:32:19Z</time>
      </trkpt>
      <trkpt lat="44.0899" lon="3.02307">
        <ele>507.71</ele>
        <time>2016-11-20T12:32:26Z</time>
      </trkpt>
      <trkpt lat="44.08987" lon="3.02297">
        <ele>511.08</ele>
        <time>2016-11-20T12:32:34Z</time>
      </trkpt>
      <trkpt lat="44.08974" lon="3.02279">
        <ele>509.16</ele>
        <time>2016-11-20T12:32:51Z</time>
      </trkpt>
      <trkpt lat="44.0897" lon="3.0226">
        <ele>511.56</ele>
        <time>2016-11-20T12:33:07Z</time>
      </trkpt>
      <trkpt lat="44.08965" lon="3.0224">
        <ele>512.04</ele>
        <time>2016-11-20T12:33:24Z</time>
      </trkpt>
      <trkpt lat="44.08961" lon="3.0224">
        <ele>511.08</ele>
        <time>2016-11-20T12:33:45Z</time>
      </trkpt>
      <trkpt lat="44.08962" lon="3.02234">
        <ele>511.08</ele>
        <time>2016-11-20T12:34:00Z</time>
      </trkpt>
      <trkpt lat="44.08956" lon="3.02231">
        <ele>510.6</ele>
        <time>2016-11-20T12:34:20Z</time>
      </trkpt>
      <trkpt lat="44.08954" lon="3.02226">
        <ele>511.56</ele>
        <time>2016-11-20T12:34:34Z</time>
      </trkpt>
      <trkpt lat="44.08952" lon="3.02217">
        <ele>511.08</ele>
        <time>2016-11-20T12:34:49Z</time>
      </trkpt>
      <trkpt lat="44.08948" lon="3.02206">
        <ele>510.12</ele>
        <time>2016-11-20T12:34:58Z</time>
      </trkpt>
      <trkpt lat="44.08944" lon="3.02187">
        <ele>511.08</ele>
        <time>2016-11-20T12:35:13Z</time>
      </trkpt>
      <trkpt lat="44.08937" lon="3.02171">
        <ele>512.04</ele>
        <time>2016-11-20T12:35:27Z</time>
      </trkpt>
      <trkpt lat="44.08929" lon="3.02154">
        <ele>512.04</ele>
        <time>2016-11-20T12:35:40Z</time>
      </trkpt>
      <trkpt lat="44.08924" lon="3.02145">
        <ele>511.08</ele>
        <time>2016-11-20T12:35:51Z</time>
      </trkpt>
      <trkpt lat="44.08919" lon="3.02137">
        <ele>515.4</ele>
        <time>2016-11-20T12:35:58Z</time>
      </trkpt>
      <trkpt lat="44.08919" lon="3.02135">
        <ele>516.85</ele>
        <time>2016-11-20T12:36:00Z</time>
      </trkpt>
      <trkpt lat="44.08916" lon="3.02128">
        <ele>514.44</ele>
        <time>2016-11-20T12:36:05Z</time>
      </trkpt>
      <trkpt lat="44.0892" lon="3.02125">
        <ele>514.92</ele>
        <time>2016-11-20T12:36:29Z</time>
      </trkpt>
      <trkpt lat="44.08919" lon="3.02126">
        <ele>517.33</ele>
        <time>2016-11-20T12:36:33Z</time>
      </trkpt>
      <trkpt lat="44.08918" lon="3.02126">
        <ele>520.69</ele>
        <time>2016-11-20T12:36:37Z</time>
      </trkpt>
      <trkpt lat="44.08917" lon="3.02122">
        <ele>518.29</ele>
        <time>2016-11-20T12:36:42Z</time>
      </trkpt>
      <trkpt lat="44.08916" lon="3.02116">
        <ele>521.65</ele>
        <time>2016-11-20T12:36:45Z</time>
      </trkpt>
      <trkpt lat="44.08914" lon="3.02112">
        <ele>517.33</ele>
        <time>2016-11-20T12:36:47Z</time>
      </trkpt>
      <trkpt lat="44.0891" lon="3.02105">
        <ele>515.88</ele>
        <time>2016-11-20T12:36:55Z</time>
      </trkpt>
      <trkpt lat="44.08913" lon="3.02099">
        <ele>514.44</ele>
        <time>2016-11-20T12:37:06Z</time>
      </trkpt>
      <trkpt lat="44.08911" lon="3.02096">
        <ele>515.88</ele>
        <time>2016-11-20T12:37:26Z</time>
      </trkpt>
      <trkpt lat="44.08914" lon="3.02095">
        <ele>516.85</ele>
        <time>2016-11-20T12:37:59Z</time>
      </trkpt>
      <trkpt lat="44.08912" lon="3.02107">
        <ele>515.4</ele>
        <time>2016-11-20T12:38:22Z</time>
      </trkpt>
      <trkpt lat="44.0891" lon="3.02109">
        <ele>513.96</ele>
        <time>2016-11-20T12:38:38Z</time>
      </trkpt>
      <trkpt lat="44.08909" lon="3.0211">
        <ele>512.52</ele>
        <time>2016-11-20T12:38:57Z</time>
      </trkpt>
      <trkpt lat="44.08909" lon="3.02107">
        <ele>513.48</ele>
        <time>2016-11-20T12:39:14Z</time>
      </trkpt>
      <trkpt lat="44.08906" lon="3.02107">
        <ele>512.52</ele>
        <time>2016-11-20T12:39:22Z</time>
      </trkpt>
      <trkpt lat="44.08907" lon="3.02109">
        <ele>511.56</ele>
        <time>2016-11-20T12:39:38Z</time>
      </trkpt>
      <trkpt lat="44.08909" lon="3.02111">
        <ele>513</ele>
        <time>2016-11-20T12:40:05Z</time>
      </trkpt>
      <trkpt lat="44.08907" lon="3.02113">
        <ele>511.56</ele>
        <time>2016-11-20T12:40:24Z</time>
      </trkpt>
      <trkpt lat="44.08904" lon="3.02107">
        <ele>511.56</ele>
        <time>2016-11-20T12:40:44Z</time>
      </trkpt>
      <trkpt lat="44.08898" lon="3.021">
        <ele>510.12</ele>
        <time>2016-11-20T12:40:56Z</time>
      </trkpt>
      <trkpt lat="44.08893" lon="3.02094">
        <ele>509.16</ele>
        <time>2016-11-20T12:41:11Z</time>
      </trkpt>
      <trkpt lat="44.08892" lon="3.0209">
        <ele>508.67</ele>
        <time>2016-11-20T12:41:26Z</time>
      </trkpt>
      <trkpt lat="44.08892" lon="3.0209">
        <ele>509.64</ele>
        <time>2016-11-20T12:41:28Z</time>
      </trkpt>
      <trkpt lat="44.08889" lon="3.02087">
        <ele>507.71</ele>
        <time>2016-11-20T12:41:35Z</time>
      </trkpt>
      <trkpt lat="44.08881" lon="3.0208">
        <ele>507.23</ele>
        <time>2016-11-20T12:41:47Z</time>
      </trkpt>
      <trkpt lat="44.08877" lon="3.02074">
        <ele>504.83</ele>
        <time>2016-11-20T12:42:00Z</time>
      </trkpt>
      <trkpt lat="44.08873" lon="3.02071">
        <ele>505.31</ele>
        <time>2016-11-20T12:42:03Z</time>
      </trkpt>
      <trkpt lat="44.08871" lon="3.02062">
        <ele>502.91</ele>
        <time>2016-11-20T12:42:09Z</time>
      </trkpt>
      <trkpt lat="44.08871" lon="3.02049">
        <ele>504.83</ele>
        <time>2016-11-20T12:42:17Z</time>
      </trkpt>
      <trkpt lat="44.08872" lon="3.02045">
        <ele>504.83</ele>
        <time>2016-11-20T12:42:19Z</time>
      </trkpt>
      <trkpt lat="44.08874" lon="3.0203">
        <ele>508.19</ele>
        <time>2016-11-20T12:42:27Z</time>
      </trkpt>
      <trkpt lat="44.08877" lon="3.0201">
        <ele>508.19</ele>
        <time>2016-11-20T12:42:38Z</time>
      </trkpt>
      <trkpt lat="44.08883" lon="3.01993">
        <ele>509.64</ele>
        <time>2016-11-20T12:42:48Z</time>
      </trkpt>
      <trkpt lat="44.08889" lon="3.0198">
        <ele>510.12</ele>
        <time>2016-11-20T12:42:56Z</time>
      </trkpt>
      <trkpt lat="44.08906" lon="3.01957">
        <ele>510.6</ele>
        <time>2016-11-20T12:43:13Z</time>
      </trkpt>
      <trkpt lat="44.08921" lon="3.01944">
        <ele>510.6</ele>
        <time>2016-11-20T12:43:30Z</time>
      </trkpt>
      <trkpt lat="44.08931" lon="3.01939">
        <ele>512.52</ele>
        <time>2016-11-20T12:43:42Z</time>
      </trkpt>
      <trkpt lat="44.08939" lon="3.01938">
        <ele>513</ele>
        <time>2016-11-20T12:43:49Z</time>
      </trkpt>
      <trkpt lat="44.08942" lon="3.0194">
        <ele>514.44</ele>
        <time>2016-11-20T12:43:53Z</time>
      </trkpt>
      <trkpt lat="44.08945" lon="3.01938">
        <ele>515.4</ele>
        <time>2016-11-20T12:43:57Z</time>
      </trkpt>
      <trkpt lat="44.08956" lon="3.01934">
        <ele>515.4</ele>
        <time>2016-11-20T12:44:10Z</time>
      </trkpt>
      <trkpt lat="44.08958" lon="3.01934">
        <ele>516.37</ele>
        <time>2016-11-20T12:44:13Z</time>
      </trkpt>
      <trkpt lat="44.08969" lon="3.01929">
        <ele>517.33</ele>
        <time>2016-11-20T12:44:24Z</time>
      </trkpt>
      <trkpt lat="44.08972" lon="3.01928">
        <ele>517.81</ele>
        <time>2016-11-20T12:44:27Z</time>
      </trkpt>
      <trkpt lat="44.08977" lon="3.01927">
        <ele>517.81</ele>
        <time>2016-11-20T12:44:31Z</time>
      </trkpt>
      <trkpt lat="44.08988" lon="3.01924">
        <ele>519.73</ele>
        <time>2016-11-20T12:44:44Z</time>
      </trkpt>
      <trkpt lat="44.08996" lon="3.01922">
        <ele>520.69</ele>
        <time>2016-11-20T12:44:55Z</time>
      </trkpt>
      <trkpt lat="44.08997" lon="3.01921">
        <ele>520.69</ele>
        <time>2016-11-20T12:44:56Z</time>
      </trkpt>
      <trkpt lat="44.09008" lon="3.01916">
        <ele>521.65</ele>
        <time>2016-11-20T12:45:10Z</time>
      </trkpt>
      <trkpt lat="44.09018" lon="3.01912">
        <ele>522.13</ele>
        <time>2016-11-20T12:45:21Z</time>
      </trkpt>
      <trkpt lat="44.0903" lon="3.01908">
        <ele>523.09</ele>
        <time>2016-11-20T12:45:33Z</time>
      </trkpt>
      <trkpt lat="44.09042" lon="3.01909">
        <ele>525.98</ele>
        <time>2016-11-20T12:45:46Z</time>
      </trkpt>
      <trkpt lat="44.09051" lon="3.01909">
        <ele>526.46</ele>
        <time>2016-11-20T12:45:59Z</time>
      </trkpt>
      <trkpt lat="44.09059" lon="3.01909">
        <ele>527.42</ele>
        <time>2016-11-20T12:46:07Z</time>
      </trkpt>
      <trkpt lat="44.09071" lon="3.01908">
        <ele>530.3</ele>
        <time>2016-11-20T12:46:21Z</time>
      </trkpt>
      <trkpt lat="44.09081" lon="3.01909">
        <ele>533.19</ele>
        <time>2016-11-20T12:46:38Z</time>
      </trkpt>
      <trkpt lat="44.09091" lon="3.01909">
        <ele>534.63</ele>
        <time>2016-11-20T12:46:51Z</time>
      </trkpt>
      <trkpt lat="44.09091" lon="3.01909">
        <ele>534.63</ele>
        <time>2016-11-20T12:47:06Z</time>
      </trkpt>
      <trkpt lat="44.09091" lon="3.01911">
        <ele>534.15</ele>
        <time>2016-11-20T12:47:31Z</time>
      </trkpt>
      <trkpt lat="44.09091" lon="3.01912">
        <ele>534.63</ele>
        <time>2016-11-20T12:47:51Z</time>
      </trkpt>
      <trkpt lat="44.0909" lon="3.01912">
        <ele>535.11</ele>
        <time>2016-11-20T12:48:10Z</time>
      </trkpt>
      <trkpt lat="44.0909" lon="3.01912">
        <ele>534.63</ele>
        <time>2016-11-20T12:48:26Z</time>
      </trkpt>
      <trkpt lat="44.09093" lon="3.01911">
        <ele>534.63</ele>
        <time>2016-11-20T12:48:54Z</time>
      </trkpt>
      <trkpt lat="44.091" lon="3.01908">
        <ele>535.11</ele>
        <time>2016-11-20T12:49:05Z</time>
      </trkpt>
      <trkpt lat="44.09114" lon="3.01896">
        <ele>532.71</ele>
        <time>2016-11-20T12:49:19Z</time>
      </trkpt>
      <trkpt lat="44.09117" lon="3.01895">
        <ele>533.19</ele>
        <time>2016-11-20T12:49:25Z</time>
      </trkpt>
      <trkpt lat="44.09124" lon="3.01883">
        <ele>530.3</ele>
        <time>2016-11-20T12:49:35Z</time>
      </trkpt>
      <trkpt lat="44.09132" lon="3.01868">
        <ele>528.38</ele>
        <time>2016-11-20T12:49:45Z</time>
      </trkpt>
      <trkpt lat="44.09134" lon="3.01864">
        <ele>528.38</ele>
        <time>2016-11-20T12:49:48Z</time>
      </trkpt>
      <trkpt lat="44.09137" lon="3.01859">
        <ele>527.42</ele>
        <time>2016-11-20T12:49:52Z</time>
      </trkpt>
      <trkpt lat="44.09141" lon="3.01852">
        <ele>526.46</ele>
        <time>2016-11-20T12:50:05Z</time>
      </trkpt>
      <trkpt lat="44.09142" lon="3.01851">
        <ele>525.98</ele>
        <time>2016-11-20T12:50:08Z</time>
      </trkpt>
      <trkpt lat="44.09153" lon="3.01838">
        <ele>524.54</ele>
        <time>2016-11-20T12:50:20Z</time>
      </trkpt>
      <trkpt lat="44.09161" lon="3.01828">
        <ele>524.54</ele>
        <time>2016-11-20T12:50:31Z</time>
      </trkpt>
      <trkpt lat="44.09151" lon="3.01805">
        <ele>521.17</ele>
        <time>2016-11-20T12:50:47Z</time>
      </trkpt>
      <trkpt lat="44.09146" lon="3.01799">
        <ele>519.25</ele>
        <time>2016-11-20T12:50:52Z</time>
      </trkpt>
      <trkpt lat="44.09143" lon="3.01797">
        <ele>517.81</ele>
        <time>2016-11-20T12:50:54Z</time>
      </trkpt>
      <trkpt lat="44.09125" lon="3.01776">
        <ele>515.88</ele>
        <time>2016-11-20T12:51:10Z</time>
      </trkpt>
      <trkpt lat="44.09109" lon="3.01754">
        <ele>514.92</ele>
        <time>2016-11-20T12:51:25Z</time>
      </trkpt>
      <trkpt lat="44.09094" lon="3.01739">
        <ele>511.56</ele>
        <time>2016-11-20T12:51:38Z</time>
      </trkpt>
      <trkpt lat="44.09074" lon="3.01723">
        <ele>508.67</ele>
        <time>2016-11-20T12:51:54Z</time>
      </trkpt>
      <trkpt lat="44.09068" lon="3.01719">
        <ele>507.23</ele>
        <time>2016-11-20T12:51:59Z</time>
      </trkpt>
      <trkpt lat="44.09054" lon="3.01708">
        <ele>506.27</ele>
        <time>2016-11-20T12:52:13Z</time>
      </trkpt>
      <trkpt lat="44.09039" lon="3.01699">
        <ele>503.39</ele>
        <time>2016-11-20T12:52:24Z</time>
      </trkpt>
      <trkpt lat="44.09029" lon="3.01696">
        <ele>500.02</ele>
        <time>2016-11-20T12:52:32Z</time>
      </trkpt>
      <trkpt lat="44.09018" lon="3.01692">
        <ele>499.06</ele>
        <time>2016-11-20T12:52:40Z</time>
      </trkpt>
      <trkpt lat="44.09011" lon="3.01689">
        <ele>496.66</ele>
        <time>2016-11-20T12:52:45Z</time>
      </trkpt>
      <trkpt lat="44.08995" lon="3.01684">
        <ele>493.29</ele>
        <time>2016-11-20T12:52:57Z</time>
      </trkpt>
      <trkpt lat="44.08982" lon="3.01662">
        <ele>491.85</ele>
        <time>2016-11-20T12:53:11Z</time>
      </trkpt>
      <trkpt lat="44.08981" lon="3.01659">
        <ele>491.37</ele>
        <time>2016-11-20T12:53:13Z</time>
      </trkpt>
      <trkpt lat="44.08975" lon="3.01647">
        <ele>489.93</ele>
        <time>2016-11-20T12:53:20Z</time>
      </trkpt>
      <trkpt lat="44.0897" lon="3.01636">
        <ele>488.49</ele>
        <time>2016-11-20T12:53:27Z</time>
      </trkpt>
      <trkpt lat="44.08969" lon="3.01626">
        <ele>488.49</ele>
        <time>2016-11-20T12:53:33Z</time>
      </trkpt>
      <trkpt lat="44.08969" lon="3.0162">
        <ele>488.49</ele>
        <time>2016-11-20T12:53:36Z</time>
      </trkpt>
      <trkpt lat="44.08971" lon="3.01608">
        <ele>489.93</ele>
        <time>2016-11-20T12:53:43Z</time>
      </trkpt>
      <trkpt lat="44.08972" lon="3.01602">
        <ele>490.89</ele>
        <time>2016-11-20T12:53:47Z</time>
      </trkpt>
      <trkpt lat="44.08971" lon="3.016">
        <ele>491.37</ele>
        <time>2016-11-20T12:53:49Z</time>
      </trkpt>
      <trkpt lat="44.08972" lon="3.01594">
        <ele>492.33</ele>
        <time>2016-11-20T12:53:52Z</time>
      </trkpt>
      <trkpt lat="44.08976" lon="3.01578">
        <ele>492.81</ele>
        <time>2016-11-20T12:54:05Z</time>
      </trkpt>
      <trkpt lat="44.08979" lon="3.01571">
        <ele>495.7</ele>
        <time>2016-11-20T12:54:11Z</time>
      </trkpt>
      <trkpt lat="44.08982" lon="3.01562">
        <ele>497.62</ele>
        <time>2016-11-20T12:54:18Z</time>
      </trkpt>
      <trkpt lat="44.08983" lon="3.0156">
        <ele>499.06</ele>
        <time>2016-11-20T12:54:21Z</time>
      </trkpt>
      <trkpt lat="44.08983" lon="3.01559">
        <ele>499.54</ele>
        <time>2016-11-20T12:54:22Z</time>
      </trkpt>
      <trkpt lat="44.08992" lon="3.01542">
        <ele>501.46</ele>
        <time>2016-11-20T12:54:37Z</time>
      </trkpt>
      <trkpt lat="44.08994" lon="3.01536">
        <ele>502.91</ele>
        <time>2016-11-20T12:54:42Z</time>
      </trkpt>
      <trkpt lat="44.08998" lon="3.0152">
        <ele>504.35</ele>
        <time>2016-11-20T12:54:51Z</time>
      </trkpt>
      <trkpt lat="44.09" lon="3.01519">
        <ele>504.35</ele>
        <time>2016-11-20T12:54:53Z</time>
      </trkpt>
      <trkpt lat="44.09008" lon="3.01504">
        <ele>507.23</ele>
        <time>2016-11-20T12:55:06Z</time>
      </trkpt>
      <trkpt lat="44.09016" lon="3.0149">
        <ele>508.67</ele>
        <time>2016-11-20T12:55:18Z</time>
      </trkpt>
      <trkpt lat="44.09027" lon="3.01477">
        <ele>510.6</ele>
        <time>2016-11-20T12:55:32Z</time>
      </trkpt>
      <trkpt lat="44.09038" lon="3.0147">
        <ele>512.04</ele>
        <time>2016-11-20T12:55:43Z</time>
      </trkpt>
      <trkpt lat="44.09047" lon="3.0147">
        <ele>514.44</ele>
        <time>2016-11-20T12:55:53Z</time>
      </trkpt>
      <trkpt lat="44.09061" lon="3.01472">
        <ele>517.81</ele>
        <time>2016-11-20T12:56:03Z</time>
      </trkpt>
      <trkpt lat="44.09069" lon="3.01471">
        <ele>519.25</ele>
        <time>2016-11-20T12:56:10Z</time>
      </trkpt>
      <trkpt lat="44.09085" lon="3.01466">
        <ele>521.17</ele>
        <time>2016-11-20T12:56:25Z</time>
      </trkpt>
      <trkpt lat="44.09091" lon="3.01449">
        <ele>523.58</ele>
        <time>2016-11-20T12:56:39Z</time>
      </trkpt>
      <trkpt lat="44.09092" lon="3.01446">
        <ele>524.06</ele>
        <time>2016-11-20T12:56:42Z</time>
      </trkpt>
      <trkpt lat="44.09098" lon="3.01442">
        <ele>525.02</ele>
        <time>2016-11-20T12:56:50Z</time>
      </trkpt>
      <trkpt lat="44.0911" lon="3.01431">
        <ele>526.94</ele>
        <time>2016-11-20T12:57:02Z</time>
      </trkpt>
      <trkpt lat="44.09122" lon="3.01422">
        <ele>529.34</ele>
        <time>2016-11-20T12:57:11Z</time>
      </trkpt>
      <trkpt lat="44.09125" lon="3.01421">
        <ele>529.82</ele>
        <time>2016-11-20T12:57:14Z</time>
      </trkpt>
      <trkpt lat="44.09134" lon="3.01416">
        <ele>531.27</ele>
        <time>2016-11-20T12:57:26Z</time>
      </trkpt>
      <trkpt lat="44.09136" lon="3.01418">
        <ele>529.82</ele>
        <time>2016-11-20T12:57:40Z</time>
      </trkpt>
      <trkpt lat="44.09135" lon="3.01419">
        <ele>530.3</ele>
        <time>2016-11-20T12:57:51Z</time>
      </trkpt>
      <trkpt lat="44.09132" lon="3.01418">
        <ele>530.3</ele>
        <time>2016-11-20T12:58:29Z</time>
      </trkpt>
      <trkpt lat="44.09135" lon="3.01421">
        <ele>530.3</ele>
        <time>2016-11-20T12:59:04Z</time>
      </trkpt>
      <trkpt lat="44.09135" lon="3.01418">
        <ele>529.34</ele>
        <time>2016-11-20T12:59:29Z</time>
      </trkpt>
      <trkpt lat="44.09133" lon="3.01417">
        <ele>529.34</ele>
        <time>2016-11-20T13:00:01Z</time>
      </trkpt>
      <trkpt lat="44.09134" lon="3.01417">
        <ele>530.3</ele>
        <time>2016-11-20T13:00:21Z</time>
      </trkpt>
      <trkpt lat="44.09132" lon="3.01416">
        <ele>530.3</ele>
        <time>2016-11-20T13:00:54Z</time>
      </trkpt>
      <trkpt lat="44.09133" lon="3.01418">
        <ele>531.75</ele>
        <time>2016-11-20T13:01:15Z</time>
      </trkpt>
      <trkpt lat="44.09133" lon="3.01419">
        <ele>529.82</ele>
        <time>2016-11-20T13:01:19Z</time>
      </trkpt>
      <trkpt lat="44.09138" lon="3.01421">
        <ele>530.3</ele>
        <time>2016-11-20T13:01:31Z</time>
      </trkpt>
      <trkpt lat="44.09145" lon="3.01422">
        <ele>530.3</ele>
        <time>2016-11-20T13:01:36Z</time>
      </trkpt>
      <trkpt lat="44.09158" lon="3.01414">
        <ele>532.71</ele>
        <time>2016-11-20T13:01:50Z</time>
      </trkpt>
      <trkpt lat="44.09167" lon="3.01409">
        <ele>533.67</ele>
        <time>2016-11-20T13:01:59Z</time>
      </trkpt>
      <trkpt lat="44.09184" lon="3.014">
        <ele>535.59</ele>
        <time>2016-11-20T13:02:12Z</time>
      </trkpt>
      <trkpt lat="44.09201" lon="3.01393">
        <ele>537.99</ele>
        <time>2016-11-20T13:02:26Z</time>
      </trkpt>
      <trkpt lat="44.09223" lon="3.01391">
        <ele>539.92</ele>
        <time>2016-11-20T13:02:41Z</time>
      </trkpt>
      <trkpt lat="44.09242" lon="3.01386">
        <ele>541.36</ele>
        <time>2016-11-20T13:02:57Z</time>
      </trkpt>
      <trkpt lat="44.09249" lon="3.01377">
        <ele>543.76</ele>
        <time>2016-11-20T13:03:05Z</time>
      </trkpt>
      <trkpt lat="44.09251" lon="3.01376">
        <ele>544.24</ele>
        <time>2016-11-20T13:03:07Z</time>
      </trkpt>
      <trkpt lat="44.0926" lon="3.01357">
        <ele>545.69</ele>
        <time>2016-11-20T13:03:20Z</time>
      </trkpt>
      <trkpt lat="44.09261" lon="3.01356">
        <ele>545.69</ele>
        <time>2016-11-20T13:03:21Z</time>
      </trkpt>
      <trkpt lat="44.09269" lon="3.01353">
        <ele>546.65</ele>
        <time>2016-11-20T13:03:28Z</time>
      </trkpt>
      <trkpt lat="44.09272" lon="3.0135">
        <ele>548.09</ele>
        <time>2016-11-20T13:03:32Z</time>
      </trkpt>
      <trkpt lat="44.09273" lon="3.01347">
        <ele>548.09</ele>
        <time>2016-11-20T13:03:34Z</time>
      </trkpt>
      <trkpt lat="44.09274" lon="3.01342">
        <ele>548.57</ele>
        <time>2016-11-20T13:03:37Z</time>
      </trkpt>
      <trkpt lat="44.09277" lon="3.01337">
        <ele>549.05</ele>
        <time>2016-11-20T13:03:40Z</time>
      </trkpt>
      <trkpt lat="44.09282" lon="3.0133">
        <ele>550.49</ele>
        <time>2016-11-20T13:03:46Z</time>
      </trkpt>
      <trkpt lat="44.09285" lon="3.01322">
        <ele>551.45</ele>
        <time>2016-11-20T13:03:51Z</time>
      </trkpt>
      <trkpt lat="44.09289" lon="3.01318">
        <ele>551.93</ele>
        <time>2016-11-20T13:03:55Z</time>
      </trkpt>
      <trkpt lat="44.09298" lon="3.01313">
        <ele>553.38</ele>
        <time>2016-11-20T13:04:04Z</time>
      </trkpt>
      <trkpt lat="44.09304" lon="3.01313">
        <ele>554.82</ele>
        <time>2016-11-20T13:04:09Z</time>
      </trkpt>
      <trkpt lat="44.0931" lon="3.0131">
        <ele>554.82</ele>
        <time>2016-11-20T13:04:13Z</time>
      </trkpt>
      <trkpt lat="44.09327" lon="3.01303">
        <ele>557.22</ele>
        <time>2016-11-20T13:04:26Z</time>
      </trkpt>
      <trkpt lat="44.09327" lon="3.01303">
        <ele>557.22</ele>
        <time>2016-11-20T13:04:27Z</time>
      </trkpt>
      <trkpt lat="44.09334" lon="3.01295">
        <ele>558.18</ele>
        <time>2016-11-20T13:04:35Z</time>
      </trkpt>
      <trkpt lat="44.09324" lon="3.01275">
        <ele>556.26</ele>
        <time>2016-11-20T13:04:50Z</time>
      </trkpt>
      <trkpt lat="44.09312" lon="3.01261">
        <ele>553.86</ele>
        <time>2016-11-20T13:05:03Z</time>
      </trkpt>
      <trkpt lat="44.09301" lon="3.01249">
        <ele>553.38</ele>
        <time>2016-11-20T13:05:19Z</time>
      </trkpt>
      <trkpt lat="44.09302" lon="3.01246">
        <ele>553.38</ele>
        <time>2016-11-20T13:05:38Z</time>
      </trkpt>
      <trkpt lat="44.09299" lon="3.01247">
        <ele>553.38</ele>
        <time>2016-11-20T13:05:56Z</time>
      </trkpt>
      <trkpt lat="44.09299" lon="3.01247">
        <ele>552.9</ele>
        <time>2016-11-20T13:06:15Z</time>
      </trkpt>
      <trkpt lat="44.09301" lon="3.01246">
        <ele>552.9</ele>
        <time>2016-11-20T13:06:41Z</time>
      </trkpt>
      <trkpt lat="44.09302" lon="3.01248">
        <ele>552.41</ele>
        <time>2016-11-20T13:07:02Z</time>
      </trkpt>
      <trkpt lat="44.09302" lon="3.0125">
        <ele>553.38</ele>
        <time>2016-11-20T13:07:23Z</time>
      </trkpt>
      <trkpt lat="44.09302" lon="3.01249">
        <ele>553.86</ele>
        <time>2016-11-20T13:07:44Z</time>
      </trkpt>
      <trkpt lat="44.09301" lon="3.01248">
        <ele>553.38</ele>
        <time>2016-11-20T13:08:05Z</time>
      </trkpt>
      <trkpt lat="44.09302" lon="3.01245">
        <ele>552.9</ele>
        <time>2016-11-20T13:08:34Z</time>
      </trkpt>
      <trkpt lat="44.09301" lon="3.01243">
        <ele>553.38</ele>
        <time>2016-11-20T13:08:51Z</time>
      </trkpt>
      <trkpt lat="44.093" lon="3.01238">
        <ele>553.86</ele>
        <time>2016-11-20T13:09:08Z</time>
      </trkpt>
      <trkpt lat="44.09301" lon="3.01241">
        <ele>553.86</ele>
        <time>2016-11-20T13:09:26Z</time>
      </trkpt>
      <trkpt lat="44.09303" lon="3.01244">
        <ele>553.86</ele>
        <time>2016-11-20T13:09:51Z</time>
      </trkpt>
      <trkpt lat="44.09301" lon="3.01249">
        <ele>552.41</ele>
        <time>2016-11-20T13:10:11Z</time>
      </trkpt>
      <trkpt lat="44.09305" lon="3.01245">
        <ele>552.41</ele>
        <time>2016-11-20T13:10:22Z</time>
      </trkpt>
      <trkpt lat="44.09306" lon="3.01244">
        <ele>552.41</ele>
        <time>2016-11-20T13:10:24Z</time>
      </trkpt>
      <trkpt lat="44.0932" lon="3.01225">
        <ele>554.34</ele>
        <time>2016-11-20T13:10:38Z</time>
      </trkpt>
      <trkpt lat="44.09335" lon="3.0121">
        <ele>553.38</ele>
        <time>2016-11-20T13:10:53Z</time>
      </trkpt>
      <trkpt lat="44.09349" lon="3.01188">
        <ele>552.9</ele>
        <time>2016-11-20T13:11:08Z</time>
      </trkpt>
      <trkpt lat="44.09369" lon="3.01173">
        <ele>553.38</ele>
        <time>2016-11-20T13:11:24Z</time>
      </trkpt>
      <trkpt lat="44.09383" lon="3.01156">
        <ele>552.41</ele>
        <time>2016-11-20T13:11:39Z</time>
      </trkpt>
      <trkpt lat="44.09404" lon="3.01137">
        <ele>550.97</ele>
        <time>2016-11-20T13:11:57Z</time>
      </trkpt>
      <trkpt lat="44.09424" lon="3.01126">
        <ele>551.45</ele>
        <time>2016-11-20T13:12:12Z</time>
      </trkpt>
      <trkpt lat="44.09438" lon="3.01112">
        <ele>550.49</ele>
        <time>2016-11-20T13:12:25Z</time>
      </trkpt>
      <trkpt lat="44.09453" lon="3.01108">
        <ele>550.49</ele>
        <time>2016-11-20T13:12:37Z</time>
      </trkpt>
      <trkpt lat="44.09467" lon="3.01108">
        <ele>549.53</ele>
        <time>2016-11-20T13:12:52Z</time>
      </trkpt>
      <trkpt lat="44.09474" lon="3.01115">
        <ele>550.49</ele>
        <time>2016-11-20T13:12:59Z</time>
      </trkpt>
      <trkpt lat="44.09485" lon="3.01121">
        <ele>550.97</ele>
        <time>2016-11-20T13:13:08Z</time>
      </trkpt>
      <trkpt lat="44.09487" lon="3.01121">
        <ele>550.97</ele>
        <time>2016-11-20T13:13:10Z</time>
      </trkpt>
      <trkpt lat="44.0949" lon="3.01122">
        <ele>550.97</ele>
        <time>2016-11-20T13:13:12Z</time>
      </trkpt>
      <trkpt lat="44.09506" lon="3.01139">
        <ele>550.49</ele>
        <time>2016-11-20T13:13:26Z</time>
      </trkpt>
      <trkpt lat="44.09516" lon="3.0115">
        <ele>551.93</ele>
        <time>2016-11-20T13:13:35Z</time>
      </trkpt>
      <trkpt lat="44.09531" lon="3.01162">
        <ele>549.05</ele>
        <time>2016-11-20T13:13:47Z</time>
      </trkpt>
      <trkpt lat="44.09537" lon="3.01171">
        <ele>549.53</ele>
        <time>2016-11-20T13:13:53Z</time>
      </trkpt>
      <trkpt lat="44.0954" lon="3.01178">
        <ele>549.05</ele>
        <time>2016-11-20T13:13:57Z</time>
      </trkpt>
      <trkpt lat="44.09546" lon="3.01188">
        <ele>549.53</ele>
        <time>2016-11-20T13:14:14Z</time>
      </trkpt>
      <trkpt lat="44.09556" lon="3.01205">
        <ele>549.05</ele>
        <time>2016-11-20T13:14:30Z</time>
      </trkpt>
      <trkpt lat="44.09573" lon="3.01231">
        <ele>550.49</ele>
        <time>2016-11-20T13:14:48Z</time>
      </trkpt>
      <trkpt lat="44.09588" lon="3.01266">
        <ele>550.97</ele>
        <time>2016-11-20T13:15:09Z</time>
      </trkpt>
      <trkpt lat="44.0959" lon="3.01291">
        <ele>552.41</ele>
        <time>2016-11-20T13:15:23Z</time>
      </trkpt>
      <trkpt lat="44.09591" lon="3.01289">
        <ele>551.93</ele>
        <time>2016-11-20T13:15:43Z</time>
      </trkpt>
      <trkpt lat="44.09592" lon="3.01291">
        <ele>551.45</ele>
        <time>2016-11-20T13:16:10Z</time>
      </trkpt>
      <trkpt lat="44.09594" lon="3.01291">
        <ele>551.45</ele>
        <time>2016-11-20T13:16:22Z</time>
      </trkpt>
      <trkpt lat="44.09594" lon="3.0129">
        <ele>552.41</ele>
        <time>2016-11-20T13:16:43Z</time>
      </trkpt>
      <trkpt lat="44.09593" lon="3.0129">
        <ele>551.45</ele>
        <time>2016-11-20T13:17:02Z</time>
      </trkpt>
      <trkpt lat="44.09592" lon="3.0129">
        <ele>551.93</ele>
        <time>2016-11-20T13:17:30Z</time>
      </trkpt>
      <trkpt lat="44.09591" lon="3.0129">
        <ele>551.93</ele>
        <time>2016-11-20T13:17:47Z</time>
      </trkpt>
      <trkpt lat="44.09591" lon="3.01306">
        <ele>551.45</ele>
        <time>2016-11-20T13:17:56Z</time>
      </trkpt>
      <trkpt lat="44.09587" lon="3.0134">
        <ele>550.49</ele>
        <time>2016-11-20T13:18:14Z</time>
      </trkpt>
      <trkpt lat="44.09586" lon="3.01347">
        <ele>550.49</ele>
        <time>2016-11-20T13:18:18Z</time>
      </trkpt>
      <trkpt lat="44.09583" lon="3.01364">
        <ele>547.13</ele>
        <time>2016-11-20T13:18:27Z</time>
      </trkpt>
      <trkpt lat="44.0958" lon="3.01392">
        <ele>547.13</ele>
        <time>2016-11-20T13:18:42Z</time>
      </trkpt>
      <trkpt lat="44.09577" lon="3.01426">
        <ele>544.72</ele>
        <time>2016-11-20T13:19:00Z</time>
      </trkpt>
      <trkpt lat="44.09575" lon="3.01452">
        <ele>542.32</ele>
        <time>2016-11-20T13:19:15Z</time>
      </trkpt>
      <trkpt lat="44.09574" lon="3.01462">
        <ele>541.84</ele>
        <time>2016-11-20T13:19:20Z</time>
      </trkpt>
      <trkpt lat="44.0957" lon="3.01483">
        <ele>540.88</ele>
        <time>2016-11-20T13:19:30Z</time>
      </trkpt>
      <trkpt lat="44.0957" lon="3.01514">
        <ele>538.48</ele>
        <time>2016-11-20T13:19:45Z</time>
      </trkpt>
      <trkpt lat="44.0957" lon="3.01527">
        <ele>536.55</ele>
        <time>2016-11-20T13:19:53Z</time>
      </trkpt>
      <trkpt lat="44.09569" lon="3.01553">
        <ele>535.59</ele>
        <time>2016-11-20T13:20:06Z</time>
      </trkpt>
      <trkpt lat="44.09569" lon="3.01579">
        <ele>533.19</ele>
        <time>2016-11-20T13:20:20Z</time>
      </trkpt>
      <trkpt lat="44.09571" lon="3.01584">
        <ele>533.19</ele>
        <time>2016-11-20T13:20:23Z</time>
      </trkpt>
      <trkpt lat="44.09572" lon="3.0159">
        <ele>533.19</ele>
        <time>2016-11-20T13:20:25Z</time>
      </trkpt>
      <trkpt lat="44.09587" lon="3.01612">
        <ele>534.63</ele>
        <time>2016-11-20T13:20:40Z</time>
      </trkpt>
      <trkpt lat="44.0961" lon="3.01633">
        <ele>535.59</ele>
        <time>2016-11-20T13:20:58Z</time>
      </trkpt>
      <trkpt lat="44.09627" lon="3.01654">
        <ele>536.07</ele>
        <time>2016-11-20T13:21:13Z</time>
      </trkpt>
      <trkpt lat="44.09636" lon="3.01669">
        <ele>537.03</ele>
        <time>2016-11-20T13:21:23Z</time>
      </trkpt>
      <trkpt lat="44.0965" lon="3.01683">
        <ele>540.4</ele>
        <time>2016-11-20T13:21:35Z</time>
      </trkpt>
      <trkpt lat="44.0966" lon="3.01699">
        <ele>543.28</ele>
        <time>2016-11-20T13:21:47Z</time>
      </trkpt>
      <trkpt lat="44.09664" lon="3.01708">
        <ele>544.72</ele>
        <time>2016-11-20T13:21:53Z</time>
      </trkpt>
      <trkpt lat="44.09667" lon="3.01715">
        <ele>546.17</ele>
        <time>2016-11-20T13:22:00Z</time>
      </trkpt>
      <trkpt lat="44.09673" lon="3.01723">
        <ele>547.61</ele>
        <time>2016-11-20T13:22:05Z</time>
      </trkpt>
      <trkpt lat="44.0968" lon="3.01738">
        <ele>548.57</ele>
        <time>2016-11-20T13:22:18Z</time>
      </trkpt>
      <trkpt lat="44.09685" lon="3.01744">
        <ele>547.61</ele>
        <time>2016-11-20T13:22:24Z</time>
      </trkpt>
      <trkpt lat="44.09702" lon="3.01756">
        <ele>548.09</ele>
        <time>2016-11-20T13:22:38Z</time>
      </trkpt>
      <trkpt lat="44.0971" lon="3.01761">
        <ele>548.09</ele>
        <time>2016-11-20T13:22:50Z</time>
      </trkpt>
      <trkpt lat="44.0971" lon="3.01758">
        <ele>548.57</ele>
        <time>2016-11-20T13:23:07Z</time>
      </trkpt>
      <trkpt lat="44.09711" lon="3.01759">
        <ele>547.61</ele>
        <time>2016-11-20T13:23:26Z</time>
      </trkpt>
      <trkpt lat="44.09709" lon="3.01759">
        <ele>548.57</ele>
        <time>2016-11-20T13:23:48Z</time>
      </trkpt>
      <trkpt lat="44.09711" lon="3.0176">
        <ele>548.57</ele>
        <time>2016-11-20T13:24:06Z</time>
      </trkpt>
      <trkpt lat="44.09712" lon="3.01758">
        <ele>547.61</ele>
        <time>2016-11-20T13:24:28Z</time>
      </trkpt>
      <trkpt lat="44.09712" lon="3.01758">
        <ele>548.57</ele>
        <time>2016-11-20T13:24:49Z</time>
      </trkpt>
      <trkpt lat="44.09713" lon="3.01761">
        <ele>549.05</ele>
        <time>2016-11-20T13:25:12Z</time>
      </trkpt>
      <trkpt lat="44.09712" lon="3.01758">
        <ele>549.53</ele>
        <time>2016-11-20T13:25:39Z</time>
      </trkpt>
      <trkpt lat="44.09712" lon="3.01758">
        <ele>550.01</ele>
        <time>2016-11-20T13:26:05Z</time>
      </trkpt>
      <trkpt lat="44.09712" lon="3.01757">
        <ele>550.01</ele>
        <time>2016-11-20T13:26:34Z</time>
      </trkpt>
      <trkpt lat="44.09712" lon="3.01752">
        <ele>549.05</ele>
        <time>2016-11-20T13:26:38Z</time>
      </trkpt>
      <trkpt lat="44.09712" lon="3.01734">
        <ele>545.69</ele>
        <time>2016-11-20T13:26:52Z</time>
      </trkpt>
      <trkpt lat="44.09713" lon="3.01717">
        <ele>543.28</ele>
        <time>2016-11-20T13:27:02Z</time>
      </trkpt>
      <trkpt lat="44.09718" lon="3.01694">
        <ele>540.4</ele>
        <time>2016-11-20T13:27:15Z</time>
      </trkpt>
      <trkpt lat="44.09721" lon="3.01682">
        <ele>539.92</ele>
        <time>2016-11-20T13:27:22Z</time>
      </trkpt>
      <trkpt lat="44.09723" lon="3.01672">
        <ele>538.96</ele>
        <time>2016-11-20T13:27:28Z</time>
      </trkpt>
      <trkpt lat="44.09726" lon="3.01651">
        <ele>536.07</ele>
        <time>2016-11-20T13:27:39Z</time>
      </trkpt>
      <trkpt lat="44.0973" lon="3.01638">
        <ele>534.15</ele>
        <time>2016-11-20T13:27:46Z</time>
      </trkpt>
      <trkpt lat="44.09732" lon="3.01631">
        <ele>533.67</ele>
        <time>2016-11-20T13:27:50Z</time>
      </trkpt>
      <trkpt lat="44.09737" lon="3.01623">
        <ele>532.71</ele>
        <time>2016-11-20T13:27:56Z</time>
      </trkpt>
      <trkpt lat="44.09746" lon="3.01595">
        <ele>529.82</ele>
        <time>2016-11-20T13:28:12Z</time>
      </trkpt>
      <trkpt lat="44.09753" lon="3.01575">
        <ele>526.46</ele>
        <time>2016-11-20T13:28:24Z</time>
      </trkpt>
      <trkpt lat="44.09764" lon="3.01547">
        <ele>523.58</ele>
        <time>2016-11-20T13:28:40Z</time>
      </trkpt>
      <trkpt lat="44.09771" lon="3.01531">
        <ele>520.21</ele>
        <time>2016-11-20T13:28:50Z</time>
      </trkpt>
      <trkpt lat="44.0978" lon="3.01509">
        <ele>516.85</ele>
        <time>2016-11-20T13:29:04Z</time>
      </trkpt>
      <trkpt lat="44.0979" lon="3.01493">
        <ele>513.96</ele>
        <time>2016-11-20T13:29:15Z</time>
      </trkpt>
      <trkpt lat="44.09796" lon="3.01482">
        <ele>511.56</ele>
        <time>2016-11-20T13:29:22Z</time>
      </trkpt>
      <trkpt lat="44.09799" lon="3.01477">
        <ele>510.12</ele>
        <time>2016-11-20T13:29:26Z</time>
      </trkpt>
      <trkpt lat="44.09801" lon="3.01474">
        <ele>509.64</ele>
        <time>2016-11-20T13:29:28Z</time>
      </trkpt>
      <trkpt lat="44.09805" lon="3.01468">
        <ele>508.67</ele>
        <time>2016-11-20T13:29:33Z</time>
      </trkpt>
      <trkpt lat="44.09817" lon="3.01452">
        <ele>504.83</ele>
        <time>2016-11-20T13:29:46Z</time>
      </trkpt>
      <trkpt lat="44.09826" lon="3.0144">
        <ele>501.95</ele>
        <time>2016-11-20T13:29:56Z</time>
      </trkpt>
      <trkpt lat="44.09835" lon="3.01431">
        <ele>499.06</ele>
        <time>2016-11-20T13:30:05Z</time>
      </trkpt>
      <trkpt lat="44.09843" lon="3.01423">
        <ele>497.14</ele>
        <time>2016-11-20T13:30:13Z</time>
      </trkpt>
      <trkpt lat="44.09857" lon="3.01404">
        <ele>493.77</ele>
        <time>2016-11-20T13:30:28Z</time>
      </trkpt>
      <trkpt lat="44.09871" lon="3.01391">
        <ele>490.89</ele>
        <time>2016-11-20T13:30:41Z</time>
      </trkpt>
      <trkpt lat="44.09875" lon="3.01386">
        <ele>489.93</ele>
        <time>2016-11-20T13:30:45Z</time>
      </trkpt>
      <trkpt lat="44.09892" lon="3.01369">
        <ele>486.56</ele>
        <time>2016-11-20T13:31:01Z</time>
      </trkpt>
      <trkpt lat="44.099" lon="3.01354">
        <ele>483.2</ele>
        <time>2016-11-20T13:31:13Z</time>
      </trkpt>
      <trkpt lat="44.09908" lon="3.01341">
        <ele>480.32</ele>
        <time>2016-11-20T13:31:25Z</time>
      </trkpt>
      <trkpt lat="44.09912" lon="3.01337">
        <ele>479.35</ele>
        <time>2016-11-20T13:31:29Z</time>
      </trkpt>
      <trkpt lat="44.09916" lon="3.01331">
        <ele>478.39</ele>
        <time>2016-11-20T13:31:33Z</time>
      </trkpt>
      <trkpt lat="44.09925" lon="3.01322">
        <ele>475.99</ele>
        <time>2016-11-20T13:31:43Z</time>
      </trkpt>
      <trkpt lat="44.09929" lon="3.01309">
        <ele>472.14</ele>
        <time>2016-11-20T13:31:53Z</time>
      </trkpt>
      <trkpt lat="44.09931" lon="3.0129">
        <ele>468.78</ele>
        <time>2016-11-20T13:32:04Z</time>
      </trkpt>
      <trkpt lat="44.09931" lon="3.01289">
        <ele>468.78</ele>
        <time>2016-11-20T13:32:05Z</time>
      </trkpt>
      <trkpt lat="44.0993" lon="3.01282">
        <ele>467.34</ele>
        <time>2016-11-20T13:32:09Z</time>
      </trkpt>
      <trkpt lat="44.09938" lon="3.01269">
        <ele>463.97</ele>
        <time>2016-11-20T13:32:22Z</time>
      </trkpt>
      <trkpt lat="44.09943" lon="3.0126">
        <ele>461.57</ele>
        <time>2016-11-20T13:32:30Z</time>
      </trkpt>
      <trkpt lat="44.09947" lon="3.01256">
        <ele>460.13</ele>
        <time>2016-11-20T13:32:35Z</time>
      </trkpt>
      <trkpt lat="44.09955" lon="3.01243">
        <ele>456.28</ele>
        <time>2016-11-20T13:32:47Z</time>
      </trkpt>
      <trkpt lat="44.09965" lon="3.01245">
        <ele>454.84</ele>
        <time>2016-11-20T13:32:59Z</time>
      </trkpt>
      <trkpt lat="44.09969" lon="3.01251">
        <ele>453.88</ele>
        <time>2016-11-20T13:33:09Z</time>
      </trkpt>
      <trkpt lat="44.09972" lon="3.0126">
        <ele>451</ele>
        <time>2016-11-20T13:33:16Z</time>
      </trkpt>
      <trkpt lat="44.09974" lon="3.01263">
        <ele>450.03</ele>
        <time>2016-11-20T13:33:19Z</time>
      </trkpt>
      <trkpt lat="44.09973" lon="3.01281">
        <ele>446.67</ele>
        <time>2016-11-20T13:33:30Z</time>
      </trkpt>
      <trkpt lat="44.09984" lon="3.01284">
        <ele>447.63</ele>
        <time>2016-11-20T13:33:40Z</time>
      </trkpt>
      <trkpt lat="44.09986" lon="3.01282">
        <ele>448.11</ele>
        <time>2016-11-20T13:33:42Z</time>
      </trkpt>
      <trkpt lat="44.09994" lon="3.01264">
        <ele>445.23</ele>
        <time>2016-11-20T13:33:57Z</time>
      </trkpt>
      <trkpt lat="44.09998" lon="3.01251">
        <ele>441.86</ele>
        <time>2016-11-20T13:34:09Z</time>
      </trkpt>
      <trkpt lat="44.09997" lon="3.0125">
        <ele>441.38</ele>
        <time>2016-11-20T13:34:10Z</time>
      </trkpt>
      <trkpt lat="44.09997" lon="3.01224">
        <ele>438.5</ele>
        <time>2016-11-20T13:34:24Z</time>
      </trkpt>
      <trkpt lat="44.10004" lon="3.01208">
        <ele>436.1</ele>
        <time>2016-11-20T13:34:38Z</time>
      </trkpt>
      <trkpt lat="44.10008" lon="3.012">
        <ele>437.54</ele>
        <time>2016-11-20T13:34:50Z</time>
      </trkpt>
      <trkpt lat="44.10013" lon="3.012">
        <ele>438.5</ele>
        <time>2016-11-20T13:35:05Z</time>
      </trkpt>
      <trkpt lat="44.10014" lon="3.01199">
        <ele>439.46</ele>
        <time>2016-11-20T13:35:23Z</time>
      </trkpt>
      <trkpt lat="44.10015" lon="3.01195">
        <ele>438.98</ele>
        <time>2016-11-20T13:35:52Z</time>
      </trkpt>
      <trkpt lat="44.10016" lon="3.01198">
        <ele>438.98</ele>
        <time>2016-11-20T13:36:15Z</time>
      </trkpt>
      <trkpt lat="44.10016" lon="3.01194">
        <ele>438.98</ele>
        <time>2016-11-20T13:36:40Z</time>
      </trkpt>
      <trkpt lat="44.10012" lon="3.01197">
        <ele>439.94</ele>
        <time>2016-11-20T13:37:06Z</time>
      </trkpt>
      <trkpt lat="44.10011" lon="3.01191">
        <ele>439.94</ele>
        <time>2016-11-20T13:37:29Z</time>
      </trkpt>
      <trkpt lat="44.10012" lon="3.0119">
        <ele>439.94</ele>
        <time>2016-11-20T13:38:01Z</time>
      </trkpt>
      <trkpt lat="44.10013" lon="3.01196">
        <ele>439.46</ele>
        <time>2016-11-20T13:38:25Z</time>
      </trkpt>
      <trkpt lat="44.10012" lon="3.01196">
        <ele>439.94</ele>
        <time>2016-11-20T13:38:52Z</time>
      </trkpt>
      <trkpt lat="44.1001" lon="3.01194">
        <ele>439.94</ele>
        <time>2016-11-20T13:39:17Z</time>
      </trkpt>
      <trkpt lat="44.10013" lon="3.0119">
        <ele>440.42</ele>
        <time>2016-11-20T13:39:44Z</time>
      </trkpt>
      <trkpt lat="44.10012" lon="3.01194">
        <ele>439.94</ele>
        <time>2016-11-20T13:40:16Z</time>
      </trkpt>
      <trkpt lat="44.10012" lon="3.01195">
        <ele>438.98</ele>
        <time>2016-11-20T13:40:42Z</time>
      </trkpt>
      <trkpt lat="44.1001" lon="3.01193">
        <ele>438.98</ele>
        <time>2016-11-20T13:41:12Z</time>
      </trkpt>
      <trkpt lat="44.10016" lon="3.01193">
        <ele>439.94</ele>
        <time>2016-11-20T13:41:35Z</time>
      </trkpt>
      <trkpt lat="44.10025" lon="3.01207">
        <ele>441.38</ele>
        <time>2016-11-20T13:41:47Z</time>
      </trkpt>
      <trkpt lat="44.10027" lon="3.01211">
        <ele>441.38</ele>
        <time>2016-11-20T13:41:50Z</time>
      </trkpt>
      <trkpt lat="44.10039" lon="3.01217">
        <ele>443.31</ele>
        <time>2016-11-20T13:42:01Z</time>
      </trkpt>
      <trkpt lat="44.10046" lon="3.01224">
        <ele>446.67</ele>
        <time>2016-11-20T13:42:13Z</time>
      </trkpt>
      <trkpt lat="44.10056" lon="3.01236">
        <ele>448.59</ele>
        <time>2016-11-20T13:42:25Z</time>
      </trkpt>
      <trkpt lat="44.10058" lon="3.01239">
        <ele>449.07</ele>
        <time>2016-11-20T13:42:28Z</time>
      </trkpt>
      <trkpt lat="44.10074" lon="3.01253">
        <ele>449.55</ele>
        <time>2016-11-20T13:42:40Z</time>
      </trkpt>
      <trkpt lat="44.10079" lon="3.01257">
        <ele>450.52</ele>
        <time>2016-11-20T13:42:44Z</time>
      </trkpt>
      <trkpt lat="44.10091" lon="3.01268">
        <ele>452.92</ele>
        <time>2016-11-20T13:43:00Z</time>
      </trkpt>
      <trkpt lat="44.10093" lon="3.01269">
        <ele>452.92</ele>
        <time>2016-11-20T13:43:02Z</time>
      </trkpt>
      <trkpt lat="44.10107" lon="3.01281">
        <ele>453.88</ele>
        <time>2016-11-20T13:43:13Z</time>
      </trkpt>
      <trkpt lat="44.10113" lon="3.01291">
        <ele>456.76</ele>
        <time>2016-11-20T13:43:22Z</time>
      </trkpt>
      <trkpt lat="44.10122" lon="3.01296">
        <ele>457.72</ele>
        <time>2016-11-20T13:43:31Z</time>
      </trkpt>
      <trkpt lat="44.10127" lon="3.01297">
        <ele>457.24</ele>
        <time>2016-11-20T13:43:36Z</time>
      </trkpt>
      <trkpt lat="44.10134" lon="3.01302">
        <ele>459.17</ele>
        <time>2016-11-20T13:43:44Z</time>
      </trkpt>
      <trkpt lat="44.10146" lon="3.01315">
        <ele>461.09</ele>
        <time>2016-11-20T13:43:57Z</time>
      </trkpt>
      <trkpt lat="44.10153" lon="3.01322">
        <ele>463.97</ele>
        <time>2016-11-20T13:44:08Z</time>
      </trkpt>
      <trkpt lat="44.10155" lon="3.01323">
        <ele>464.45</ele>
        <time>2016-11-20T13:44:10Z</time>
      </trkpt>
      <trkpt lat="44.10168" lon="3.01328">
        <ele>467.82</ele>
        <time>2016-11-20T13:44:22Z</time>
      </trkpt>
      <trkpt lat="44.10176" lon="3.01331">
        <ele>469.26</ele>
        <time>2016-11-20T13:44:32Z</time>
      </trkpt>
      <trkpt lat="44.10179" lon="3.01332">
        <ele>470.22</ele>
        <time>2016-11-20T13:44:34Z</time>
      </trkpt>
      <trkpt lat="44.10195" lon="3.01341">
        <ele>472.14</ele>
        <time>2016-11-20T13:44:46Z</time>
      </trkpt>
      <trkpt lat="44.10208" lon="3.01346">
        <ele>475.51</ele>
        <time>2016-11-20T13:44:59Z</time>
      </trkpt>
      <trkpt lat="44.10222" lon="3.01352">
        <ele>478.39</ele>
        <time>2016-11-20T13:45:12Z</time>
      </trkpt>
      <trkpt lat="44.10223" lon="3.01353">
        <ele>478.87</ele>
        <time>2016-11-20T13:45:13Z</time>
      </trkpt>
      <trkpt lat="44.10229" lon="3.01356">
        <ele>479.84</ele>
        <time>2016-11-20T13:45:20Z</time>
      </trkpt>
      <trkpt lat="44.10235" lon="3.01357">
        <ele>481.28</ele>
        <time>2016-11-20T13:45:26Z</time>
      </trkpt>
      <trkpt lat="44.10245" lon="3.01362">
        <ele>483.68</ele>
        <time>2016-11-20T13:45:39Z</time>
      </trkpt>
      <trkpt lat="44.10257" lon="3.01373">
        <ele>484.64</ele>
        <time>2016-11-20T13:45:50Z</time>
      </trkpt>
      <trkpt lat="44.10268" lon="3.0138">
        <ele>486.56</ele>
        <time>2016-11-20T13:46:01Z</time>
      </trkpt>
      <trkpt lat="44.10279" lon="3.01389">
        <ele>488.97</ele>
        <time>2016-11-20T13:46:11Z</time>
      </trkpt>
      <trkpt lat="44.10287" lon="3.01392">
        <ele>490.41</ele>
        <time>2016-11-20T13:46:16Z</time>
      </trkpt>
      <trkpt lat="44.10309" lon="3.01405">
        <ele>492.33</ele>
        <time>2016-11-20T13:46:33Z</time>
      </trkpt>
      <trkpt lat="44.10326" lon="3.01408">
        <ele>493.77</ele>
        <time>2016-11-20T13:46:46Z</time>
      </trkpt>
      <trkpt lat="44.1034" lon="3.01409">
        <ele>495.7</ele>
        <time>2016-11-20T13:46:57Z</time>
      </trkpt>
      <trkpt lat="44.10354" lon="3.01409">
        <ele>498.1</ele>
        <time>2016-11-20T13:47:10Z</time>
      </trkpt>
      <trkpt lat="44.10368" lon="3.01416">
        <ele>498.58</ele>
        <time>2016-11-20T13:47:23Z</time>
      </trkpt>
      <trkpt lat="44.10392" lon="3.01424">
        <ele>500.98</ele>
        <time>2016-11-20T13:47:40Z</time>
      </trkpt>
      <trkpt lat="44.10409" lon="3.01424">
        <ele>502.43</ele>
        <time>2016-11-20T13:47:55Z</time>
      </trkpt>
      <trkpt lat="44.10411" lon="3.01424">
        <ele>502.43</ele>
        <time>2016-11-20T13:47:57Z</time>
      </trkpt>
      <trkpt lat="44.10433" lon="3.0143">
        <ele>500.5</ele>
        <time>2016-11-20T13:48:13Z</time>
      </trkpt>
      <trkpt lat="44.10442" lon="3.01437">
        <ele>503.39</ele>
        <time>2016-11-20T13:48:25Z</time>
      </trkpt>
      <trkpt lat="44.10446" lon="3.01445">
        <ele>504.35</ele>
        <time>2016-11-20T13:48:38Z</time>
      </trkpt>
      <trkpt lat="44.10442" lon="3.01454">
        <ele>503.39</ele>
        <time>2016-11-20T13:48:53Z</time>
      </trkpt>
      <trkpt lat="44.10446" lon="3.01455">
        <ele>505.79</ele>
        <time>2016-11-20T13:48:59Z</time>
      </trkpt>
      <trkpt lat="44.10443" lon="3.01452">
        <ele>505.31</ele>
        <time>2016-11-20T13:49:25Z</time>
      </trkpt>
      <trkpt lat="44.10443" lon="3.01451">
        <ele>503.87</ele>
        <time>2016-11-20T13:49:28Z</time>
      </trkpt>
      <trkpt lat="44.10442" lon="3.01451">
        <ele>502.43</ele>
        <time>2016-11-20T13:49:34Z</time>
      </trkpt>
      <trkpt lat="44.10442" lon="3.01451">
        <ele>503.87</ele>
        <time>2016-11-20T13:49:36Z</time>
      </trkpt>
      <trkpt lat="44.10442" lon="3.01451">
        <ele>506.27</ele>
        <time>2016-11-20T13:50:12Z</time>
      </trkpt>
      <trkpt lat="44.10438" lon="3.01448">
        <ele>507.23</ele>
        <time>2016-11-20T13:50:44Z</time>
      </trkpt>
      <trkpt lat="44.10439" lon="3.01451">
        <ele>507.71</ele>
        <time>2016-11-20T13:51:09Z</time>
      </trkpt>
      <trkpt lat="44.10441" lon="3.0145">
        <ele>506.75</ele>
        <time>2016-11-20T13:51:26Z</time>
      </trkpt>
      <trkpt lat="44.10442" lon="3.01449">
        <ele>506.75</ele>
        <time>2016-11-20T13:51:52Z</time>
      </trkpt>
      <trkpt lat="44.10438" lon="3.01451">
        <ele>505.79</ele>
        <time>2016-11-20T13:52:14Z</time>
      </trkpt>
      <trkpt lat="44.10436" lon="3.01453">
        <ele>506.75</ele>
        <time>2016-11-20T13:52:36Z</time>
      </trkpt>
      <trkpt lat="44.10436" lon="3.01458">
        <ele>508.19</ele>
        <time>2016-11-20T13:52:40Z</time>
      </trkpt>
      <trkpt lat="44.10429" lon="3.01476">
        <ele>511.08</ele>
        <time>2016-11-20T13:52:56Z</time>
      </trkpt>
      <trkpt lat="44.10419" lon="3.0149">
        <ele>515.4</ele>
        <time>2016-11-20T13:53:08Z</time>
      </trkpt>
      <trkpt lat="44.10416" lon="3.01499">
        <ele>516.85</ele>
        <time>2016-11-20T13:53:15Z</time>
      </trkpt>
      <trkpt lat="44.1041" lon="3.01512">
        <ele>518.29</ele>
        <time>2016-11-20T13:53:26Z</time>
      </trkpt>
      <trkpt lat="44.10396" lon="3.01531">
        <ele>519.25</ele>
        <time>2016-11-20T13:53:40Z</time>
      </trkpt>
      <trkpt lat="44.10394" lon="3.01535">
        <ele>520.21</ele>
        <time>2016-11-20T13:53:43Z</time>
      </trkpt>
      <trkpt lat="44.1039" lon="3.0155">
        <ele>521.17</ele>
        <time>2016-11-20T13:53:56Z</time>
      </trkpt>
      <trkpt lat="44.10392" lon="3.01551">
        <ele>519.25</ele>
        <time>2016-11-20T13:54:08Z</time>
      </trkpt>
      <trkpt lat="44.10392" lon="3.01548">
        <ele>519.25</ele>
        <time>2016-11-20T13:54:28Z</time>
      </trkpt>
      <trkpt lat="44.10393" lon="3.01549">
        <ele>520.69</ele>
        <time>2016-11-20T13:54:54Z</time>
      </trkpt>
      <trkpt lat="44.10394" lon="3.01548">
        <ele>521.65</ele>
        <time>2016-11-20T13:54:58Z</time>
      </trkpt>
      <trkpt lat="44.1039" lon="3.01551">
        <ele>522.13</ele>
        <time>2016-11-20T13:55:08Z</time>
      </trkpt>
      <trkpt lat="44.1038" lon="3.01556">
        <ele>521.65</ele>
        <time>2016-11-20T13:55:17Z</time>
      </trkpt>
      <trkpt lat="44.1038" lon="3.01561">
        <ele>523.09</ele>
        <time>2016-11-20T13:55:20Z</time>
      </trkpt>
      <trkpt lat="44.1038" lon="3.01564">
        <ele>523.58</ele>
        <time>2016-11-20T13:55:22Z</time>
      </trkpt>
      <trkpt lat="44.10378" lon="3.01575">
        <ele>526.46</ele>
        <time>2016-11-20T13:55:32Z</time>
      </trkpt>
      <trkpt lat="44.10376" lon="3.01576">
        <ele>527.42</ele>
        <time>2016-11-20T13:55:34Z</time>
      </trkpt>
      <trkpt lat="44.1037" lon="3.0158">
        <ele>529.34</ele>
        <time>2016-11-20T13:55:46Z</time>
      </trkpt>
      <trkpt lat="44.10366" lon="3.01575">
        <ele>530.79</ele>
        <time>2016-11-20T13:56:01Z</time>
      </trkpt>
      <trkpt lat="44.1036" lon="3.01573">
        <ele>531.75</ele>
        <time>2016-11-20T13:56:13Z</time>
      </trkpt>
      <trkpt lat="44.10355" lon="3.01573">
        <ele>533.19</ele>
        <time>2016-11-20T13:56:24Z</time>
      </trkpt>
      <trkpt lat="44.10354" lon="3.01575">
        <ele>535.11</ele>
        <time>2016-11-20T13:56:36Z</time>
      </trkpt>
      <trkpt lat="44.10355" lon="3.01575">
        <ele>534.15</ele>
        <time>2016-11-20T13:56:59Z</time>
      </trkpt>
      <trkpt lat="44.10353" lon="3.01573">
        <ele>535.11</ele>
        <time>2016-11-20T13:57:28Z</time>
      </trkpt>
      <trkpt lat="44.10351" lon="3.0158">
        <ele>535.11</ele>
        <time>2016-11-20T13:57:45Z</time>
      </trkpt>
      <trkpt lat="44.10351" lon="3.0158">
        <ele>535.11</ele>
        <time>2016-11-20T13:58:01Z</time>
      </trkpt>
      <trkpt lat="44.1035" lon="3.0158">
        <ele>535.11</ele>
        <time>2016-11-20T13:58:24Z</time>
      </trkpt>
      <trkpt lat="44.10349" lon="3.01577">
        <ele>535.11</ele>
        <time>2016-11-20T13:58:47Z</time>
      </trkpt>
      <trkpt lat="44.10349" lon="3.01577">
        <ele>535.11</ele>
        <time>2016-11-20T13:59:07Z</time>
      </trkpt>
      <trkpt lat="44.10349" lon="3.01581">
        <ele>535.59</ele>
        <time>2016-11-20T13:59:29Z</time>
      </trkpt>
      <trkpt lat="44.1035" lon="3.0158">
        <ele>535.11</ele>
        <time>2016-11-20T13:59:53Z</time>
      </trkpt>
      <trkpt lat="44.1035" lon="3.0158">
        <ele>534.63</ele>
        <time>2016-11-20T14:00:17Z</time>
      </trkpt>
      <trkpt lat="44.10348" lon="3.01584">
        <ele>534.63</ele>
        <time>2016-11-20T14:00:30Z</time>
      </trkpt>
      <trkpt lat="44.10348" lon="3.0159">
        <ele>534.63</ele>
        <time>2016-11-20T14:00:43Z</time>
      </trkpt>
      <trkpt lat="44.10352" lon="3.01602">
        <ele>536.07</ele>
        <time>2016-11-20T14:00:51Z</time>
      </trkpt>
      <trkpt lat="44.10357" lon="3.01622">
        <ele>537.99</ele>
        <time>2016-11-20T14:01:04Z</time>
      </trkpt>
      <trkpt lat="44.1036" lon="3.01635">
        <ele>539.92</ele>
        <time>2016-11-20T14:01:16Z</time>
      </trkpt>
      <trkpt lat="44.10361" lon="3.01639">
        <ele>540.4</ele>
        <time>2016-11-20T14:01:20Z</time>
      </trkpt>
      <trkpt lat="44.10364" lon="3.01644">
        <ele>540.4</ele>
        <time>2016-11-20T14:01:23Z</time>
      </trkpt>
      <trkpt lat="44.10375" lon="3.01662">
        <ele>541.36</ele>
        <time>2016-11-20T14:01:38Z</time>
      </trkpt>
      <trkpt lat="44.10384" lon="3.01678">
        <ele>543.76</ele>
        <time>2016-11-20T14:01:54Z</time>
      </trkpt>
      <trkpt lat="44.1039" lon="3.01679">
        <ele>545.2</ele>
        <time>2016-11-20T14:02:03Z</time>
      </trkpt>
      <trkpt lat="44.10396" lon="3.01671">
        <ele>546.65</ele>
        <time>2016-11-20T14:02:11Z</time>
      </trkpt>
      <trkpt lat="44.10402" lon="3.0167">
        <ele>548.09</ele>
        <time>2016-11-20T14:02:16Z</time>
      </trkpt>
      <trkpt lat="44.10405" lon="3.01672">
        <ele>548.57</ele>
        <time>2016-11-20T14:02:19Z</time>
      </trkpt>
      <trkpt lat="44.10407" lon="3.01682">
        <ele>550.01</ele>
        <time>2016-11-20T14:02:26Z</time>
      </trkpt>
      <trkpt lat="44.10403" lon="3.01698">
        <ele>552.41</ele>
        <time>2016-11-20T14:02:38Z</time>
      </trkpt>
      <trkpt lat="44.10403" lon="3.01701">
        <ele>552.9</ele>
        <time>2016-11-20T14:02:49Z</time>
      </trkpt>
      <trkpt lat="44.10404" lon="3.01719">
        <ele>555.3</ele>
        <time>2016-11-20T14:03:02Z</time>
      </trkpt>
      <trkpt lat="44.10405" lon="3.01734">
        <ele>557.22</ele>
        <time>2016-11-20T14:03:11Z</time>
      </trkpt>
      <trkpt lat="44.10406" lon="3.01737">
        <ele>557.7</ele>
        <time>2016-11-20T14:03:13Z</time>
      </trkpt>
      <trkpt lat="44.10409" lon="3.01753">
        <ele>561.07</ele>
        <time>2016-11-20T14:03:26Z</time>
      </trkpt>
      <trkpt lat="44.10412" lon="3.01766">
        <ele>564.43</ele>
        <time>2016-11-20T14:03:37Z</time>
      </trkpt>
      <trkpt lat="44.10415" lon="3.01774">
        <ele>567.8</ele>
        <time>2016-11-20T14:03:44Z</time>
      </trkpt>
      <trkpt lat="44.10416" lon="3.01781">
        <ele>568.76</ele>
        <time>2016-11-20T14:03:49Z</time>
      </trkpt>
      <trkpt lat="44.10417" lon="3.01785">
        <ele>568.76</ele>
        <time>2016-11-20T14:03:52Z</time>
      </trkpt>
      <trkpt lat="44.10422" lon="3.01801">
        <ele>570.68</ele>
        <time>2016-11-20T14:04:05Z</time>
      </trkpt>
      <trkpt lat="44.10424" lon="3.01806">
        <ele>572.12</ele>
        <time>2016-11-20T14:04:09Z</time>
      </trkpt>
      <trkpt lat="44.10427" lon="3.01817">
        <ele>574.53</ele>
        <time>2016-11-20T14:04:17Z</time>
      </trkpt>
      <trkpt lat="44.10433" lon="3.01831">
        <ele>575.97</ele>
        <time>2016-11-20T14:04:30Z</time>
      </trkpt>
      <trkpt lat="44.10434" lon="3.01841">
        <ele>576.93</ele>
        <time>2016-11-20T14:04:44Z</time>
      </trkpt>
      <trkpt lat="44.10438" lon="3.01847">
        <ele>578.37</ele>
        <time>2016-11-20T14:04:57Z</time>
      </trkpt>
      <trkpt lat="44.10445" lon="3.0186">
        <ele>581.73</ele>
        <time>2016-11-20T14:05:10Z</time>
      </trkpt>
      <trkpt lat="44.10449" lon="3.01867">
        <ele>583.66</ele>
        <time>2016-11-20T14:05:16Z</time>
      </trkpt>
      <trkpt lat="44.10456" lon="3.0188">
        <ele>585.58</ele>
        <time>2016-11-20T14:05:29Z</time>
      </trkpt>
      <trkpt lat="44.10461" lon="3.01886">
        <ele>587.5</ele>
        <time>2016-11-20T14:05:45Z</time>
      </trkpt>
      <trkpt lat="44.10464" lon="3.01886">
        <ele>587.5</ele>
        <time>2016-11-20T14:06:10Z</time>
      </trkpt>
      <trkpt lat="44.10462" lon="3.01895">
        <ele>585.58</ele>
        <time>2016-11-20T14:06:31Z</time>
      </trkpt>
      <trkpt lat="44.10455" lon="3.01908">
        <ele>583.18</ele>
        <time>2016-11-20T14:06:48Z</time>
      </trkpt>
      <trkpt lat="44.10454" lon="3.01905">
        <ele>582.7</ele>
        <time>2016-11-20T14:07:05Z</time>
      </trkpt>
      <trkpt lat="44.10461" lon="3.01898">
        <ele>586.06</ele>
        <time>2016-11-20T14:07:20Z</time>
      </trkpt>
      <trkpt lat="44.1046" lon="3.01894">
        <ele>585.1</ele>
        <time>2016-11-20T14:07:40Z</time>
      </trkpt>
      <trkpt lat="44.10461" lon="3.01894">
        <ele>587.02</ele>
        <time>2016-11-20T14:08:01Z</time>
      </trkpt>
      <trkpt lat="44.1046" lon="3.01891">
        <ele>587.5</ele>
        <time>2016-11-20T14:08:24Z</time>
      </trkpt>
      <trkpt lat="44.10461" lon="3.01896">
        <ele>587.98</ele>
        <time>2016-11-20T14:08:50Z</time>
      </trkpt>
      <trkpt lat="44.10457" lon="3.01902">
        <ele>586.54</ele>
        <time>2016-11-20T14:09:08Z</time>
      </trkpt>
      <trkpt lat="44.1046" lon="3.01896">
        <ele>587.02</ele>
        <time>2016-11-20T14:09:30Z</time>
      </trkpt>
      <trkpt lat="44.10458" lon="3.01892">
        <ele>587.5</ele>
        <time>2016-11-20T14:09:46Z</time>
      </trkpt>
      <trkpt lat="44.10459" lon="3.01894">
        <ele>587.02</ele>
        <time>2016-11-20T14:10:10Z</time>
      </trkpt>
      <trkpt lat="44.10461" lon="3.01891">
        <ele>587.98</ele>
        <time>2016-11-20T14:10:15Z</time>
      </trkpt>
      <trkpt lat="44.10461" lon="3.01882">
        <ele>588.46</ele>
        <time>2016-11-20T14:10:29Z</time>
      </trkpt>
      <trkpt lat="44.10462" lon="3.01881">
        <ele>588.95</ele>
        <time>2016-11-20T14:10:49Z</time>
      </trkpt>
      <trkpt lat="44.10466" lon="3.01888">
        <ele>589.91</ele>
        <time>2016-11-20T14:11:08Z</time>
      </trkpt>
      <trkpt lat="44.10472" lon="3.01892">
        <ele>592.31</ele>
        <time>2016-11-20T14:11:20Z</time>
      </trkpt>
      <trkpt lat="44.10473" lon="3.01894">
        <ele>592.79</ele>
        <time>2016-11-20T14:11:22Z</time>
      </trkpt>
      <trkpt lat="44.10476" lon="3.01896">
        <ele>594.23</ele>
        <time>2016-11-20T14:11:24Z</time>
      </trkpt>
      <trkpt lat="44.10478" lon="3.01898">
        <ele>593.75</ele>
        <time>2016-11-20T14:11:25Z</time>
      </trkpt>
      <trkpt lat="44.10485" lon="3.019">
        <ele>595.67</ele>
        <time>2016-11-20T14:11:32Z</time>
      </trkpt>
      <trkpt lat="44.10486" lon="3.01902">
        <ele>595.19</ele>
        <time>2016-11-20T14:11:34Z</time>
      </trkpt>
      <trkpt lat="44.10502" lon="3.01913">
        <ele>598.56</ele>
        <time>2016-11-20T14:11:49Z</time>
      </trkpt>
      <trkpt lat="44.10506" lon="3.01916">
        <ele>599.04</ele>
        <time>2016-11-20T14:11:53Z</time>
      </trkpt>
      <trkpt lat="44.10522" lon="3.01928">
        <ele>601.44</ele>
        <time>2016-11-20T14:12:07Z</time>
      </trkpt>
      <trkpt lat="44.10535" lon="3.01938">
        <ele>603.85</ele>
        <time>2016-11-20T14:12:19Z</time>
      </trkpt>
      <trkpt lat="44.10544" lon="3.01945">
        <ele>606.73</ele>
        <time>2016-11-20T14:12:27Z</time>
      </trkpt>
      <trkpt lat="44.10561" lon="3.01956">
        <ele>609.13</ele>
        <time>2016-11-20T14:12:42Z</time>
      </trkpt>
      <trkpt lat="44.1058" lon="3.0197">
        <ele>612.02</ele>
        <time>2016-11-20T14:12:59Z</time>
      </trkpt>
      <trkpt lat="44.10595" lon="3.01982">
        <ele>614.9</ele>
        <time>2016-11-20T14:13:13Z</time>
      </trkpt>
      <trkpt lat="44.10606" lon="3.01989">
        <ele>616.34</ele>
        <time>2016-11-20T14:13:29Z</time>
      </trkpt>
      <trkpt lat="44.10605" lon="3.01988">
        <ele>615.86</ele>
        <time>2016-11-20T14:13:49Z</time>
      </trkpt>
      <trkpt lat="44.1061" lon="3.01992">
        <ele>616.82</ele>
        <time>2016-11-20T14:14:02Z</time>
      </trkpt>
      <trkpt lat="44.10626" lon="3.02002">
        <ele>619.23</ele>
        <time>2016-11-20T14:14:17Z</time>
      </trkpt>
      <trkpt lat="44.10646" lon="3.02016">
        <ele>620.67</ele>
        <time>2016-11-20T14:14:33Z</time>
      </trkpt>
      <trkpt lat="44.10661" lon="3.02025">
        <ele>621.15</ele>
        <time>2016-11-20T14:14:45Z</time>
      </trkpt>
      <trkpt lat="44.10668" lon="3.02031">
        <ele>622.11</ele>
        <time>2016-11-20T14:14:59Z</time>
      </trkpt>
      <trkpt lat="44.10668" lon="3.02031">
        <ele>622.59</ele>
        <time>2016-11-20T14:15:42Z</time>
      </trkpt>
      <trkpt lat="44.10668" lon="3.0203">
        <ele>622.59</ele>
        <time>2016-11-20T14:16:08Z</time>
      </trkpt>
      <trkpt lat="44.10669" lon="3.02027">
        <ele>622.11</ele>
        <time>2016-11-20T14:16:41Z</time>
      </trkpt>
      <trkpt lat="44.10671" lon="3.0203">
        <ele>623.07</ele>
        <time>2016-11-20T14:17:11Z</time>
      </trkpt>
      <trkpt lat="44.10672" lon="3.02031">
        <ele>623.55</ele>
        <time>2016-11-20T14:17:18Z</time>
      </trkpt>
      <trkpt lat="44.10676" lon="3.02036">
        <ele>623.55</ele>
        <time>2016-11-20T14:17:25Z</time>
      </trkpt>
      <trkpt lat="44.1069" lon="3.02049">
        <ele>624.51</ele>
        <time>2016-11-20T14:17:40Z</time>
      </trkpt>
      <trkpt lat="44.10705" lon="3.02063">
        <ele>624.99</ele>
        <time>2016-11-20T14:17:55Z</time>
      </trkpt>
      <trkpt lat="44.10707" lon="3.02065">
        <ele>624.99</ele>
        <time>2016-11-20T14:18:07Z</time>
      </trkpt>
      <trkpt lat="44.10711" lon="3.02069">
        <ele>624.99</ele>
        <time>2016-11-20T14:18:11Z</time>
      </trkpt>
      <trkpt lat="44.10726" lon="3.02089">
        <ele>624.99</ele>
        <time>2016-11-20T14:18:28Z</time>
      </trkpt>
      <trkpt lat="44.10742" lon="3.02106">
        <ele>625.96</ele>
        <time>2016-11-20T14:18:44Z</time>
      </trkpt>
      <trkpt lat="44.10745" lon="3.02109">
        <ele>625.96</ele>
        <time>2016-11-20T14:18:47Z</time>
      </trkpt>
      <trkpt lat="44.10763" lon="3.02125">
        <ele>628.36</ele>
        <time>2016-11-20T14:19:05Z</time>
      </trkpt>
      <trkpt lat="44.10769" lon="3.02128">
        <ele>628.84</ele>
        <time>2016-11-20T14:19:13Z</time>
      </trkpt>
      <trkpt lat="44.10774" lon="3.0213">
        <ele>629.32</ele>
        <time>2016-11-20T14:19:18Z</time>
      </trkpt>
      <trkpt lat="44.10794" lon="3.02136">
        <ele>631.24</ele>
        <time>2016-11-20T14:19:34Z</time>
      </trkpt>
      <trkpt lat="44.10807" lon="3.02139">
        <ele>631.72</ele>
        <time>2016-11-20T14:19:47Z</time>
      </trkpt>
      <trkpt lat="44.10828" lon="3.02143">
        <ele>633.17</ele>
        <time>2016-11-20T14:20:03Z</time>
      </trkpt>
      <trkpt lat="44.10831" lon="3.02143">
        <ele>633.65</ele>
        <time>2016-11-20T14:20:06Z</time>
      </trkpt>
      <trkpt lat="44.10848" lon="3.02146">
        <ele>634.61</ele>
        <time>2016-11-20T14:20:22Z</time>
      </trkpt>
      <trkpt lat="44.1085" lon="3.02155">
        <ele>632.2</ele>
        <time>2016-11-20T14:20:28Z</time>
      </trkpt>
      <trkpt lat="44.10841" lon="3.02176">
        <ele>631.72</ele>
        <time>2016-11-20T14:20:44Z</time>
      </trkpt>
      <trkpt lat="44.10833" lon="3.02199">
        <ele>629.8</ele>
        <time>2016-11-20T14:20:59Z</time>
      </trkpt>
      <trkpt lat="44.10829" lon="3.0221">
        <ele>627.4</ele>
        <time>2016-11-20T14:21:08Z</time>
      </trkpt>
      <trkpt lat="44.10828" lon="3.02211">
        <ele>626.92</ele>
        <time>2016-11-20T14:21:09Z</time>
      </trkpt>
      <trkpt lat="44.10823" lon="3.02221">
        <ele>623.07</ele>
        <time>2016-11-20T14:21:18Z</time>
      </trkpt>
      <trkpt lat="44.10822" lon="3.02222">
        <ele>624.03</ele>
        <time>2016-11-20T14:21:22Z</time>
      </trkpt>
      <trkpt lat="44.1081" lon="3.02238">
        <ele>620.67</ele>
        <time>2016-11-20T14:21:34Z</time>
      </trkpt>
      <trkpt lat="44.10804" lon="3.02247">
        <ele>619.71</ele>
        <time>2016-11-20T14:21:40Z</time>
      </trkpt>
      <trkpt lat="44.10794" lon="3.02261">
        <ele>619.71</ele>
        <time>2016-11-20T14:21:55Z</time>
      </trkpt>
      <trkpt lat="44.10793" lon="3.02259">
        <ele>617.78</ele>
        <time>2016-11-20T14:22:15Z</time>
      </trkpt>
      <trkpt lat="44.10792" lon="3.02264">
        <ele>615.86</ele>
        <time>2016-11-20T14:22:38Z</time>
      </trkpt>
      <trkpt lat="44.10777" lon="3.02291">
        <ele>618.26</ele>
        <time>2016-11-20T14:22:58Z</time>
      </trkpt>
      <trkpt lat="44.1076" lon="3.02317">
        <ele>618.26</ele>
        <time>2016-11-20T14:23:17Z</time>
      </trkpt>
      <trkpt lat="44.10746" lon="3.02337">
        <ele>620.67</ele>
        <time>2016-11-20T14:23:31Z</time>
      </trkpt>
      <trkpt lat="44.10729" lon="3.02362">
        <ele>621.63</ele>
        <time>2016-11-20T14:23:49Z</time>
      </trkpt>
      <trkpt lat="44.10713" lon="3.02387">
        <ele>620.19</ele>
        <time>2016-11-20T14:24:07Z</time>
      </trkpt>
      <trkpt lat="44.10695" lon="3.02406">
        <ele>620.19</ele>
        <time>2016-11-20T14:24:24Z</time>
      </trkpt>
      <trkpt lat="44.10683" lon="3.02417">
        <ele>616.82</ele>
        <time>2016-11-20T14:24:35Z</time>
      </trkpt>
      <trkpt lat="44.10664" lon="3.02439">
        <ele>614.42</ele>
        <time>2016-11-20T14:24:52Z</time>
      </trkpt>
      <trkpt lat="44.10646" lon="3.02454">
        <ele>611.54</ele>
        <time>2016-11-20T14:25:06Z</time>
      </trkpt>
      <trkpt lat="44.10629" lon="3.02472">
        <ele>608.65</ele>
        <time>2016-11-20T14:25:23Z</time>
      </trkpt>
      <trkpt lat="44.1061" lon="3.02486">
        <ele>606.73</ele>
        <time>2016-11-20T14:25:39Z</time>
      </trkpt>
      <trkpt lat="44.10608" lon="3.02487">
        <ele>606.25</ele>
        <time>2016-11-20T14:25:41Z</time>
      </trkpt>
      <trkpt lat="44.10597" lon="3.025">
        <ele>606.73</ele>
        <time>2016-11-20T14:25:54Z</time>
      </trkpt>
      <trkpt lat="44.10585" lon="3.02504">
        <ele>606.25</ele>
        <time>2016-11-20T14:26:07Z</time>
      </trkpt>
      <trkpt lat="44.10572" lon="3.02513">
        <ele>605.77</ele>
        <time>2016-11-20T14:26:21Z</time>
      </trkpt>
      <trkpt lat="44.10552" lon="3.0253">
        <ele>604.81</ele>
        <time>2016-11-20T14:26:38Z</time>
      </trkpt>
      <trkpt lat="44.10546" lon="3.02534">
        <ele>606.73</ele>
        <time>2016-11-20T14:26:43Z</time>
      </trkpt>
      <trkpt lat="44.10542" lon="3.02538">
        <ele>606.25</ele>
        <time>2016-11-20T14:26:47Z</time>
      </trkpt>
      <trkpt lat="44.10538" lon="3.0254">
        <ele>607.21</ele>
        <time>2016-11-20T14:26:50Z</time>
      </trkpt>
      <trkpt lat="44.10534" lon="3.02544">
        <ele>606.73</ele>
        <time>2016-11-20T14:26:54Z</time>
      </trkpt>
      <trkpt lat="44.10527" lon="3.0255">
        <ele>605.77</ele>
        <time>2016-11-20T14:27:00Z</time>
      </trkpt>
      <trkpt lat="44.10519" lon="3.02558">
        <ele>607.69</ele>
        <time>2016-11-20T14:27:07Z</time>
      </trkpt>
      <trkpt lat="44.10516" lon="3.02566">
        <ele>606.25</ele>
        <time>2016-11-20T14:27:12Z</time>
      </trkpt>
      <trkpt lat="44.10504" lon="3.02605">
        <ele>604.81</ele>
        <time>2016-11-20T14:27:34Z</time>
      </trkpt>
      <trkpt lat="44.10498" lon="3.02639">
        <ele>602.4</ele>
        <time>2016-11-20T14:27:54Z</time>
      </trkpt>
      <trkpt lat="44.10489" lon="3.02666">
        <ele>601.44</ele>
        <time>2016-11-20T14:28:11Z</time>
      </trkpt>
      <trkpt lat="44.10475" lon="3.02691">
        <ele>600.48</ele>
        <time>2016-11-20T14:28:27Z</time>
      </trkpt>
      <trkpt lat="44.1047" lon="3.02717">
        <ele>600.48</ele>
        <time>2016-11-20T14:28:38Z</time>
      </trkpt>
      <trkpt lat="44.10452" lon="3.02746">
        <ele>600.48</ele>
        <time>2016-11-20T14:28:56Z</time>
      </trkpt>
      <trkpt lat="44.10451" lon="3.02748">
        <ele>600</ele>
        <time>2016-11-20T14:28:58Z</time>
      </trkpt>
      <trkpt lat="44.10449" lon="3.02752">
        <ele>599.52</ele>
        <time>2016-11-20T14:29:02Z</time>
      </trkpt>
      <trkpt lat="44.10429" lon="3.02775">
        <ele>599.52</ele>
        <time>2016-11-20T14:29:23Z</time>
      </trkpt>
      <trkpt lat="44.10424" lon="3.02779">
        <ele>598.08</ele>
        <time>2016-11-20T14:29:28Z</time>
      </trkpt>
      <trkpt lat="44.1042" lon="3.02797">
        <ele>599.04</ele>
        <time>2016-11-20T14:29:40Z</time>
      </trkpt>
      <trkpt lat="44.10423" lon="3.02805">
        <ele>600.48</ele>
        <time>2016-11-20T14:29:45Z</time>
      </trkpt>
      <trkpt lat="44.10423" lon="3.02809">
        <ele>599.04</ele>
        <time>2016-11-20T14:29:47Z</time>
      </trkpt>
      <trkpt lat="44.10424" lon="3.0282">
        <ele>598.08</ele>
        <time>2016-11-20T14:30:01Z</time>
      </trkpt>
      <trkpt lat="44.10424" lon="3.02821">
        <ele>600</ele>
        <time>2016-11-20T14:30:16Z</time>
      </trkpt>
      <trkpt lat="44.10424" lon="3.02821">
        <ele>600.96</ele>
        <time>2016-11-20T14:30:27Z</time>
      </trkpt>
      <trkpt lat="44.10423" lon="3.02818">
        <ele>600</ele>
        <time>2016-11-20T14:30:47Z</time>
      </trkpt>
      <trkpt lat="44.10423" lon="3.02818">
        <ele>600</ele>
        <time>2016-11-20T14:31:06Z</time>
      </trkpt>
      <trkpt lat="44.10423" lon="3.02818">
        <ele>601.44</ele>
        <time>2016-11-20T14:31:11Z</time>
      </trkpt>
      <trkpt lat="44.10422" lon="3.02817">
        <ele>599.52</ele>
        <time>2016-11-20T14:31:15Z</time>
      </trkpt>
      <trkpt lat="44.10423" lon="3.02818">
        <ele>599.52</ele>
        <time>2016-11-20T14:31:34Z</time>
      </trkpt>
      <trkpt lat="44.10423" lon="3.02816">
        <ele>599.52</ele>
        <time>2016-11-20T14:31:55Z</time>
      </trkpt>
      <trkpt lat="44.10424" lon="3.0282">
        <ele>599.52</ele>
        <time>2016-11-20T14:32:05Z</time>
      </trkpt>
      <trkpt lat="44.10423" lon="3.0282">
        <ele>598.56</ele>
        <time>2016-11-20T14:32:15Z</time>
      </trkpt>
      <trkpt lat="44.10417" lon="3.02829">
        <ele>597.6</ele>
        <time>2016-11-20T14:32:27Z</time>
      </trkpt>
      <trkpt lat="44.10405" lon="3.02842">
        <ele>597.12</ele>
        <time>2016-11-20T14:32:41Z</time>
      </trkpt>
      <trkpt lat="44.10389" lon="3.02859">
        <ele>593.27</ele>
        <time>2016-11-20T14:32:57Z</time>
      </trkpt>
      <trkpt lat="44.10381" lon="3.02867">
        <ele>589.43</ele>
        <time>2016-11-20T14:33:05Z</time>
      </trkpt>
      <trkpt lat="44.10372" lon="3.02873">
        <ele>587.98</ele>
        <time>2016-11-20T14:33:13Z</time>
      </trkpt>
      <trkpt lat="44.10369" lon="3.02877">
        <ele>588.46</ele>
        <time>2016-11-20T14:33:16Z</time>
      </trkpt>
      <trkpt lat="44.10367" lon="3.02892">
        <ele>589.43</ele>
        <time>2016-11-20T14:33:30Z</time>
      </trkpt>
      <trkpt lat="44.10366" lon="3.02892">
        <ele>587.98</ele>
        <time>2016-11-20T14:33:35Z</time>
      </trkpt>
      <trkpt lat="44.10365" lon="3.02898">
        <ele>589.43</ele>
        <time>2016-11-20T14:33:48Z</time>
      </trkpt>
      <trkpt lat="44.10362" lon="3.02923">
        <ele>587.98</ele>
        <time>2016-11-20T14:34:04Z</time>
      </trkpt>
      <trkpt lat="44.10375" lon="3.02935">
        <ele>589.91</ele>
        <time>2016-11-20T14:34:20Z</time>
      </trkpt>
      <trkpt lat="44.10388" lon="3.02946">
        <ele>592.31</ele>
        <time>2016-11-20T14:34:34Z</time>
      </trkpt>
      <trkpt lat="44.10397" lon="3.02948">
        <ele>592.79</ele>
        <time>2016-11-20T14:34:42Z</time>
      </trkpt>
      <trkpt lat="44.10414" lon="3.02952">
        <ele>594.23</ele>
        <time>2016-11-20T14:34:56Z</time>
      </trkpt>
      <trkpt lat="44.10423" lon="3.02953">
        <ele>595.19</ele>
        <time>2016-11-20T14:35:04Z</time>
      </trkpt>
      <trkpt lat="44.10436" lon="3.02963">
        <ele>595.67</ele>
        <time>2016-11-20T14:35:17Z</time>
      </trkpt>
      <trkpt lat="44.10454" lon="3.02973">
        <ele>596.64</ele>
        <time>2016-11-20T14:35:34Z</time>
      </trkpt>
      <trkpt lat="44.1047" lon="3.02981">
        <ele>597.6</ele>
        <time>2016-11-20T14:35:49Z</time>
      </trkpt>
      <trkpt lat="44.1048" lon="3.02984">
        <ele>598.56</ele>
        <time>2016-11-20T14:35:58Z</time>
      </trkpt>
      <trkpt lat="44.1049" lon="3.02994">
        <ele>598.56</ele>
        <time>2016-11-20T14:36:07Z</time>
      </trkpt>
      <trkpt lat="44.10492" lon="3.02996">
        <ele>598.56</ele>
        <time>2016-11-20T14:36:09Z</time>
      </trkpt>
      <trkpt lat="44.10512" lon="3.03009">
        <ele>599.52</ele>
        <time>2016-11-20T14:36:26Z</time>
      </trkpt>
      <trkpt lat="44.10514" lon="3.03011">
        <ele>600</ele>
        <time>2016-11-20T14:36:28Z</time>
      </trkpt>
      <trkpt lat="44.1053" lon="3.03032">
        <ele>599.52</ele>
        <time>2016-11-20T14:36:47Z</time>
      </trkpt>
      <trkpt lat="44.10548" lon="3.03045">
        <ele>600.96</ele>
        <time>2016-11-20T14:37:04Z</time>
      </trkpt>
      <trkpt lat="44.10566" lon="3.03052">
        <ele>601.92</ele>
        <time>2016-11-20T14:37:20Z</time>
      </trkpt>
      <trkpt lat="44.10583" lon="3.03064">
        <ele>601.92</ele>
        <time>2016-11-20T14:37:36Z</time>
      </trkpt>
      <trkpt lat="44.1058" lon="3.03077">
        <ele>598.56</ele>
        <time>2016-11-20T14:37:49Z</time>
      </trkpt>
      <trkpt lat="44.1058" lon="3.03078">
        <ele>598.56</ele>
        <time>2016-11-20T14:37:50Z</time>
      </trkpt>
      <trkpt lat="44.10578" lon="3.03079">
        <ele>599.04</ele>
        <time>2016-11-20T14:37:53Z</time>
      </trkpt>
      <trkpt lat="44.10567" lon="3.03083">
        <ele>596.15</ele>
        <time>2016-11-20T14:38:07Z</time>
      </trkpt>
      <trkpt lat="44.10553" lon="3.03082">
        <ele>593.27</ele>
        <time>2016-11-20T14:38:20Z</time>
      </trkpt>
      <trkpt lat="44.10542" lon="3.0308">
        <ele>590.39</ele>
        <time>2016-11-20T14:38:28Z</time>
      </trkpt>
      <trkpt lat="44.10533" lon="3.03083">
        <ele>587.98</ele>
        <time>2016-11-20T14:38:38Z</time>
      </trkpt>
      <trkpt lat="44.10542" lon="3.03101">
        <ele>585.1</ele>
        <time>2016-11-20T14:38:53Z</time>
      </trkpt>
      <trkpt lat="44.10542" lon="3.03104">
        <ele>584.62</ele>
        <time>2016-11-20T14:38:57Z</time>
      </trkpt>
      <trkpt lat="44.10547" lon="3.03119">
        <ele>585.58</ele>
        <time>2016-11-20T14:39:05Z</time>
      </trkpt>
      <trkpt lat="44.10545" lon="3.0315">
        <ele>587.02</ele>
        <time>2016-11-20T14:39:23Z</time>
      </trkpt>
      <trkpt lat="44.10546" lon="3.03172">
        <ele>587.98</ele>
        <time>2016-11-20T14:39:39Z</time>
      </trkpt>
      <trkpt lat="44.10546" lon="3.03173">
        <ele>587.98</ele>
        <time>2016-11-20T14:39:41Z</time>
      </trkpt>
      <trkpt lat="44.10546" lon="3.03176">
        <ele>588.46</ele>
        <time>2016-11-20T14:39:43Z</time>
      </trkpt>
      <trkpt lat="44.1055" lon="3.03191">
        <ele>590.87</ele>
        <time>2016-11-20T14:39:57Z</time>
      </trkpt>
      <trkpt lat="44.10555" lon="3.03194">
        <ele>591.35</ele>
        <time>2016-11-20T14:40:07Z</time>
      </trkpt>
      <trkpt lat="44.10564" lon="3.03198">
        <ele>591.83</ele>
        <time>2016-11-20T14:40:15Z</time>
      </trkpt>
      <trkpt lat="44.10579" lon="3.03201">
        <ele>592.31</ele>
        <time>2016-11-20T14:40:31Z</time>
      </trkpt>
      <trkpt lat="44.10589" lon="3.03208">
        <ele>593.75</ele>
        <time>2016-11-20T14:40:43Z</time>
      </trkpt>
      <trkpt lat="44.10607" lon="3.03223">
        <ele>595.19</ele>
        <time>2016-11-20T14:40:59Z</time>
      </trkpt>
      <trkpt lat="44.10622" lon="3.03233">
        <ele>596.15</ele>
        <time>2016-11-20T14:41:13Z</time>
      </trkpt>
      <trkpt lat="44.1064" lon="3.03244">
        <ele>599.52</ele>
        <time>2016-11-20T14:41:29Z</time>
      </trkpt>
      <trkpt lat="44.10656" lon="3.03249">
        <ele>600.96</ele>
        <time>2016-11-20T14:41:43Z</time>
      </trkpt>
      <trkpt lat="44.10676" lon="3.03263">
        <ele>600.96</ele>
        <time>2016-11-20T14:42:01Z</time>
      </trkpt>
      <trkpt lat="44.10683" lon="3.03286">
        <ele>600.48</ele>
        <time>2016-11-20T14:42:15Z</time>
      </trkpt>
      <trkpt lat="44.10675" lon="3.0332">
        <ele>599.52</ele>
        <time>2016-11-20T14:42:34Z</time>
      </trkpt>
      <trkpt lat="44.1067" lon="3.03339">
        <ele>598.08</ele>
        <time>2016-11-20T14:42:45Z</time>
      </trkpt>
      <trkpt lat="44.10668" lon="3.03342">
        <ele>599.04</ele>
        <time>2016-11-20T14:42:47Z</time>
      </trkpt>
      <trkpt lat="44.10655" lon="3.03383">
        <ele>596.64</ele>
        <time>2016-11-20T14:43:11Z</time>
      </trkpt>
      <trkpt lat="44.10647" lon="3.0341">
        <ele>594.71</ele>
        <time>2016-11-20T14:43:27Z</time>
      </trkpt>
      <trkpt lat="44.1064" lon="3.03433">
        <ele>592.79</ele>
        <time>2016-11-20T14:43:43Z</time>
      </trkpt>
      <trkpt lat="44.10631" lon="3.03465">
        <ele>591.35</ele>
        <time>2016-11-20T14:44:02Z</time>
      </trkpt>
      <trkpt lat="44.10631" lon="3.03468">
        <ele>590.87</ele>
        <time>2016-11-20T14:44:04Z</time>
      </trkpt>
      <trkpt lat="44.10626" lon="3.03499">
        <ele>591.35</ele>
        <time>2016-11-20T14:44:20Z</time>
      </trkpt>
      <trkpt lat="44.10637" lon="3.03509">
        <ele>588.95</ele>
        <time>2016-11-20T14:44:30Z</time>
      </trkpt>
      <trkpt lat="44.10658" lon="3.03522">
        <ele>589.43</ele>
        <time>2016-11-20T14:44:48Z</time>
      </trkpt>
      <trkpt lat="44.10674" lon="3.03528">
        <ele>588.95</ele>
        <time>2016-11-20T14:45:02Z</time>
      </trkpt>
      <trkpt lat="44.10691" lon="3.03535">
        <ele>587.5</ele>
        <time>2016-11-20T14:45:18Z</time>
      </trkpt>
      <trkpt lat="44.10711" lon="3.03533">
        <ele>584.62</ele>
        <time>2016-11-20T14:45:35Z</time>
      </trkpt>
      <trkpt lat="44.10731" lon="3.0353">
        <ele>583.18</ele>
        <time>2016-11-20T14:45:49Z</time>
      </trkpt>
      <trkpt lat="44.10743" lon="3.0353">
        <ele>582.7</ele>
        <time>2016-11-20T14:45:56Z</time>
      </trkpt>
      <trkpt lat="44.1076" lon="3.03538">
        <ele>582.22</ele>
        <time>2016-11-20T14:46:08Z</time>
      </trkpt>
      <trkpt lat="44.1076" lon="3.03564">
        <ele>584.14</ele>
        <time>2016-11-20T14:46:23Z</time>
      </trkpt>
      <trkpt lat="44.10758" lon="3.03577">
        <ele>586.54</ele>
        <time>2016-11-20T14:46:36Z</time>
      </trkpt>
      <trkpt lat="44.10759" lon="3.03579">
        <ele>586.54</ele>
        <time>2016-11-20T14:47:00Z</time>
      </trkpt>
      <trkpt lat="44.10759" lon="3.03579">
        <ele>587.02</ele>
        <time>2016-11-20T14:47:18Z</time>
      </trkpt>
      <trkpt lat="44.10759" lon="3.03579">
        <ele>587.5</ele>
        <time>2016-11-20T14:47:47Z</time>
      </trkpt>
      <trkpt lat="44.10761" lon="3.03579">
        <ele>587.5</ele>
        <time>2016-11-20T14:48:15Z</time>
      </trkpt>
      <trkpt lat="44.10762" lon="3.03578">
        <ele>588.46</ele>
        <time>2016-11-20T14:48:23Z</time>
      </trkpt>
      <trkpt lat="44.10765" lon="3.03589">
        <ele>589.91</ele>
        <time>2016-11-20T14:48:34Z</time>
      </trkpt>
      <trkpt lat="44.10771" lon="3.036">
        <ele>589.91</ele>
        <time>2016-11-20T14:48:48Z</time>
      </trkpt>
      <trkpt lat="44.10781" lon="3.03611">
        <ele>589.91</ele>
        <time>2016-11-20T14:49:03Z</time>
      </trkpt>
      <trkpt lat="44.10789" lon="3.0362">
        <ele>590.39</ele>
        <time>2016-11-20T14:49:17Z</time>
      </trkpt>
      <trkpt lat="44.1079" lon="3.03621">
        <ele>590.87</ele>
        <time>2016-11-20T14:49:18Z</time>
      </trkpt>
      <trkpt lat="44.10795" lon="3.03626">
        <ele>590.87</ele>
        <time>2016-11-20T14:49:23Z</time>
      </trkpt>
      <trkpt lat="44.10803" lon="3.03636">
        <ele>590.39</ele>
        <time>2016-11-20T14:49:31Z</time>
      </trkpt>
      <trkpt lat="44.10805" lon="3.03638">
        <ele>590.87</ele>
        <time>2016-11-20T14:49:33Z</time>
      </trkpt>
      <trkpt lat="44.10814" lon="3.03649">
        <ele>589.91</ele>
        <time>2016-11-20T14:49:47Z</time>
      </trkpt>
      <trkpt lat="44.1083" lon="3.03663">
        <ele>588.95</ele>
        <time>2016-11-20T14:50:03Z</time>
      </trkpt>
      <trkpt lat="44.1084" lon="3.03671">
        <ele>588.95</ele>
        <time>2016-11-20T14:50:17Z</time>
      </trkpt>
      <trkpt lat="44.10852" lon="3.03678">
        <ele>587.98</ele>
        <time>2016-11-20T14:50:31Z</time>
      </trkpt>
      <trkpt lat="44.10871" lon="3.03689">
        <ele>586.54</ele>
        <time>2016-11-20T14:50:49Z</time>
      </trkpt>
      <trkpt lat="44.10881" lon="3.03694">
        <ele>584.62</ele>
        <time>2016-11-20T14:50:59Z</time>
      </trkpt>
      <trkpt lat="44.10896" lon="3.03706">
        <ele>582.7</ele>
        <time>2016-11-20T14:51:14Z</time>
      </trkpt>
      <trkpt lat="44.10897" lon="3.03707">
        <ele>582.7</ele>
        <time>2016-11-20T14:51:16Z</time>
      </trkpt>
      <trkpt lat="44.10906" lon="3.03712">
        <ele>582.22</ele>
        <time>2016-11-20T14:51:23Z</time>
      </trkpt>
      <trkpt lat="44.10915" lon="3.03711">
        <ele>580.77</ele>
        <time>2016-11-20T14:51:30Z</time>
      </trkpt>
      <trkpt lat="44.1093" lon="3.03709">
        <ele>578.37</ele>
        <time>2016-11-20T14:51:47Z</time>
      </trkpt>
      <trkpt lat="44.10938" lon="3.03708">
        <ele>576.45</ele>
        <time>2016-11-20T14:51:53Z</time>
      </trkpt>
      <trkpt lat="44.10955" lon="3.03708">
        <ele>575.01</ele>
        <time>2016-11-20T14:52:08Z</time>
      </trkpt>
      <trkpt lat="44.10966" lon="3.03713">
        <ele>575.01</ele>
        <time>2016-11-20T14:52:20Z</time>
      </trkpt>
      <trkpt lat="44.1097" lon="3.0373">
        <ele>573.56</ele>
        <time>2016-11-20T14:52:31Z</time>
      </trkpt>
      <trkpt lat="44.10967" lon="3.0374">
        <ele>571.64</ele>
        <time>2016-11-20T14:52:45Z</time>
      </trkpt>
      <trkpt lat="44.10969" lon="3.03745">
        <ele>570.2</ele>
        <time>2016-11-20T14:53:06Z</time>
      </trkpt>
      <trkpt lat="44.10964" lon="3.03748">
        <ele>570.68</ele>
        <time>2016-11-20T14:53:25Z</time>
      </trkpt>
      <trkpt lat="44.10962" lon="3.03752">
        <ele>570.2</ele>
        <time>2016-11-20T14:53:42Z</time>
      </trkpt>
      <trkpt lat="44.10961" lon="3.03754">
        <ele>571.64</ele>
        <time>2016-11-20T14:54:03Z</time>
      </trkpt>
      <trkpt lat="44.10962" lon="3.03755">
        <ele>571.16</ele>
        <time>2016-11-20T14:54:29Z</time>
      </trkpt>
      <trkpt lat="44.10965" lon="3.03755">
        <ele>570.2</ele>
        <time>2016-11-20T14:54:57Z</time>
      </trkpt>
      <trkpt lat="44.10965" lon="3.03752">
        <ele>570.68</ele>
        <time>2016-11-20T14:55:23Z</time>
      </trkpt>
      <trkpt lat="44.10965" lon="3.03751">
        <ele>570.2</ele>
        <time>2016-11-20T14:55:47Z</time>
      </trkpt>
      <trkpt lat="44.10965" lon="3.03754">
        <ele>569.72</ele>
        <time>2016-11-20T14:56:09Z</time>
      </trkpt>
      <trkpt lat="44.10968" lon="3.03764">
        <ele>571.16</ele>
        <time>2016-11-20T14:56:27Z</time>
      </trkpt>
      <trkpt lat="44.10979" lon="3.03776">
        <ele>571.64</ele>
        <time>2016-11-20T14:56:44Z</time>
      </trkpt>
      <trkpt lat="44.1099" lon="3.03783">
        <ele>572.12</ele>
        <time>2016-11-20T14:56:59Z</time>
      </trkpt>
      <trkpt lat="44.10994" lon="3.03799">
        <ele>573.56</ele>
        <time>2016-11-20T14:57:15Z</time>
      </trkpt>
      <trkpt lat="44.10997" lon="3.03814">
        <ele>577.41</ele>
        <time>2016-11-20T14:57:29Z</time>
      </trkpt>
      <trkpt lat="44.10998" lon="3.03819">
        <ele>577.41</ele>
        <time>2016-11-20T14:57:34Z</time>
      </trkpt>
      <trkpt lat="44.11" lon="3.03839">
        <ele>579.81</ele>
        <time>2016-11-20T14:57:50Z</time>
      </trkpt>
      <trkpt lat="44.11003" lon="3.03855">
        <ele>581.73</ele>
        <time>2016-11-20T14:58:02Z</time>
      </trkpt>
      <trkpt lat="44.11004" lon="3.0386">
        <ele>582.22</ele>
        <time>2016-11-20T14:58:06Z</time>
      </trkpt>
      <trkpt lat="44.11005" lon="3.03873">
        <ele>582.7</ele>
        <time>2016-11-20T14:58:21Z</time>
      </trkpt>
      <trkpt lat="44.1101" lon="3.03886">
        <ele>584.14</ele>
        <time>2016-11-20T14:58:34Z</time>
      </trkpt>
      <trkpt lat="44.11016" lon="3.0391">
        <ele>583.66</ele>
        <time>2016-11-20T14:58:50Z</time>
      </trkpt>
      <trkpt lat="44.11021" lon="3.03919">
        <ele>583.18</ele>
        <time>2016-11-20T14:58:57Z</time>
      </trkpt>
      <trkpt lat="44.11038" lon="3.03929">
        <ele>580.77</ele>
        <time>2016-11-20T14:59:13Z</time>
      </trkpt>
      <trkpt lat="44.1104" lon="3.03929">
        <ele>580.77</ele>
        <time>2016-11-20T14:59:14Z</time>
      </trkpt>
      <trkpt lat="44.1105" lon="3.0393">
        <ele>579.33</ele>
        <time>2016-11-20T14:59:24Z</time>
      </trkpt>
      <trkpt lat="44.11064" lon="3.03929">
        <ele>576.45</ele>
        <time>2016-11-20T14:59:37Z</time>
      </trkpt>
      <trkpt lat="44.11083" lon="3.03929">
        <ele>574.53</ele>
        <time>2016-11-20T14:59:53Z</time>
      </trkpt>
      <trkpt lat="44.11107" lon="3.03926">
        <ele>573.56</ele>
        <time>2016-11-20T15:00:11Z</time>
      </trkpt>
      <trkpt lat="44.11121" lon="3.03929">
        <ele>571.16</ele>
        <time>2016-11-20T15:00:23Z</time>
      </trkpt>
      <trkpt lat="44.11137" lon="3.03942">
        <ele>567.8</ele>
        <time>2016-11-20T15:00:37Z</time>
      </trkpt>
      <trkpt lat="44.11148" lon="3.03961">
        <ele>567.8</ele>
        <time>2016-11-20T15:00:52Z</time>
      </trkpt>
      <trkpt lat="44.11148" lon="3.03962">
        <ele>567.8</ele>
        <time>2016-11-20T15:00:53Z</time>
      </trkpt>
      <trkpt lat="44.11147" lon="3.03968">
        <ele>565.87</ele>
        <time>2016-11-20T15:00:57Z</time>
      </trkpt>
      <trkpt lat="44.11147" lon="3.03973">
        <ele>566.83</ele>
        <time>2016-11-20T15:01:00Z</time>
      </trkpt>
      <trkpt lat="44.11138" lon="3.04002">
        <ele>568.76</ele>
        <time>2016-11-20T15:01:18Z</time>
      </trkpt>
      <trkpt lat="44.11135" lon="3.04021">
        <ele>569.72</ele>
        <time>2016-11-20T15:01:31Z</time>
      </trkpt>
      <trkpt lat="44.11133" lon="3.04031">
        <ele>570.2</ele>
        <time>2016-11-20T15:01:37Z</time>
      </trkpt>
      <trkpt lat="44.11132" lon="3.04039">
        <ele>574.04</ele>
        <time>2016-11-20T15:01:43Z</time>
      </trkpt>
      <trkpt lat="44.11132" lon="3.04041">
        <ele>574.04</ele>
        <time>2016-11-20T15:01:44Z</time>
      </trkpt>
      <trkpt lat="44.11129" lon="3.04052">
        <ele>571.16</ele>
        <time>2016-11-20T15:01:51Z</time>
      </trkpt>
      <trkpt lat="44.11129" lon="3.04053">
        <ele>570.68</ele>
        <time>2016-11-20T15:01:52Z</time>
      </trkpt>
      <trkpt lat="44.1113" lon="3.04075">
        <ele>573.56</ele>
        <time>2016-11-20T15:02:06Z</time>
      </trkpt>
      <trkpt lat="44.11131" lon="3.04078">
        <ele>575.97</ele>
        <time>2016-11-20T15:02:08Z</time>
      </trkpt>
      <trkpt lat="44.11141" lon="3.04094">
        <ele>576.93</ele>
        <time>2016-11-20T15:02:21Z</time>
      </trkpt>
      <trkpt lat="44.11149" lon="3.04108">
        <ele>575.49</ele>
        <time>2016-11-20T15:02:32Z</time>
      </trkpt>
      <trkpt lat="44.1115" lon="3.04113">
        <ele>575.49</ele>
        <time>2016-11-20T15:02:35Z</time>
      </trkpt>
      <trkpt lat="44.11155" lon="3.04134">
        <ele>576.45</ele>
        <time>2016-11-20T15:02:48Z</time>
      </trkpt>
      <trkpt lat="44.11155" lon="3.04138">
        <ele>575.01</ele>
        <time>2016-11-20T15:02:51Z</time>
      </trkpt>
      <trkpt lat="44.11162" lon="3.04156">
        <ele>576.93</ele>
        <time>2016-11-20T15:03:05Z</time>
      </trkpt>
      <trkpt lat="44.11164" lon="3.04173">
        <ele>577.41</ele>
        <time>2016-11-20T15:03:16Z</time>
      </trkpt>
      <trkpt lat="44.11165" lon="3.04179">
        <ele>575.97</ele>
        <time>2016-11-20T15:03:20Z</time>
      </trkpt>
      <trkpt lat="44.11167" lon="3.0419">
        <ele>577.41</ele>
        <time>2016-11-20T15:03:26Z</time>
      </trkpt>
      <trkpt lat="44.11172" lon="3.04211">
        <ele>577.41</ele>
        <time>2016-11-20T15:03:39Z</time>
      </trkpt>
      <trkpt lat="44.1118" lon="3.04228">
        <ele>577.41</ele>
        <time>2016-11-20T15:03:53Z</time>
      </trkpt>
      <trkpt lat="44.11178" lon="3.04239">
        <ele>576.93</ele>
        <time>2016-11-20T15:04:05Z</time>
      </trkpt>
      <trkpt lat="44.11176" lon="3.04242">
        <ele>575.97</ele>
        <time>2016-11-20T15:04:13Z</time>
      </trkpt>
      <trkpt lat="44.11164" lon="3.04254">
        <ele>575.01</ele>
        <time>2016-11-20T15:04:26Z</time>
      </trkpt>
      <trkpt lat="44.11147" lon="3.04272">
        <ele>575.01</ele>
        <time>2016-11-20T15:04:43Z</time>
      </trkpt>
      <trkpt lat="44.11139" lon="3.04278">
        <ele>573.08</ele>
        <time>2016-11-20T15:04:51Z</time>
      </trkpt>
      <trkpt lat="44.11134" lon="3.04279">
        <ele>573.08</ele>
        <time>2016-11-20T15:04:56Z</time>
      </trkpt>
      <trkpt lat="44.11118" lon="3.04282">
        <ele>572.12</ele>
        <time>2016-11-20T15:05:11Z</time>
      </trkpt>
      <trkpt lat="44.11105" lon="3.04283">
        <ele>572.12</ele>
        <time>2016-11-20T15:05:24Z</time>
      </trkpt>
      <trkpt lat="44.11088" lon="3.04283">
        <ele>570.68</ele>
        <time>2016-11-20T15:05:40Z</time>
      </trkpt>
      <trkpt lat="44.11087" lon="3.04283">
        <ele>570.68</ele>
        <time>2016-11-20T15:05:41Z</time>
      </trkpt>
      <trkpt lat="44.11067" lon="3.04287">
        <ele>569.24</ele>
        <time>2016-11-20T15:05:59Z</time>
      </trkpt>
      <trkpt lat="44.11055" lon="3.04291">
        <ele>569.72</ele>
        <time>2016-11-20T15:06:10Z</time>
      </trkpt>
      <trkpt lat="44.11051" lon="3.04294">
        <ele>566.83</ele>
        <time>2016-11-20T15:06:14Z</time>
      </trkpt>
      <trkpt lat="44.11036" lon="3.04301">
        <ele>563.95</ele>
        <time>2016-11-20T15:06:29Z</time>
      </trkpt>
      <trkpt lat="44.11027" lon="3.04307">
        <ele>563.95</ele>
        <time>2016-11-20T15:06:37Z</time>
      </trkpt>
      <trkpt lat="44.11019" lon="3.04312">
        <ele>564.43</ele>
        <time>2016-11-20T15:06:45Z</time>
      </trkpt>
      <trkpt lat="44.11006" lon="3.04321">
        <ele>561.07</ele>
        <time>2016-11-20T15:06:58Z</time>
      </trkpt>
      <trkpt lat="44.10991" lon="3.04338">
        <ele>559.14</ele>
        <time>2016-11-20T15:07:14Z</time>
      </trkpt>
      <trkpt lat="44.10989" lon="3.04339">
        <ele>559.14</ele>
        <time>2016-11-20T15:07:16Z</time>
      </trkpt>
      <trkpt lat="44.1097" lon="3.04345">
        <ele>557.7</ele>
        <time>2016-11-20T15:07:34Z</time>
      </trkpt>
      <trkpt lat="44.10952" lon="3.0435">
        <ele>555.78</ele>
        <time>2016-11-20T15:07:50Z</time>
      </trkpt>
      <trkpt lat="44.10935" lon="3.04359">
        <ele>554.82</ele>
        <time>2016-11-20T15:08:06Z</time>
      </trkpt>
      <trkpt lat="44.10931" lon="3.04362">
        <ele>552.9</ele>
        <time>2016-11-20T15:08:10Z</time>
      </trkpt>
      <trkpt lat="44.10915" lon="3.04371">
        <ele>553.86</ele>
        <time>2016-11-20T15:08:27Z</time>
      </trkpt>
      <trkpt lat="44.10913" lon="3.04374">
        <ele>554.34</ele>
        <time>2016-11-20T15:08:41Z</time>
      </trkpt>
      <trkpt lat="44.10912" lon="3.04374">
        <ele>553.86</ele>
        <time>2016-11-20T15:08:53Z</time>
      </trkpt>
      <trkpt lat="44.1091" lon="3.04375">
        <ele>552.41</ele>
        <time>2016-11-20T15:08:58Z</time>
      </trkpt>
      <trkpt lat="44.10894" lon="3.04395">
        <ele>552.9</ele>
        <time>2016-11-20T15:09:16Z</time>
      </trkpt>
      <trkpt lat="44.1088" lon="3.04407">
        <ele>550.97</ele>
        <time>2016-11-20T15:09:31Z</time>
      </trkpt>
      <trkpt lat="44.10877" lon="3.0441">
        <ele>550.97</ele>
        <time>2016-11-20T15:09:34Z</time>
      </trkpt>
      <trkpt lat="44.1086" lon="3.04425">
        <ele>548.57</ele>
        <time>2016-11-20T15:09:51Z</time>
      </trkpt>
      <trkpt lat="44.10847" lon="3.04436">
        <ele>548.09</ele>
        <time>2016-11-20T15:10:06Z</time>
      </trkpt>
      <trkpt lat="44.10844" lon="3.04438">
        <ele>549.53</ele>
        <time>2016-11-20T15:10:09Z</time>
      </trkpt>
      <trkpt lat="44.10843" lon="3.04434">
        <ele>548.09</ele>
        <time>2016-11-20T15:10:13Z</time>
      </trkpt>
      <trkpt lat="44.10843" lon="3.04434">
        <ele>548.57</ele>
        <time>2016-11-20T15:10:14Z</time>
      </trkpt>
      <trkpt lat="44.10833" lon="3.04448">
        <ele>547.61</ele>
        <time>2016-11-20T15:10:28Z</time>
      </trkpt>
      <trkpt lat="44.10827" lon="3.0445">
        <ele>547.13</ele>
        <time>2016-11-20T15:10:40Z</time>
      </trkpt>
      <trkpt lat="44.10824" lon="3.04452">
        <ele>547.61</ele>
        <time>2016-11-20T15:10:49Z</time>
      </trkpt>
      <trkpt lat="44.10821" lon="3.04453">
        <ele>547.13</ele>
        <time>2016-11-20T15:10:52Z</time>
      </trkpt>
      <trkpt lat="44.10819" lon="3.04453">
        <ele>545.69</ele>
        <time>2016-11-20T15:10:54Z</time>
      </trkpt>
      <trkpt lat="44.10816" lon="3.04453">
        <ele>544.24</ele>
        <time>2016-11-20T15:10:56Z</time>
      </trkpt>
      <trkpt lat="44.10799" lon="3.04464">
        <ele>542.8</ele>
        <time>2016-11-20T15:11:12Z</time>
      </trkpt>
      <trkpt lat="44.10787" lon="3.04473">
        <ele>541.36</ele>
        <time>2016-11-20T15:11:23Z</time>
      </trkpt>
      <trkpt lat="44.10775" lon="3.04479">
        <ele>540.88</ele>
        <time>2016-11-20T15:11:35Z</time>
      </trkpt>
      <trkpt lat="44.10758" lon="3.04495">
        <ele>538.48</ele>
        <time>2016-11-20T15:11:52Z</time>
      </trkpt>
      <trkpt lat="44.10746" lon="3.04498">
        <ele>537.99</ele>
        <time>2016-11-20T15:12:05Z</time>
      </trkpt>
      <trkpt lat="44.10733" lon="3.045">
        <ele>535.59</ele>
        <time>2016-11-20T15:12:19Z</time>
      </trkpt>
      <trkpt lat="44.10726" lon="3.04501">
        <ele>534.15</ele>
        <time>2016-11-20T15:12:26Z</time>
      </trkpt>
      <trkpt lat="44.10708" lon="3.04498">
        <ele>533.67</ele>
        <time>2016-11-20T15:12:42Z</time>
      </trkpt>
      <trkpt lat="44.10698" lon="3.04494">
        <ele>533.67</ele>
        <time>2016-11-20T15:12:51Z</time>
      </trkpt>
      <trkpt lat="44.10682" lon="3.04488">
        <ele>533.19</ele>
        <time>2016-11-20T15:13:07Z</time>
      </trkpt>
      <trkpt lat="44.10678" lon="3.0448">
        <ele>531.75</ele>
        <time>2016-11-20T15:13:13Z</time>
      </trkpt>
      <trkpt lat="44.10675" lon="3.04476">
        <ele>530.3</ele>
        <time>2016-11-20T15:13:16Z</time>
      </trkpt>
      <trkpt lat="44.10665" lon="3.04467">
        <ele>530.3</ele>
        <time>2016-11-20T15:13:25Z</time>
      </trkpt>
      <trkpt lat="44.1066" lon="3.04463">
        <ele>530.3</ele>
        <time>2016-11-20T15:13:29Z</time>
      </trkpt>
      <trkpt lat="44.10647" lon="3.04444">
        <ele>530.3</ele>
        <time>2016-11-20T15:13:43Z</time>
      </trkpt>
      <trkpt lat="44.10645" lon="3.04443">
        <ele>530.3</ele>
        <time>2016-11-20T15:13:45Z</time>
      </trkpt>
      <trkpt lat="44.10629" lon="3.04428">
        <ele>530.3</ele>
        <time>2016-11-20T15:14:00Z</time>
      </trkpt>
      <trkpt lat="44.10615" lon="3.04415">
        <ele>528.38</ele>
        <time>2016-11-20T15:14:16Z</time>
      </trkpt>
      <trkpt lat="44.10614" lon="3.04414">
        <ele>527.9</ele>
        <time>2016-11-20T15:14:18Z</time>
      </trkpt>
      <trkpt lat="44.10609" lon="3.04408">
        <ele>525.5</ele>
        <time>2016-11-20T15:14:31Z</time>
      </trkpt>
      <trkpt lat="44.10602" lon="3.044">
        <ele>523.58</ele>
        <time>2016-11-20T15:14:42Z</time>
      </trkpt>
      <trkpt lat="44.10593" lon="3.04393">
        <ele>523.09</ele>
        <time>2016-11-20T15:14:50Z</time>
      </trkpt>
      <trkpt lat="44.10579" lon="3.04384">
        <ele>525.02</ele>
        <time>2016-11-20T15:15:02Z</time>
      </trkpt>
      <trkpt lat="44.10558" lon="3.04383">
        <ele>523.58</ele>
        <time>2016-11-20T15:15:20Z</time>
      </trkpt>
      <trkpt lat="44.10537" lon="3.04388">
        <ele>521.65</ele>
        <time>2016-11-20T15:15:38Z</time>
      </trkpt>
      <trkpt lat="44.10514" lon="3.04396">
        <ele>521.17</ele>
        <time>2016-11-20T15:15:56Z</time>
      </trkpt>
      <trkpt lat="44.10506" lon="3.04401">
        <ele>521.65</ele>
        <time>2016-11-20T15:16:02Z</time>
      </trkpt>
      <trkpt lat="44.10493" lon="3.04409">
        <ele>521.17</ele>
        <time>2016-11-20T15:16:15Z</time>
      </trkpt>
      <trkpt lat="44.10477" lon="3.04423">
        <ele>523.58</ele>
        <time>2016-11-20T15:16:31Z</time>
      </trkpt>
      <trkpt lat="44.10474" lon="3.04425">
        <ele>525.5</ele>
        <time>2016-11-20T15:16:34Z</time>
      </trkpt>
      <trkpt lat="44.10468" lon="3.04432">
        <ele>524.06</ele>
        <time>2016-11-20T15:16:41Z</time>
      </trkpt>
      <trkpt lat="44.10463" lon="3.04438">
        <ele>525.5</ele>
        <time>2016-11-20T15:16:46Z</time>
      </trkpt>
      <trkpt lat="44.10454" lon="3.04446">
        <ele>526.46</ele>
        <time>2016-11-20T15:16:54Z</time>
      </trkpt>
      <trkpt lat="44.1045" lon="3.04455">
        <ele>525.98</ele>
        <time>2016-11-20T15:17:04Z</time>
      </trkpt>
      <trkpt lat="44.10438" lon="3.0448">
        <ele>525.5</ele>
        <time>2016-11-20T15:17:22Z</time>
      </trkpt>
      <trkpt lat="44.10431" lon="3.04496">
        <ele>525.02</ele>
        <time>2016-11-20T15:17:35Z</time>
      </trkpt>
      <trkpt lat="44.10424" lon="3.04512">
        <ele>523.58</ele>
        <time>2016-11-20T15:17:46Z</time>
      </trkpt>
      <trkpt lat="44.10413" lon="3.04538">
        <ele>523.58</ele>
        <time>2016-11-20T15:18:03Z</time>
      </trkpt>
      <trkpt lat="44.10411" lon="3.04545">
        <ele>519.73</ele>
        <time>2016-11-20T15:18:07Z</time>
      </trkpt>
      <trkpt lat="44.1041" lon="3.04546">
        <ele>520.21</ele>
        <time>2016-11-20T15:18:08Z</time>
      </trkpt>
      <trkpt lat="44.1041" lon="3.04548">
        <ele>523.58</ele>
        <time>2016-11-20T15:18:09Z</time>
      </trkpt>
      <trkpt lat="44.10409" lon="3.04549">
        <ele>523.09</ele>
        <time>2016-11-20T15:18:10Z</time>
      </trkpt>
      <trkpt lat="44.10402" lon="3.04567">
        <ele>520.69</ele>
        <time>2016-11-20T15:18:21Z</time>
      </trkpt>
      <trkpt lat="44.10401" lon="3.0457">
        <ele>522.13</ele>
        <time>2016-11-20T15:18:23Z</time>
      </trkpt>
      <trkpt lat="44.10396" lon="3.04587">
        <ele>522.61</ele>
        <time>2016-11-20T15:18:32Z</time>
      </trkpt>
      <trkpt lat="44.10391" lon="3.04606">
        <ele>518.77</ele>
        <time>2016-11-20T15:18:44Z</time>
      </trkpt>
      <trkpt lat="44.1039" lon="3.04608">
        <ele>519.25</ele>
        <time>2016-11-20T15:18:45Z</time>
      </trkpt>
      <trkpt lat="44.10388" lon="3.04612">
        <ele>519.25</ele>
        <time>2016-11-20T15:18:48Z</time>
      </trkpt>
      <trkpt lat="44.10369" lon="3.04602">
        <ele>521.17</ele>
        <time>2016-11-20T15:19:03Z</time>
      </trkpt>
      <trkpt lat="44.10347" lon="3.04586">
        <ele>520.21</ele>
        <time>2016-11-20T15:19:21Z</time>
      </trkpt>
      <trkpt lat="44.10328" lon="3.04565">
        <ele>522.13</ele>
        <time>2016-11-20T15:19:40Z</time>
      </trkpt>
      <trkpt lat="44.10325" lon="3.04561">
        <ele>524.06</ele>
        <time>2016-11-20T15:19:55Z</time>
      </trkpt>
      <trkpt lat="44.10324" lon="3.04559">
        <ele>522.61</ele>
        <time>2016-11-20T15:20:11Z</time>
      </trkpt>
      <trkpt lat="44.10324" lon="3.04559">
        <ele>521.65</ele>
        <time>2016-11-20T15:20:15Z</time>
      </trkpt>
      <trkpt lat="44.10324" lon="3.04558">
        <ele>522.61</ele>
        <time>2016-11-20T15:20:46Z</time>
      </trkpt>
    </trkseg>
  </trk>
</gpx>